Provisional Data: Hunts Run near Cameron, PA


Please select a monitoring station.
Please select start date.
Please select start date.

Toggle Unit: C/F Toggle Unit: C/F
Sample Time Temperature (C) Temperature (F) Specific Conductivity (mS/cm) pH   Turbidity (NTU+) DO (mg/L)
12/23/2021 12:00:00 AM -99999.99 -179968 -99999.99 -99999.99 -99999.99 -99999.99
12/23/2021 12:15:00 AM -99999.99 -179968 -99999.99 -99999.99 -99999.99 -99999.99
12/23/2021 12:30:00 AM -99999.99 -179968 -99999.99 -99999.99 -99999.99 -99999.99
12/23/2021 12:45:00 AM -99999.99 -179968 -99999.99 -99999.99 -99999.99 -99999.99
12/23/2021 1:00:00 AM -99999.99 -179968 -99999.99 -99999.99 -99999.99 -99999.99
12/23/2021 1:15:00 AM -99999.99 -179968 -99999.99 -99999.99 -99999.99 -99999.99
12/23/2021 1:30:00 AM -99999.99 -179968 -99999.99 -99999.99 -99999.99 -99999.99
12/23/2021 1:45:00 AM -99999.99 -179968 -99999.99 -99999.99 -99999.99 -99999.99
12/23/2021 2:00:00 AM -99999.99 -179968 -99999.99 -99999.99 -99999.99 -99999.99
12/23/2021 2:15:00 AM -99999.99 -179968 -99999.99 -99999.99 -99999.99 -99999.99
12/23/2021 2:30:00 AM -99999.99 -179968 -99999.99 -99999.99 -99999.99 -99999.99
12/23/2021 2:45:00 AM -99999.99 -179968 -99999.99 -99999.99 -99999.99 -99999.99
12/23/2021 3:00:00 AM -99999.99 -179968 -99999.99 -99999.99 -99999.99 -99999.99
12/23/2021 3:15:00 AM -99999.99 -179968 -99999.99 -99999.99 -99999.99 -99999.99
12/23/2021 3:30:00 AM -99999.99 -179968 -99999.99 -99999.99 -99999.99 -99999.99
12/23/2021 3:45:00 AM -99999.99 -179968 -99999.99 -99999.99 -99999.99 -99999.99
12/23/2021 4:00:00 AM -99999.99 -179968 -99999.99 -99999.99 -99999.99 -99999.99
12/23/2021 4:15:00 AM -99999.99 -179968 -99999.99 -99999.99 -99999.99 -99999.99
12/23/2021 4:30:00 AM -99999.99 -179968 -99999.99 -99999.99 -99999.99 -99999.99
12/23/2021 4:45:00 AM -99999.99 -179968 -99999.99 -99999.99 -99999.99 -99999.99
12/23/2021 5:00:00 AM -99999.99 -179968 -99999.99 -99999.99 -99999.99 -99999.99
12/23/2021 5:15:00 AM -99999.99 -179968 -99999.99 -99999.99 -99999.99 -99999.99
12/23/2021 5:30:00 AM -99999.99 -179968 -99999.99 -99999.99 -99999.99 -99999.99
12/23/2021 5:45:00 AM -99999.99 -179968 -99999.99 -99999.99 -99999.99 -99999.99
12/23/2021 6:00:00 AM -99999.99 -179968 -99999.99 -99999.99 -99999.99 -99999.99
12/23/2021 6:15:00 AM -99999.99 -179968 -99999.99 -99999.99 -99999.99 -99999.99
12/23/2021 6:30:00 AM -99999.99 -179968 -99999.99 -99999.99 -99999.99 -99999.99
12/23/2021 6:45:00 AM -99999.99 -179968 -99999.99 -99999.99 -99999.99 -99999.99
12/23/2021 7:00:00 AM -99999.99 -179968 -99999.99 -99999.99 -99999.99 -99999.99
12/23/2021 7:15:00 AM -99999.99 -179968 -99999.99 -99999.99 -99999.99 -99999.99
12/23/2021 7:30:00 AM -99999.99 -179968 -99999.99 -99999.99 -99999.99 -99999.99
12/23/2021 7:45:00 AM -99999.99 -179968 -99999.99 -99999.99 -99999.99 -99999.99
12/23/2021 8:00:00 AM -99999.99 -179968 -99999.99 -99999.99 -99999.99 -99999.99
12/23/2021 8:15:00 AM -99999.99 -179968 -99999.99 -99999.99 -99999.99 -99999.99
12/23/2021 8:30:00 AM -99999.99 -179968 -99999.99 -99999.99 -99999.99 -99999.99
12/23/2021 8:45:00 AM -99999.99 -179968 -99999.99 -99999.99 -99999.99 -99999.99
12/23/2021 9:00:00 AM -99999.99 -179968 -99999.99 -99999.99 -99999.99 -99999.99
12/23/2021 9:15:00 AM -99999.99 -179968 -99999.99 -99999.99 -99999.99 -99999.99
12/23/2021 9:30:00 AM -99999.99 -179968 -99999.99 -99999.99 -99999.99 -99999.99
12/23/2021 9:45:00 AM -99999.99 -179968 -99999.99 -99999.99 -99999.99 -99999.99
12/23/2021 10:00:00 AM -99999.99 -179968 -99999.99 -99999.99 -99999.99 -99999.99
12/23/2021 10:15:00 AM -99999.99 -179968 -99999.99 -99999.99 -99999.99 -99999.99
12/23/2021 10:30:00 AM -99999.99 -179968 -99999.99 -99999.99 -99999.99 -99999.99
12/23/2021 10:45:00 AM -99999.99 -179968 -99999.99 -99999.99 -99999.99 -99999.99
12/23/2021 11:00:00 AM 2.7 36.86 0.029 -6.86 10.47 -99999.99
12/23/2021 11:15:00 AM 2.76 36.968 0.029 -5.86 10.47 -99999.99
12/23/2021 11:30:00 AM 2.81 37.058 0.029 -5.49 10.46 -99999.99
12/23/2021 11:45:00 AM 2.86 37.148 0.029 -5.17 10.46 -99999.99
12/23/2021 12:00:00 PM 2.89 37.202 0.029 -5.36 10.46 -99999.99
12/23/2021 12:15:00 PM 2.94 37.292 0.029 -5.25 10.46 -99999.99
12/23/2021 12:30:00 PM 2.99 37.382 0.029 -5.27 10.45 -99999.99
12/23/2021 12:45:00 PM 3.05 37.49 0.029 -5.29 10.45 -99999.99
12/23/2021 1:00:00 PM 3.09 37.562 0.029 -5.29 10.45 -99999.99
12/23/2021 1:15:00 PM 3.14 37.652 0.029 -5.28 10.45 -99999.99
12/23/2021 1:30:00 PM 3.19 37.742 0.029 -5.34 10.45 -99999.99
12/23/2021 1:45:00 PM 3.19 37.742 0.029 -3.71 10.44 -99999.99
12/23/2021 2:00:00 PM 3.21 37.778 0.029 -4.88 10.44 -99999.99
12/23/2021 2:15:00 PM 3.24 37.832 0.029 -4.97 10.44 -99999.99
12/23/2021 2:30:00 PM 3.26 37.868 0.029 -4.95 10.44 -99999.99
12/23/2021 2:45:00 PM 3.27 37.886 0.029 -4.6 10.44 -99999.99
12/23/2021 3:00:00 PM 3.27 37.886 0.029 -5.08 10.44 -99999.99
12/23/2021 3:15:00 PM 3.28 37.904 0.029 -5.18 10.43 -99999.99
12/23/2021 3:30:00 PM 3.28 37.904 0.029 -4.74 10.43 -99999.99
12/23/2021 3:45:00 PM 3.26 37.868 0.029 -4.44 10.43 -99999.99
12/23/2021 4:00:00 PM 3.25 37.85 0.029 -3.78 10.43 -99999.99
12/23/2021 4:15:00 PM 3.25 37.85 0.029 -3.5 10.43 -99999.99
12/23/2021 4:30:00 PM 3.24 37.832 0.029 -3.01 10.42 -99999.99
12/23/2021 4:45:00 PM 3.24 37.832 0.029 -2.81 10.42 -99999.99
12/23/2021 5:00:00 PM 3.24 37.832 0.029 -2.33 10.42 -99999.99
12/23/2021 5:15:00 PM 3.23 37.814 0.029 -2.32 10.42 -99999.99
12/23/2021 5:30:00 PM 3.23 37.814 0.029 -1.88 10.42 -99999.99
12/23/2021 5:45:00 PM 3.22 37.796 0.029 -1.77 10.42 -99999.99
12/23/2021 6:00:00 PM 3.22 37.796 0.029 -1.77 10.41 -99999.99
12/23/2021 6:15:00 PM 3.22 37.796 0.029 -1.24 10.41 -99999.99
12/23/2021 6:30:00 PM 3.22 37.796 0.029 -1.53 10.41 -99999.99
12/23/2021 6:45:00 PM 3.22 37.796 0.029 -1.19 10.41 -99999.99
12/23/2021 7:00:00 PM 3.21 37.778 0.029 -1.56 10.4 -99999.99
12/23/2021 7:15:00 PM 3.21 37.778 0.029 -1.38 10.41 -99999.99
12/23/2021 7:30:00 PM 3.21 37.778 0.029 -1.11 10.4 -99999.99
12/23/2021 7:45:00 PM 3.22 37.796 0.029 -1.03 10.4 -99999.99
12/23/2021 8:00:00 PM 3.22 37.796 0.029 -1.45 10.4 -99999.99
12/23/2021 8:15:00 PM 3.22 37.796 0.029 -1.36 10.4 -99999.99
12/23/2021 8:30:00 PM 3.22 37.796 0.029 -1.26 10.39 -99999.99
12/23/2021 8:45:00 PM 3.22 37.796 0.029 -0.98 10.39 -99999.99
12/23/2021 9:00:00 PM 3.23 37.814 0.029 -1.12 10.39 -99999.99
12/23/2021 9:15:00 PM 3.23 37.814 0.029 -1.33 10.38 -99999.99
12/23/2021 9:30:00 PM 3.23 37.814 0.029 -1.16 10.38 -99999.99
12/23/2021 9:45:00 PM 3.23 37.814 0.029 -1.35 10.38 -99999.99
12/23/2021 10:00:00 PM -99999.99 -179968 -99999.99 -99999.99 -99999.99 -99999.99
12/23/2021 10:15:00 PM -99999.99 -179968 -99999.99 -99999.99 -99999.99 -99999.99
12/23/2021 10:30:00 PM -99999.99 -179968 -99999.99 -99999.99 -99999.99 -99999.99
12/23/2021 10:45:00 PM -99999.99 -179968 -99999.99 -99999.99 -99999.99 -99999.99
12/23/2021 11:00:00 PM -99999.99 -179968 -99999.99 -99999.99 -99999.99 -99999.99
12/23/2021 11:15:00 PM -99999.99 -179968 -99999.99 -99999.99 -99999.99 -99999.99
12/23/2021 11:30:00 PM -99999.99 -179968 -99999.99 -99999.99 -99999.99 -99999.99
12/23/2021 11:45:00 PM -99999.99 -179968 -99999.99 -99999.99 -99999.99 -99999.99
12/24/2021 12:00:00 AM -99999.99 -179968 -99999.99 -99999.99 -99999.99 -99999.99
12/24/2021 12:15:00 AM -99999.99 -179968 -99999.99 -99999.99 -99999.99 -99999.99
12/24/2021 12:30:00 AM -99999.99 -179968 -99999.99 -99999.99 -99999.99 -99999.99
12/24/2021 12:45:00 AM -99999.99 -179968 -99999.99 -99999.99 -99999.99 -99999.99
12/24/2021 1:00:00 AM -99999.99 -179968 -99999.99 -99999.99 -99999.99 -99999.99
12/24/2021 1:15:00 AM -99999.99 -179968 -99999.99 -99999.99 -99999.99 -99999.99
12/24/2021 1:30:00 AM -99999.99 -179968 -99999.99 -99999.99 -99999.99 -99999.99
12/24/2021 1:45:00 AM -99999.99 -179968 -99999.99 -99999.99 -99999.99 -99999.99
12/24/2021 2:00:00 AM -99999.99 -179968 -99999.99 -99999.99 -99999.99 -99999.99
12/24/2021 2:15:00 AM -99999.99 -179968 -99999.99 -99999.99 -99999.99 -99999.99
12/24/2021 2:30:00 AM -99999.99 -179968 -99999.99 -99999.99 -99999.99 -99999.99
12/24/2021 2:45:00 AM -99999.99 -179968 -99999.99 -99999.99 -99999.99 -99999.99
12/24/2021 3:00:00 AM -99999.99 -179968 -99999.99 -99999.99 -99999.99 -99999.99
12/24/2021 3:15:00 AM -99999.99 -179968 -99999.99 -99999.99 -99999.99 -99999.99
12/24/2021 3:30:00 AM -99999.99 -179968 -99999.99 -99999.99 -99999.99 -99999.99
12/24/2021 3:45:00 AM -99999.99 -179968 -99999.99 -99999.99 -99999.99 -99999.99
12/24/2021 4:00:00 AM -99999.99 -179968 -99999.99 -99999.99 -99999.99 -99999.99
12/24/2021 4:15:00 AM -99999.99 -179968 -99999.99 -99999.99 -99999.99 -99999.99
12/24/2021 4:30:00 AM -99999.99 -179968 -99999.99 -99999.99 -99999.99 -99999.99
12/24/2021 4:45:00 AM -99999.99 -179968 -99999.99 -99999.99 -99999.99 -99999.99
12/24/2021 5:00:00 AM -99999.99 -179968 -99999.99 -99999.99 -99999.99 -99999.99
12/24/2021 5:15:00 AM -99999.99 -179968 -99999.99 -99999.99 -99999.99 -99999.99
12/24/2021 5:30:00 AM -99999.99 -179968 -99999.99 -99999.99 -99999.99 -99999.99
12/24/2021 5:45:00 AM -99999.99 -179968 -99999.99 -99999.99 -99999.99 -99999.99
12/24/2021 6:00:00 AM -99999.99 -179968 -99999.99 -99999.99 -99999.99 -99999.99
12/24/2021 6:15:00 AM -99999.99 -179968 -99999.99 -99999.99 -99999.99 -99999.99
12/24/2021 6:30:00 AM -99999.99 -179968 -99999.99 -99999.99 -99999.99 -99999.99
12/24/2021 6:45:00 AM -99999.99 -179968 -99999.99 -99999.99 -99999.99 -99999.99
12/24/2021 7:00:00 AM -99999.99 -179968 -99999.99 -99999.99 -99999.99 -99999.99
12/24/2021 7:15:00 AM -99999.99 -179968 -99999.99 -99999.99 -99999.99 -99999.99
12/24/2021 7:30:00 AM -99999.99 -179968 -99999.99 -99999.99 -99999.99 -99999.99
12/24/2021 7:45:00 AM -99999.99 -179968 -99999.99 -99999.99 -99999.99 -99999.99
12/24/2021 8:00:00 AM -99999.99 -179968 -99999.99 -99999.99 -99999.99 -99999.99
12/24/2021 8:15:00 AM -99999.99 -179968 -99999.99 -99999.99 -99999.99 -99999.99
12/24/2021 8:30:00 AM -99999.99 -179968 -99999.99 -99999.99 -99999.99 -99999.99
12/24/2021 8:45:00 AM -99999.99 -179968 -99999.99 -99999.99 -99999.99 -99999.99
12/24/2021 9:00:00 AM -99999.99 -179968 -99999.99 -99999.99 -99999.99 -99999.99
12/24/2021 9:15:00 AM -99999.99 -179968 -99999.99 -99999.99 -99999.99 -99999.99
12/24/2021 9:30:00 AM -99999.99 -179968 -99999.99 -99999.99 -99999.99 -99999.99
12/24/2021 9:45:00 AM -99999.99 -179968 -99999.99 -99999.99 -99999.99 -99999.99
12/24/2021 10:00:00 AM -99999.99 -179968 -99999.99 -99999.99 -99999.99 -99999.99
12/24/2021 10:15:00 AM 3.59 38.462 0.029 -7.14 10.4 -99999.99
12/24/2021 10:30:00 AM 3.61 38.498 0.029 -5.78 10.39 -99999.99
12/24/2021 10:45:00 AM 3.65 38.57 0.029 -5.05 10.39 -99999.99
12/24/2021 11:00:00 AM 3.7 38.66 0.029 -4.48 10.38 -99999.99
12/24/2021 11:15:00 AM 3.75 38.75 0.029 -4.9 10.38 -99999.99
12/24/2021 11:30:00 AM 3.79 38.822 0.029 -5.46 10.37 -99999.99
12/24/2021 11:45:00 AM 3.84 38.912 0.029 -4.33 10.37 -99999.99
12/24/2021 12:00:00 PM 3.89 39.002 0.029 -5.41 10.37 -99999.99
12/24/2021 12:15:00 PM 3.96 39.128 0.029 -4.49 10.36 -99999.99
12/24/2021 12:30:00 PM 4.02 39.236 0.029 -4.91 10.36 -99999.99
12/24/2021 12:45:00 PM 4.07 39.326 0.029 -5.39 10.36 -99999.99
12/24/2021 1:00:00 PM 4.13 39.434 0.029 -4.98 10.36 -99999.99
12/24/2021 1:15:00 PM 4.19 39.542 0.029 -4.28 10.35 -99999.99
12/24/2021 1:30:00 PM 4.25 39.65 0.029 -5.78 10.35 -99999.99
12/24/2021 1:45:00 PM 4.31 39.758 0.029 -5.39 10.35 -99999.99
12/24/2021 2:00:00 PM 4.38 39.884 0.029 -3.67 10.35 -99999.99
12/24/2021 2:15:00 PM 4.41 39.938 0.029 -5.19 10.35 -99999.99
12/24/2021 2:30:00 PM 4.44 39.992 0.029 -5.79 10.35 -99999.99
12/24/2021 2:45:00 PM 4.47 40.046 0.029 -4.36 10.35 -99999.99
12/24/2021 3:00:00 PM 4.51 40.118 0.029 -5.76 10.35 -99999.99
12/24/2021 3:15:00 PM 4.55 40.19 0.029 -5.55 10.35 -99999.99
12/24/2021 3:30:00 PM 4.58 40.244 0.029 -5 10.35 -99999.99
12/24/2021 3:45:00 PM 4.58 40.244 0.029 -4.41 10.34 -99999.99
12/24/2021 4:00:00 PM 4.57 40.226 0.029 -4.65 10.35 -99999.99
12/24/2021 4:15:00 PM 4.57 40.226 0.029 -3.86 10.35 -99999.99
12/24/2021 4:30:00 PM 4.56 40.208 0.029 -3.63 10.35 -99999.99
12/24/2021 4:45:00 PM 4.55 40.19 0.029 -3.1 10.34 -99999.99
12/24/2021 5:00:00 PM 4.55 40.19 0.029 -2.53 10.34 -99999.99
12/24/2021 5:15:00 PM 4.55 40.19 0.029 -1.32 10.34 -99999.99
12/24/2021 5:30:00 PM 4.54 40.172 0.029 -1.31 10.34 -99999.99
12/24/2021 5:45:00 PM 4.53 40.154 0.029 -1.46 10.34 -99999.99
12/24/2021 6:00:00 PM 4.52 40.136 0.029 -1.23 10.34 -99999.99
12/24/2021 6:15:00 PM 4.51 40.118 0.029 -1.97 10.33 -99999.99
12/24/2021 6:30:00 PM 4.52 40.136 0.029 -0.94 10.33 -99999.99
12/24/2021 6:45:00 PM 4.51 40.118 0.029 -1.66 10.33 -99999.99
12/24/2021 7:00:00 PM 4.51 40.118 0.029 -0.95 10.32 -99999.99
12/24/2021 7:15:00 PM 4.51 40.118 0.029 -0.57 10.32 -99999.99
12/24/2021 7:30:00 PM 4.51 40.118 0.029 -0.44 10.33 -99999.99
12/24/2021 7:45:00 PM 4.51 40.118 0.029 -1.44 10.33 -99999.99
12/24/2021 8:00:00 PM 4.52 40.136 0.029 -1.35 10.32 -99999.99
12/24/2021 8:15:00 PM 4.52 40.136 0.029 -0.93 10.32 -99999.99
12/24/2021 8:30:00 PM 4.52 40.136 0.029 -1.59 10.32 -99999.99
12/24/2021 8:45:00 PM 4.53 40.154 0.029 -0.9 10.32 -99999.99
12/24/2021 9:00:00 PM 4.54 40.172 0.029 -0.37 10.32 -99999.99
12/24/2021 9:15:00 PM 4.54 40.172 0.029 -1.57 10.32 -99999.99
12/24/2021 9:30:00 PM 4.55 40.19 0.029 -0.69 10.31 -99999.99
12/24/2021 9:45:00 PM 4.55 40.19 0.029 -1.19 10.31 -99999.99
12/24/2021 10:00:00 PM 4.56 40.208 0.029 -0.88 10.31 -99999.99
12/24/2021 10:15:00 PM 4.56 40.208 0.029 -0.37 10.3 -99999.99
12/24/2021 10:30:00 PM 4.57 40.226 0.029 -1.19 10.3 -99999.99
12/24/2021 10:45:00 PM 4.58 40.244 0.029 -0.68 10.3 -99999.99
12/24/2021 11:00:00 PM 4.59 40.262 0.029 -1.01 10.3 -99999.99
12/24/2021 11:15:00 PM 4.6 40.28 0.029 -0.94 10.3 -99999.99
12/24/2021 11:30:00 PM 4.6 40.28 0.029 -1.16 10.3 -99999.99
12/24/2021 11:45:00 PM 4.61 40.298 0.029 -0.84 10.3 -99999.99
12/25/2021 12:00:00 AM 4.62 40.316 0.029 -0.74 10.29 -99999.99
12/25/2021 12:15:00 AM 4.63 40.334 0.029 -0.93 10.29 -99999.99
12/25/2021 12:30:00 AM 4.64 40.352 0.029 -0.85 10.29 -99999.99
12/25/2021 12:45:00 AM 4.64 40.352 0.029 -1.21 10.28 -99999.99
12/25/2021 1:00:00 AM 4.65 40.37 0.029 -0.65 10.28 -99999.99
12/25/2021 1:15:00 AM 4.66 40.388 0.029 -0.49 10.27 -99999.99
12/25/2021 1:30:00 AM 4.66 40.388 0.029 -1.24 10.27 -99999.99
12/25/2021 1:45:00 AM 4.67 40.406 0.029 -0.63 10.27 -99999.99
12/25/2021 2:00:00 AM 4.69 40.442 0.029 -0.68 10.27 -99999.99
12/25/2021 2:15:00 AM 4.7 40.46 0.029 -0.78 10.27 -99999.99
12/25/2021 2:30:00 AM 4.7 40.46 0.029 -1.38 10.26 -99999.99
12/25/2021 2:45:00 AM 4.71 40.478 0.029 -1.09 10.26 -99999.99
12/25/2021 3:00:00 AM 4.73 40.514 0.029 -0.64 10.26 -99999.99
12/25/2021 3:15:00 AM 4.73 40.514 0.029 -0.84 10.26 -99999.99
12/25/2021 3:30:00 AM 4.74 40.532 0.029 -0.56 10.26 -99999.99
12/25/2021 3:45:00 AM 4.75 40.55 0.029 -0.94 10.25 -99999.99
12/25/2021 4:00:00 AM 4.76 40.568 0.029 -1.21 10.25 -99999.99
12/25/2021 4:15:00 AM 4.78 40.604 0.029 -0.73 10.24 -99999.99
12/25/2021 4:30:00 AM 4.78 40.604 0.029 -0.71 10.24 -99999.99
12/25/2021 4:45:00 AM 4.8 40.64 0.029 -0.65 10.24 -99999.99
12/25/2021 5:00:00 AM 4.8 40.64 0.029 -1.27 10.24 -99999.99
12/25/2021 5:15:00 AM 4.81 40.658 0.029 -1.1 10.23 -99999.99
12/25/2021 5:30:00 AM 4.82 40.676 0.029 -1.51 10.23 -99999.99
12/25/2021 5:45:00 AM 4.83 40.694 0.029 -0.57 10.23 -99999.99
12/25/2021 6:00:00 AM 4.83 40.694 0.029 -0.65 10.23 -99999.99
12/25/2021 6:15:00 AM 4.84 40.712 0.029 -0.41 10.23 -99999.99
12/25/2021 6:30:00 AM 4.85 40.73 0.029 -1.19 10.23 -99999.99
12/25/2021 6:45:00 AM 4.86 40.748 0.029 -0.45 10.23 -99999.99
12/25/2021 7:00:00 AM 4.86 40.748 0.029 -1.01 10.23 -99999.99
12/25/2021 7:15:00 AM 4.87 40.766 0.029 -0.2 10.23 -99999.99
12/25/2021 7:30:00 AM 4.88 40.784 0.029 -1.37 10.23 -99999.99
12/25/2021 7:45:00 AM 4.89 40.802 0.029 -0.83 10.23 -99999.99
12/25/2021 8:00:00 AM 4.89 40.802 0.029 -1.26 10.23 -99999.99
12/25/2021 8:15:00 AM 4.9 40.82 0.029 -1.47 10.23 -99999.99
12/25/2021 8:30:00 AM 4.92 40.856 0.029 -1.43 10.23 -99999.99
12/25/2021 8:45:00 AM 4.93 40.874 0.029 -2.07 10.23 -99999.99
12/25/2021 9:00:00 AM 4.94 40.892 0.029 -2.39 10.23 -99999.99
12/25/2021 9:15:00 AM 4.96 40.928 0.029 -2.7 10.23 -99999.99
12/25/2021 9:30:00 AM 4.98 40.964 0.029 -3.18 10.23 -99999.99
12/25/2021 9:45:00 AM 5.01 41.018 0.029 -3.8 10.23 -99999.99
12/25/2021 10:00:00 AM 5.03 41.054 0.029 -4.21 10.23 -99999.99
12/25/2021 10:15:00 AM -99999.99 -179968 -99999.99 -99999.99 -99999.99 -99999.99
12/25/2021 10:30:00 AM -99999.99 -179968 -99999.99 -99999.99 -99999.99 -99999.99
12/25/2021 10:45:00 AM -99999.99 -179968 -99999.99 -99999.99 -99999.99 -99999.99
12/25/2021 11:00:00 AM -99999.99 -179968 -99999.99 -99999.99 -99999.99 -99999.99
12/25/2021 11:15:00 AM -99999.99 -179968 -99999.99 -99999.99 -99999.99 -99999.99
12/25/2021 11:30:00 AM -99999.99 -179968 -99999.99 -99999.99 -99999.99 -99999.99
12/25/2021 11:45:00 AM -99999.99 -179968 -99999.99 -99999.99 -99999.99 -99999.99
12/25/2021 12:00:00 PM -99999.99 -179968 -99999.99 -99999.99 -99999.99 -99999.99
12/25/2021 12:15:00 PM -99999.99 -179968 -99999.99 -99999.99 -99999.99 -99999.99
12/25/2021 12:30:00 PM -99999.99 -179968 -99999.99 -99999.99 -99999.99 -99999.99
12/25/2021 12:45:00 PM -99999.99 -179968 -99999.99 -99999.99 -99999.99 -99999.99
12/25/2021 1:00:00 PM -99999.99 -179968 -99999.99 -99999.99 -99999.99 -99999.99
12/25/2021 1:15:00 PM -99999.99 -179968 -99999.99 -99999.99 -99999.99 -99999.99
12/25/2021 1:30:00 PM -99999.99 -179968 -99999.99 -99999.99 -99999.99 -99999.99
12/25/2021 1:45:00 PM -99999.99 -179968 -99999.99 -99999.99 -99999.99 -99999.99
12/25/2021 2:00:00 PM -99999.99 -179968 -99999.99 -99999.99 -99999.99 -99999.99
12/25/2021 2:15:00 PM -99999.99 -179968 -99999.99 -99999.99 -99999.99 -99999.99
12/25/2021 2:30:00 PM -99999.99 -179968 -99999.99 -99999.99 -99999.99 -99999.99
12/25/2021 2:45:00 PM -99999.99 -179968 -99999.99 -99999.99 -99999.99 -99999.99
12/25/2021 3:00:00 PM -99999.99 -179968 -99999.99 -99999.99 -99999.99 -99999.99
12/25/2021 3:15:00 PM -99999.99 -179968 -99999.99 -99999.99 -99999.99 -99999.99
12/25/2021 3:30:00 PM -99999.99 -179968 -99999.99 -99999.99 -99999.99 -99999.99
12/25/2021 3:45:00 PM -99999.99 -179968 -99999.99 -99999.99 -99999.99 -99999.99
12/25/2021 4:00:00 PM -99999.99 -179968 -99999.99 -99999.99 -99999.99 -99999.99
12/25/2021 4:15:00 PM -99999.99 -179968 -99999.99 -99999.99 -99999.99 -99999.99
12/25/2021 4:30:00 PM -99999.99 -179968 -99999.99 -99999.99 -99999.99 -99999.99
12/25/2021 4:45:00 PM -99999.99 -179968 -99999.99 -99999.99 -99999.99 -99999.99
12/25/2021 5:00:00 PM -99999.99 -179968 -99999.99 -99999.99 -99999.99 -99999.99
12/25/2021 5:15:00 PM -99999.99 -179968 -99999.99 -99999.99 -99999.99 -99999.99
12/25/2021 5:30:00 PM -99999.99 -179968 -99999.99 -99999.99 -99999.99 -99999.99
12/25/2021 5:45:00 PM -99999.99 -179968 -99999.99 -99999.99 -99999.99 -99999.99
12/25/2021 6:00:00 PM -99999.99 -179968 -99999.99 -99999.99 -99999.99 -99999.99
12/25/2021 6:15:00 PM -99999.99 -179968 -99999.99 -99999.99 -99999.99 -99999.99
12/25/2021 6:30:00 PM -99999.99 -179968 -99999.99 -99999.99 -99999.99 -99999.99
12/25/2021 6:45:00 PM -99999.99 -179968 -99999.99 -99999.99 -99999.99 -99999.99
12/25/2021 7:00:00 PM -99999.99 -179968 -99999.99 -99999.99 -99999.99 -99999.99
12/25/2021 7:15:00 PM -99999.99 -179968 -99999.99 -99999.99 -99999.99 -99999.99
12/25/2021 7:30:00 PM -99999.99 -179968 -99999.99 -99999.99 -99999.99 -99999.99
12/25/2021 7:45:00 PM -99999.99 -179968 -99999.99 -99999.99 -99999.99 -99999.99
12/25/2021 8:00:00 PM -99999.99 -179968 -99999.99 -99999.99 -99999.99 -99999.99
12/25/2021 8:15:00 PM -99999.99 -179968 -99999.99 -99999.99 -99999.99 -99999.99
12/25/2021 8:30:00 PM -99999.99 -179968 -99999.99 -99999.99 -99999.99 -99999.99
12/25/2021 8:45:00 PM -99999.99 -179968 -99999.99 -99999.99 -99999.99 -99999.99
12/25/2021 9:00:00 PM -99999.99 -179968 -99999.99 -99999.99 -99999.99 -99999.99
12/25/2021 9:15:00 PM -99999.99 -179968 -99999.99 -99999.99 -99999.99 -99999.99
12/25/2021 9:30:00 PM -99999.99 -179968 -99999.99 -99999.99 -99999.99 -99999.99
12/25/2021 9:45:00 PM -99999.99 -179968 -99999.99 -99999.99 -99999.99 -99999.99
12/25/2021 10:00:00 PM -99999.99 -179968 -99999.99 -99999.99 -99999.99 -99999.99
12/25/2021 10:15:00 PM -99999.99 -179968 -99999.99 -99999.99 -99999.99 -99999.99
12/25/2021 10:30:00 PM -99999.99 -179968 -99999.99 -99999.99 -99999.99 -99999.99
12/25/2021 10:45:00 PM -99999.99 -179968 -99999.99 -99999.99 -99999.99 -99999.99
12/25/2021 11:00:00 PM -99999.99 -179968 -99999.99 -99999.99 -99999.99 -99999.99
12/25/2021 11:15:00 PM -99999.99 -179968 -99999.99 -99999.99 -99999.99 -99999.99
12/25/2021 11:30:00 PM -99999.99 -179968 -99999.99 -99999.99 -99999.99 -99999.99
12/25/2021 11:45:00 PM -99999.99 -179968 -99999.99 -99999.99 -99999.99 -99999.99
12/26/2021 12:00:00 AM -99999.99 -179968 -99999.99 -99999.99 -99999.99 -99999.99
12/26/2021 12:15:00 AM -99999.99 -179968 -99999.99 -99999.99 -99999.99 -99999.99
12/26/2021 12:30:00 AM -99999.99 -179968 -99999.99 -99999.99 -99999.99 -99999.99
12/26/2021 12:45:00 AM -99999.99 -179968 -99999.99 -99999.99 -99999.99 -99999.99
12/26/2021 1:00:00 AM -99999.99 -179968 -99999.99 -99999.99 -99999.99 -99999.99
12/26/2021 1:15:00 AM -99999.99 -179968 -99999.99 -99999.99 -99999.99 -99999.99
12/26/2021 1:30:00 AM -99999.99 -179968 -99999.99 -99999.99 -99999.99 -99999.99
12/26/2021 1:45:00 AM -99999.99 -179968 -99999.99 -99999.99 -99999.99 -99999.99
12/26/2021 2:00:00 AM -99999.99 -179968 -99999.99 -99999.99 -99999.99 -99999.99
12/26/2021 2:15:00 AM -99999.99 -179968 -99999.99 -99999.99 -99999.99 -99999.99
12/26/2021 2:30:00 AM -99999.99 -179968 -99999.99 -99999.99 -99999.99 -99999.99
12/26/2021 2:45:00 AM -99999.99 -179968 -99999.99 -99999.99 -99999.99 -99999.99
12/26/2021 3:00:00 AM -99999.99 -179968 -99999.99 -99999.99 -99999.99 -99999.99
12/26/2021 3:15:00 AM -99999.99 -179968 -99999.99 -99999.99 -99999.99 -99999.99
12/26/2021 3:30:00 AM -99999.99 -179968 -99999.99 -99999.99 -99999.99 -99999.99
12/26/2021 3:45:00 AM -99999.99 -179968 -99999.99 -99999.99 -99999.99 -99999.99
12/26/2021 4:00:00 AM -99999.99 -179968 -99999.99 -99999.99 -99999.99 -99999.99
12/26/2021 4:15:00 AM -99999.99 -179968 -99999.99 -99999.99 -99999.99 -99999.99
12/26/2021 4:30:00 AM -99999.99 -179968 -99999.99 -99999.99 -99999.99 -99999.99
12/26/2021 4:45:00 AM -99999.99 -179968 -99999.99 -99999.99 -99999.99 -99999.99
12/26/2021 5:00:00 AM -99999.99 -179968 -99999.99 -99999.99 -99999.99 -99999.99
12/26/2021 5:15:00 AM -99999.99 -179968 -99999.99 -99999.99 -99999.99 -99999.99
12/26/2021 5:30:00 AM -99999.99 -179968 -99999.99 -99999.99 -99999.99 -99999.99
12/26/2021 5:45:00 AM -99999.99 -179968 -99999.99 -99999.99 -99999.99 -99999.99
12/26/2021 6:00:00 AM -99999.99 -179968 -99999.99 -99999.99 -99999.99 -99999.99
12/26/2021 6:15:00 AM -99999.99 -179968 -99999.99 -99999.99 -99999.99 -99999.99
12/26/2021 6:30:00 AM -99999.99 -179968 -99999.99 -99999.99 -99999.99 -99999.99
12/26/2021 6:45:00 AM -99999.99 -179968 -99999.99 -99999.99 -99999.99 -99999.99
12/26/2021 7:00:00 AM -99999.99 -179968 -99999.99 -99999.99 -99999.99 -99999.99
12/26/2021 7:15:00 AM -99999.99 -179968 -99999.99 -99999.99 -99999.99 -99999.99
12/26/2021 7:30:00 AM -99999.99 -179968 -99999.99 -99999.99 -99999.99 -99999.99
12/26/2021 7:45:00 AM -99999.99 -179968 -99999.99 -99999.99 -99999.99 -99999.99
12/26/2021 8:00:00 AM -99999.99 -179968 -99999.99 -99999.99 -99999.99 -99999.99
12/26/2021 8:15:00 AM -99999.99 -179968 -99999.99 -99999.99 -99999.99 -99999.99
12/26/2021 8:30:00 AM -99999.99 -179968 -99999.99 -99999.99 -99999.99 -99999.99
12/26/2021 8:45:00 AM -99999.99 -179968 -99999.99 -99999.99 -99999.99 -99999.99
12/26/2021 9:00:00 AM -99999.99 -179968 -99999.99 -99999.99 -99999.99 -99999.99
12/26/2021 9:15:00 AM -99999.99 -179968 -99999.99 -99999.99 -99999.99 -99999.99
12/26/2021 9:30:00 AM -99999.99 -179968 -99999.99 -99999.99 -99999.99 -99999.99
12/26/2021 9:45:00 AM 5.37 41.666 0.029 -8.68 10.41 -99999.99
12/26/2021 10:00:00 AM 5.39 41.702 0.029 -6.24 10.41 -99999.99
12/26/2021 10:15:00 AM 5.39 41.702 0.028 -7.07 10.41 -99999.99
12/26/2021 10:30:00 AM 5.41 41.738 0.028 -6.64 10.41 -99999.99
12/26/2021 10:45:00 AM 5.42 41.756 0.028 -6.84 10.41 -99999.99
12/26/2021 11:00:00 AM 5.44 41.792 0.028 -7.03 10.4 -99999.99
12/26/2021 11:15:00 AM 5.46 41.828 0.028 -7.16 10.41 -99999.99
12/26/2021 11:30:00 AM 5.47 41.846 0.028 -7.1 10.4 -99999.99
12/26/2021 11:45:00 AM 5.48 41.864 0.028 -7.23 10.4 -99999.99
12/26/2021 12:00:00 PM 5.52 41.936 0.028 -7.38 10.4 -99999.99
12/26/2021 12:15:00 PM 5.54 41.972 0.028 -7.3 10.4 -99999.99
12/26/2021 12:30:00 PM 5.54 41.972 0.028 -7.18 10.4 -99999.99
12/26/2021 12:45:00 PM 5.55 41.99 0.028 -7.63 10.4 -99999.99
12/26/2021 1:00:00 PM 5.6 42.08 0.028 -7.64 10.4 -99999.99
12/26/2021 1:15:00 PM 5.64 42.152 0.028 -7.84 10.4 -99999.99
12/26/2021 1:30:00 PM 5.7 42.26 0.028 -8.04 10.4 -99999.99
12/26/2021 1:45:00 PM 5.74 42.332 0.028 -8.08 10.4 -99999.99
12/26/2021 2:00:00 PM 5.74 42.332 0.028 -7.95 10.4 -99999.99
12/26/2021 2:15:00 PM 5.74 42.332 0.028 -8.04 10.4 -99999.99
12/26/2021 2:30:00 PM 5.72 42.296 0.028 -7.72 10.4 -99999.99
12/26/2021 2:45:00 PM 5.72 42.296 0.028 -7.51 10.4 -99999.99
12/26/2021 3:00:00 PM 5.71 42.278 0.028 -7.77 10.41 -99999.99
12/26/2021 3:15:00 PM 5.7 42.26 0.028 -7.4 10.41 -99999.99
12/26/2021 3:30:00 PM 5.69 42.242 0.028 -6.97 10.41 -99999.99
12/26/2021 3:45:00 PM 5.67 42.206 0.029 -6.67 10.41 -99999.99
12/26/2021 4:00:00 PM 5.64 42.152 0.029 -5.95 10.42 -99999.99
12/26/2021 4:15:00 PM 5.6 42.08 0.029 -5.37 10.42 -99999.99
12/26/2021 4:30:00 PM 5.56 42.008 0.029 -4.76 10.42 -99999.99
12/26/2021 4:45:00 PM 5.52 41.936 0.029 -4.43 10.42 -99999.99
12/26/2021 5:00:00 PM 5.47 41.846 0.029 -3.94 10.42 -99999.99
12/26/2021 5:15:00 PM 5.42 41.756 0.029 -3.69 10.42 -99999.99
12/26/2021 5:30:00 PM 5.37 41.666 0.029 -3.43 10.42 -99999.99
12/26/2021 5:45:00 PM 5.32 41.576 0.029 -3.2 10.42 -99999.99
12/26/2021 6:00:00 PM 5.27 41.486 0.029 -3.02 10.43 -99999.99
12/26/2021 6:15:00 PM 5.21 41.378 0.029 -2.9 10.43 -99999.99
12/26/2021 6:30:00 PM 5.15 41.27 0.029 -2.8 10.43 -99999.99
12/26/2021 6:45:00 PM 5.08 41.144 0.029 -2.81 10.43 -99999.99
12/26/2021 7:00:00 PM 5.02 41.036 0.029 -2.56 10.43 -99999.99
12/26/2021 7:15:00 PM 4.96 40.928 0.029 -2.58 10.43 -99999.99
12/26/2021 7:30:00 PM 4.9 40.82 0.029 -2.58 10.43 -99999.99
12/26/2021 7:45:00 PM 4.84 40.712 0.029 -2.41 10.43 -99999.99
12/26/2021 8:00:00 PM 4.78 40.604 0.029 -2.46 10.43 -99999.99
12/26/2021 8:15:00 PM 4.73 40.514 0.029 -2.38 10.44 -99999.99
12/26/2021 8:30:00 PM 4.68 40.424 0.029 -2.37 10.44 -99999.99
12/26/2021 8:45:00 PM 4.63 40.334 0.029 -2.3 10.44 -99999.99
12/26/2021 9:00:00 PM -99999.99 -179968 -99999.99 -99999.99 -99999.99 -99999.99
12/26/2021 9:15:00 PM -99999.99 -179968 -99999.99 -99999.99 -99999.99 -99999.99
12/26/2021 9:30:00 PM -99999.99 -179968 -99999.99 -99999.99 -99999.99 -99999.99
12/26/2021 9:45:00 PM -99999.99 -179968 -99999.99 -99999.99 -99999.99 -99999.99
12/26/2021 10:00:00 PM -99999.99 -179968 -99999.99 -99999.99 -99999.99 -99999.99
12/26/2021 10:15:00 PM -99999.99 -179968 -99999.99 -99999.99 -99999.99 -99999.99
12/26/2021 10:30:00 PM -99999.99 -179968 -99999.99 -99999.99 -99999.99 -99999.99
12/26/2021 10:45:00 PM -99999.99 -179968 -99999.99 -99999.99 -99999.99 -99999.99
12/26/2021 11:00:00 PM -99999.99 -179968 -99999.99 -99999.99 -99999.99 -99999.99
12/26/2021 11:15:00 PM -99999.99 -179968 -99999.99 -99999.99 -99999.99 -99999.99
12/26/2021 11:30:00 PM -99999.99 -179968 -99999.99 -99999.99 -99999.99 -99999.99
12/26/2021 11:45:00 PM -99999.99 -179968 -99999.99 -99999.99 -99999.99 -99999.99
12/27/2021 12:00:00 AM -99999.99 -179968 -99999.99 -99999.99 -99999.99 -99999.99
12/27/2021 12:15:00 AM -99999.99 -179968 -99999.99 -99999.99 -99999.99 -99999.99
12/27/2021 12:30:00 AM -99999.99 -179968 -99999.99 -99999.99 -99999.99 -99999.99
12/27/2021 12:45:00 AM -99999.99 -179968 -99999.99 -99999.99 -99999.99 -99999.99
12/27/2021 1:00:00 AM -99999.99 -179968 -99999.99 -99999.99 -99999.99 -99999.99
12/27/2021 1:15:00 AM -99999.99 -179968 -99999.99 -99999.99 -99999.99 -99999.99
12/27/2021 1:30:00 AM -99999.99 -179968 -99999.99 -99999.99 -99999.99 -99999.99
12/27/2021 1:45:00 AM -99999.99 -179968 -99999.99 -99999.99 -99999.99 -99999.99
12/27/2021 2:00:00 AM -99999.99 -179968 -99999.99 -99999.99 -99999.99 -99999.99
12/27/2021 2:15:00 AM -99999.99 -179968 -99999.99 -99999.99 -99999.99 -99999.99
12/27/2021 2:30:00 AM -99999.99 -179968 -99999.99 -99999.99 -99999.99 -99999.99
12/27/2021 2:45:00 AM -99999.99 -179968 -99999.99 -99999.99 -99999.99 -99999.99
12/27/2021 3:00:00 AM -99999.99 -179968 -99999.99 -99999.99 -99999.99 -99999.99
12/27/2021 3:15:00 AM -99999.99 -179968 -99999.99 -99999.99 -99999.99 -99999.99
12/27/2021 3:30:00 AM -99999.99 -179968 -99999.99 -99999.99 -99999.99 -99999.99
12/27/2021 3:45:00 AM -99999.99 -179968 -99999.99 -99999.99 -99999.99 -99999.99
12/27/2021 4:00:00 AM -99999.99 -179968 -99999.99 -99999.99 -99999.99 -99999.99
12/27/2021 4:15:00 AM -99999.99 -179968 -99999.99 -99999.99 -99999.99 -99999.99
12/27/2021 4:30:00 AM -99999.99 -179968 -99999.99 -99999.99 -99999.99 -99999.99
12/27/2021 4:45:00 AM -99999.99 -179968 -99999.99 -99999.99 -99999.99 -99999.99
12/27/2021 5:00:00 AM -99999.99 -179968 -99999.99 -99999.99 -99999.99 -99999.99
12/27/2021 5:15:00 AM -99999.99 -179968 -99999.99 -99999.99 -99999.99 -99999.99
12/27/2021 5:30:00 AM -99999.99 -179968 -99999.99 -99999.99 -99999.99 -99999.99
12/27/2021 5:45:00 AM -99999.99 -179968 -99999.99 -99999.99 -99999.99 -99999.99
12/27/2021 6:00:00 AM -99999.99 -179968 -99999.99 -99999.99 -99999.99 -99999.99
12/27/2021 6:15:00 AM -99999.99 -179968 -99999.99 -99999.99 -99999.99 -99999.99
12/27/2021 6:30:00 AM -99999.99 -179968 -99999.99 -99999.99 -99999.99 -99999.99
12/27/2021 6:45:00 AM -99999.99 -179968 -99999.99 -99999.99 -99999.99 -99999.99
12/27/2021 7:00:00 AM -99999.99 -179968 -99999.99 -99999.99 -99999.99 -99999.99
12/27/2021 7:15:00 AM -99999.99 -179968 -99999.99 -99999.99 -99999.99 -99999.99
12/27/2021 7:30:00 AM -99999.99 -179968 -99999.99 -99999.99 -99999.99 -99999.99
12/27/2021 7:45:00 AM -99999.99 -179968 -99999.99 -99999.99 -99999.99 -99999.99
12/27/2021 8:00:00 AM -99999.99 -179968 -99999.99 -99999.99 -99999.99 -99999.99
12/27/2021 8:15:00 AM -99999.99 -179968 -99999.99 -99999.99 -99999.99 -99999.99
12/27/2021 8:30:00 AM -99999.99 -179968 -99999.99 -99999.99 -99999.99 -99999.99
12/27/2021 8:45:00 AM -99999.99 -179968 -99999.99 -99999.99 -99999.99 -99999.99
12/27/2021 9:00:00 AM -99999.99 -179968 -99999.99 -99999.99 -99999.99 -99999.99
12/27/2021 9:15:00 AM -99999.99 -179968 -99999.99 -99999.99 -99999.99 -99999.99
12/27/2021 9:30:00 AM -99999.99 -179968 -99999.99 -99999.99 -99999.99 -99999.99
12/27/2021 9:45:00 AM -99999.99 -179968 -99999.99 -99999.99 -99999.99 -99999.99
12/27/2021 10:00:00 AM -99999.99 -179968 -99999.99 -99999.99 -99999.99 -99999.99
12/27/2021 10:15:00 AM -99999.99 -179968 -99999.99 -99999.99 -99999.99 -99999.99
12/27/2021 10:30:00 AM -99999.99 -179968 -99999.99 -99999.99 -99999.99 -99999.99
12/27/2021 10:45:00 AM -99999.99 -179968 -99999.99 -99999.99 -99999.99 -99999.99
12/27/2021 11:00:00 AM -99999.99 -179968 -99999.99 -99999.99 -99999.99 -99999.99
12/27/2021 11:15:00 AM -99999.99 -179968 -99999.99 -99999.99 -99999.99 -99999.99
12/27/2021 11:30:00 AM -99999.99 -179968 -99999.99 -99999.99 -99999.99 -99999.99
12/27/2021 11:45:00 AM -99999.99 -179968 -99999.99 -99999.99 -99999.99 -99999.99
12/27/2021 12:00:00 PM -99999.99 -179968 -99999.99 -99999.99 -99999.99 -99999.99
12/27/2021 12:15:00 PM -99999.99 -179968 -99999.99 -99999.99 -99999.99 -99999.99
12/27/2021 12:30:00 PM -99999.99 -179968 -99999.99 -99999.99 -99999.99 -99999.99
12/27/2021 12:45:00 PM -99999.99 -179968 -99999.99 -99999.99 -99999.99 -99999.99
12/27/2021 1:00:00 PM -99999.99 -179968 -99999.99 -99999.99 -99999.99 -99999.99
12/27/2021 1:15:00 PM -99999.99 -179968 -99999.99 -99999.99 -99999.99 -99999.99
12/27/2021 1:30:00 PM -99999.99 -179968 -99999.99 -99999.99 -99999.99 -99999.99
12/27/2021 1:45:00 PM -99999.99 -179968 -99999.99 -99999.99 -99999.99 -99999.99
12/27/2021 2:00:00 PM -99999.99 -179968 -99999.99 -99999.99 -99999.99 -99999.99
12/27/2021 2:15:00 PM -99999.99 -179968 -99999.99 -99999.99 -99999.99 -99999.99
12/27/2021 2:30:00 PM -99999.99 -179968 -99999.99 -99999.99 -99999.99 -99999.99
12/27/2021 2:45:00 PM -99999.99 -179968 -99999.99 -99999.99 -99999.99 -99999.99
12/27/2021 3:00:00 PM -99999.99 -179968 -99999.99 -99999.99 -99999.99 -99999.99
12/27/2021 3:15:00 PM -99999.99 -179968 -99999.99 -99999.99 -99999.99 -99999.99
12/27/2021 3:30:00 PM -99999.99 -179968 -99999.99 -99999.99 -99999.99 -99999.99
12/27/2021 3:45:00 PM -99999.99 -179968 -99999.99 -99999.99 -99999.99 -99999.99
12/27/2021 4:00:00 PM -99999.99 -179968 -99999.99 -99999.99 -99999.99 -99999.99
12/27/2021 4:15:00 PM -99999.99 -179968 -99999.99 -99999.99 -99999.99 -99999.99
12/27/2021 4:30:00 PM -99999.99 -179968 -99999.99 -99999.99 -99999.99 -99999.99
12/27/2021 4:45:00 PM -99999.99 -179968 -99999.99 -99999.99 -99999.99 -99999.99
12/27/2021 5:00:00 PM -99999.99 -179968 -99999.99 -99999.99 -99999.99 -99999.99
12/27/2021 5:15:00 PM -99999.99 -179968 -99999.99 -99999.99 -99999.99 -99999.99
12/27/2021 5:30:00 PM -99999.99 -179968 -99999.99 -99999.99 -99999.99 -99999.99
12/27/2021 5:45:00 PM -99999.99 -179968 -99999.99 -99999.99 -99999.99 -99999.99
12/27/2021 6:00:00 PM -99999.99 -179968 -99999.99 -99999.99 -99999.99 -99999.99
12/27/2021 6:15:00 PM -99999.99 -179968 -99999.99 -99999.99 -99999.99 -99999.99
12/27/2021 6:30:00 PM -99999.99 -179968 -99999.99 -99999.99 -99999.99 -99999.99
12/27/2021 6:45:00 PM -99999.99 -179968 -99999.99 -99999.99 -99999.99 -99999.99
12/27/2021 7:00:00 PM -99999.99 -179968 -99999.99 -99999.99 -99999.99 -99999.99
12/27/2021 7:15:00 PM -99999.99 -179968 -99999.99 -99999.99 -99999.99 -99999.99
12/27/2021 7:30:00 PM -99999.99 -179968 -99999.99 -99999.99 -99999.99 -99999.99
12/27/2021 7:45:00 PM -99999.99 -179968 -99999.99 -99999.99 -99999.99 -99999.99
12/27/2021 8:00:00 PM -99999.99 -179968 -99999.99 -99999.99 -99999.99 -99999.99
12/27/2021 8:15:00 PM -99999.99 -179968 -99999.99 -99999.99 -99999.99 -99999.99
12/27/2021 8:30:00 PM -99999.99 -179968 -99999.99 -99999.99 -99999.99 -99999.99
12/27/2021 8:45:00 PM -99999.99 -179968 -99999.99 -99999.99 -99999.99 -99999.99
12/27/2021 9:00:00 PM -99999.99 -179968 -99999.99 -99999.99 -99999.99 -99999.99
12/27/2021 9:15:00 PM -99999.99 -179968 -99999.99 -99999.99 -99999.99 -99999.99
12/27/2021 9:30:00 PM -99999.99 -179968 -99999.99 -99999.99 -99999.99 -99999.99
12/27/2021 9:45:00 PM -99999.99 -179968 -99999.99 -99999.99 -99999.99 -99999.99
12/27/2021 10:00:00 PM -99999.99 -179968 -99999.99 -99999.99 -99999.99 -99999.99
12/27/2021 10:15:00 PM -99999.99 -179968 -99999.99 -99999.99 -99999.99 -99999.99
12/27/2021 10:30:00 PM -99999.99 -179968 -99999.99 -99999.99 -99999.99 -99999.99
12/27/2021 10:45:00 PM -99999.99 -179968 -99999.99 -99999.99 -99999.99 -99999.99
12/27/2021 11:00:00 PM -99999.99 -179968 -99999.99 -99999.99 -99999.99 -99999.99
12/27/2021 11:15:00 PM -99999.99 -179968 -99999.99 -99999.99 -99999.99 -99999.99
12/27/2021 11:30:00 PM -99999.99 -179968 -99999.99 -99999.99 -99999.99 -99999.99
12/27/2021 11:45:00 PM -99999.99 -179968 -99999.99 -99999.99 -99999.99 -99999.99
12/28/2021 12:00:00 AM -99999.99 -179968 -99999.99 -99999.99 -99999.99 -99999.99
12/28/2021 12:15:00 AM -99999.99 -179968 -99999.99 -99999.99 -99999.99 -99999.99
12/28/2021 12:30:00 AM -99999.99 -179968 -99999.99 -99999.99 -99999.99 -99999.99
12/28/2021 12:45:00 AM -99999.99 -179968 -99999.99 -99999.99 -99999.99 -99999.99
12/28/2021 1:00:00 AM -99999.99 -179968 -99999.99 -99999.99 -99999.99 -99999.99
12/28/2021 1:15:00 AM -99999.99 -179968 -99999.99 -99999.99 -99999.99 -99999.99
12/28/2021 1:30:00 AM -99999.99 -179968 -99999.99 -99999.99 -99999.99 -99999.99
12/28/2021 1:45:00 AM -99999.99 -179968 -99999.99 -99999.99 -99999.99 -99999.99
12/28/2021 2:00:00 AM -99999.99 -179968 -99999.99 -99999.99 -99999.99 -99999.99
12/28/2021 2:15:00 AM -99999.99 -179968 -99999.99 -99999.99 -99999.99 -99999.99
12/28/2021 2:30:00 AM -99999.99 -179968 -99999.99 -99999.99 -99999.99 -99999.99
12/28/2021 2:45:00 AM -99999.99 -179968 -99999.99 -99999.99 -99999.99 -99999.99
12/28/2021 3:00:00 AM -99999.99 -179968 -99999.99 -99999.99 -99999.99 -99999.99
12/28/2021 3:15:00 AM -99999.99 -179968 -99999.99 -99999.99 -99999.99 -99999.99
12/28/2021 3:30:00 AM -99999.99 -179968 -99999.99 -99999.99 -99999.99 -99999.99
12/28/2021 3:45:00 AM -99999.99 -179968 -99999.99 -99999.99 -99999.99 -99999.99
12/28/2021 4:00:00 AM -99999.99 -179968 -99999.99 -99999.99 -99999.99 -99999.99
12/28/2021 4:15:00 AM -99999.99 -179968 -99999.99 -99999.99 -99999.99 -99999.99
12/28/2021 4:30:00 AM -99999.99 -179968 -99999.99 -99999.99 -99999.99 -99999.99
12/28/2021 4:45:00 AM -99999.99 -179968 -99999.99 -99999.99 -99999.99 -99999.99
12/28/2021 5:00:00 AM -99999.99 -179968 -99999.99 -99999.99 -99999.99 -99999.99
12/28/2021 5:15:00 AM -99999.99 -179968 -99999.99 -99999.99 -99999.99 -99999.99
12/28/2021 5:30:00 AM -99999.99 -179968 -99999.99 -99999.99 -99999.99 -99999.99
12/28/2021 5:45:00 AM -99999.99 -179968 -99999.99 -99999.99 -99999.99 -99999.99
12/28/2021 6:00:00 AM -99999.99 -179968 -99999.99 -99999.99 -99999.99 -99999.99
12/28/2021 6:15:00 AM -99999.99 -179968 -99999.99 -99999.99 -99999.99 -99999.99
12/28/2021 6:30:00 AM -99999.99 -179968 -99999.99 -99999.99 -99999.99 -99999.99
12/28/2021 6:45:00 AM -99999.99 -179968 -99999.99 -99999.99 -99999.99 -99999.99
12/28/2021 7:00:00 AM -99999.99 -179968 -99999.99 -99999.99 -99999.99 -99999.99
12/28/2021 7:15:00 AM -99999.99 -179968 -99999.99 -99999.99 -99999.99 -99999.99
12/28/2021 7:30:00 AM -99999.99 -179968 -99999.99 -99999.99 -99999.99 -99999.99
12/28/2021 7:45:00 AM -99999.99 -179968 -99999.99 -99999.99 -99999.99 -99999.99
12/28/2021 8:00:00 AM -99999.99 -179968 -99999.99 -99999.99 -99999.99 -99999.99
12/28/2021 8:15:00 AM -99999.99 -179968 -99999.99 -99999.99 -99999.99 -99999.99
12/28/2021 8:30:00 AM -99999.99 -179968 -99999.99 -99999.99 -99999.99 -99999.99
12/28/2021 8:45:00 AM -99999.99 -179968 -99999.99 -99999.99 -99999.99 -99999.99
12/28/2021 9:00:00 AM -99999.99 -179968 -99999.99 -99999.99 -99999.99 -99999.99
12/28/2021 9:15:00 AM -99999.99 -179968 -99999.99 -99999.99 -99999.99 -99999.99
12/28/2021 9:30:00 AM -99999.99 -179968 -99999.99 -99999.99 -99999.99 -99999.99
12/28/2021 9:45:00 AM -99999.99 -179968 -99999.99 -99999.99 -99999.99 -99999.99
12/28/2021 10:00:00 AM 4.03 39.254 0.03 -8.07 10.37 -99999.99
12/28/2021 10:15:00 AM 4.08 39.344 0.03 -6.75 10.37 -99999.99
12/28/2021 10:30:00 AM 4.14 39.452 0.03 -6.7 10.36 -99999.99
12/28/2021 10:45:00 AM 4.22 39.596 0.03 -6.89 10.36 -99999.99
12/28/2021 11:00:00 AM 4.3 39.74 0.029 -7.3 10.36 -99999.99
12/28/2021 11:15:00 AM 4.37 39.866 0.029 -7.57 10.36 -99999.99
12/28/2021 11:30:00 AM 4.45 40.01 0.029 -7.79 10.36 -99999.99
12/28/2021 11:45:00 AM 4.53 40.154 0.029 -7.88 10.36 -99999.99
12/28/2021 12:00:00 PM 4.57 40.226 0.029 -7.88 10.36 -99999.99
12/28/2021 12:15:00 PM 4.61 40.298 0.029 -7.73 10.35 -99999.99
12/28/2021 12:30:00 PM 4.64 40.352 0.029 -7.87 10.35 -99999.99
12/28/2021 12:45:00 PM 4.7 40.46 0.029 -7.76 10.35 -99999.99
12/28/2021 1:00:00 PM 4.74 40.532 0.029 -7.71 10.34 -99999.99
12/28/2021 1:15:00 PM 4.77 40.586 0.029 -7.57 10.33 -99999.99
12/28/2021 1:30:00 PM 4.8 40.64 0.029 -7.43 10.33 -99999.99
12/28/2021 1:45:00 PM 4.84 40.712 0.029 -7.72 10.34 -99999.99
12/28/2021 2:00:00 PM 4.88 40.784 0.029 -7.65 10.34 -99999.99
12/28/2021 2:15:00 PM 4.92 40.856 0.029 -8.12 10.33 -99999.99
12/28/2021 2:30:00 PM 4.94 40.892 0.029 -7.72 10.33 -99999.99
12/28/2021 2:45:00 PM 4.95 40.91 0.029 -7.21 10.34 -99999.99
12/28/2021 3:00:00 PM 4.95 40.91 0.029 -6.47 10.35 -99999.99
12/28/2021 3:15:00 PM -99999.99 -179968 -99999.99 -99999.99 -99999.99 -99999.99
12/28/2021 3:30:00 PM 4.96 40.928 0.03 -5.8 10.37 -99999.99
12/28/2021 3:45:00 PM 4.96 40.928 0.03 -5.49 10.37 -99999.99
12/28/2021 4:00:00 PM -99999.99 -179968 -99999.99 -99999.99 -99999.99 -99999.99
12/28/2021 4:15:00 PM -99999.99 -179968 -99999.99 -99999.99 -99999.99 -99999.99
12/28/2021 4:30:00 PM -99999.99 -179968 -99999.99 -99999.99 -99999.99 -99999.99
12/28/2021 4:45:00 PM -99999.99 -179968 -99999.99 -99999.99 -99999.99 -99999.99
12/28/2021 5:00:00 PM -99999.99 -179968 -99999.99 -99999.99 -99999.99 -99999.99
12/28/2021 5:15:00 PM -99999.99 -179968 -99999.99 -99999.99 -99999.99 -99999.99
12/28/2021 5:30:00 PM -99999.99 -179968 -99999.99 -99999.99 -99999.99 -99999.99
12/28/2021 5:45:00 PM -99999.99 -179968 -99999.99 -99999.99 -99999.99 -99999.99
12/28/2021 6:00:00 PM -99999.99 -179968 -99999.99 -99999.99 -99999.99 -99999.99
12/28/2021 6:15:00 PM -99999.99 -179968 -99999.99 -99999.99 -99999.99 -99999.99
12/28/2021 6:30:00 PM -99999.99 -179968 -99999.99 -99999.99 -99999.99 -99999.99
12/28/2021 6:45:00 PM -99999.99 -179968 -99999.99 -99999.99 -99999.99 -99999.99
12/28/2021 7:00:00 PM -99999.99 -179968 -99999.99 -99999.99 -99999.99 -99999.99
12/28/2021 7:15:00 PM -99999.99 -179968 -99999.99 -99999.99 -99999.99 -99999.99
12/28/2021 7:30:00 PM -99999.99 -179968 -99999.99 -99999.99 -99999.99 -99999.99
12/28/2021 7:45:00 PM -99999.99 -179968 -99999.99 -99999.99 -99999.99 -99999.99
12/28/2021 8:00:00 PM -99999.99 -179968 -99999.99 -99999.99 -99999.99 -99999.99
12/28/2021 8:15:00 PM -99999.99 -179968 -99999.99 -99999.99 -99999.99 -99999.99
12/28/2021 8:30:00 PM -99999.99 -179968 -99999.99 -99999.99 -99999.99 -99999.99
12/28/2021 8:45:00 PM -99999.99 -179968 -99999.99 -99999.99 -99999.99 -99999.99
12/28/2021 9:00:00 PM -99999.99 -179968 -99999.99 -99999.99 -99999.99 -99999.99
12/28/2021 9:15:00 PM -99999.99 -179968 -99999.99 -99999.99 -99999.99 -99999.99
12/28/2021 9:30:00 PM -99999.99 -179968 -99999.99 -99999.99 -99999.99 -99999.99
12/28/2021 9:45:00 PM -99999.99 -179968 -99999.99 -99999.99 -99999.99 -99999.99
12/28/2021 10:00:00 PM -99999.99 -179968 -99999.99 -99999.99 -99999.99 -99999.99
12/28/2021 10:15:00 PM -99999.99 -179968 -99999.99 -99999.99 -99999.99 -99999.99
12/28/2021 10:30:00 PM -99999.99 -179968 -99999.99 -99999.99 -99999.99 -99999.99
12/28/2021 10:45:00 PM -99999.99 -179968 -99999.99 -99999.99 -99999.99 -99999.99
12/28/2021 11:00:00 PM -99999.99 -179968 -99999.99 -99999.99 -99999.99 -99999.99
12/28/2021 11:15:00 PM -99999.99 -179968 -99999.99 -99999.99 -99999.99 -99999.99
12/28/2021 11:30:00 PM -99999.99 -179968 -99999.99 -99999.99 -99999.99 -99999.99
12/28/2021 11:45:00 PM -99999.99 -179968 -99999.99 -99999.99 -99999.99 -99999.99
12/29/2021 12:00:00 AM -99999.99 -179968 -99999.99 -99999.99 -99999.99 -99999.99
12/29/2021 12:15:00 AM -99999.99 -179968 -99999.99 -99999.99 -99999.99 -99999.99
12/29/2021 12:30:00 AM -99999.99 -179968 -99999.99 -99999.99 -99999.99 -99999.99
12/29/2021 12:45:00 AM -99999.99 -179968 -99999.99 -99999.99 -99999.99 -99999.99
12/29/2021 1:00:00 AM -99999.99 -179968 -99999.99 -99999.99 -99999.99 -99999.99
12/29/2021 1:15:00 AM -99999.99 -179968 -99999.99 -99999.99 -99999.99 -99999.99
12/29/2021 1:30:00 AM -99999.99 -179968 -99999.99 -99999.99 -99999.99 -99999.99
12/29/2021 1:45:00 AM -99999.99 -179968 -99999.99 -99999.99 -99999.99 -99999.99
12/29/2021 2:00:00 AM -99999.99 -179968 -99999.99 -99999.99 -99999.99 -99999.99
12/29/2021 2:15:00 AM -99999.99 -179968 -99999.99 -99999.99 -99999.99 -99999.99
12/29/2021 2:30:00 AM -99999.99 -179968 -99999.99 -99999.99 -99999.99 -99999.99
12/29/2021 2:45:00 AM -99999.99 -179968 -99999.99 -99999.99 -99999.99 -99999.99
12/29/2021 3:00:00 AM -99999.99 -179968 -99999.99 -99999.99 -99999.99 -99999.99
12/29/2021 3:15:00 AM -99999.99 -179968 -99999.99 -99999.99 -99999.99 -99999.99
12/29/2021 3:30:00 AM -99999.99 -179968 -99999.99 -99999.99 -99999.99 -99999.99
12/29/2021 3:45:00 AM -99999.99 -179968 -99999.99 -99999.99 -99999.99 -99999.99
12/29/2021 4:00:00 AM -99999.99 -179968 -99999.99 -99999.99 -99999.99 -99999.99
12/29/2021 4:15:00 AM -99999.99 -179968 -99999.99 -99999.99 -99999.99 -99999.99
12/29/2021 4:30:00 AM -99999.99 -179968 -99999.99 -99999.99 -99999.99 -99999.99
12/29/2021 4:45:00 AM -99999.99 -179968 -99999.99 -99999.99 -99999.99 -99999.99
12/29/2021 5:00:00 AM -99999.99 -179968 -99999.99 -99999.99 -99999.99 -99999.99
12/29/2021 5:15:00 AM -99999.99 -179968 -99999.99 -99999.99 -99999.99 -99999.99
12/29/2021 5:30:00 AM -99999.99 -179968 -99999.99 -99999.99 -99999.99 -99999.99
12/29/2021 5:45:00 AM -99999.99 -179968 -99999.99 -99999.99 -99999.99 -99999.99
12/29/2021 6:00:00 AM -99999.99 -179968 -99999.99 -99999.99 -99999.99 -99999.99
12/29/2021 6:15:00 AM -99999.99 -179968 -99999.99 -99999.99 -99999.99 -99999.99
12/29/2021 6:30:00 AM -99999.99 -179968 -99999.99 -99999.99 -99999.99 -99999.99
12/29/2021 6:45:00 AM -99999.99 -179968 -99999.99 -99999.99 -99999.99 -99999.99
12/29/2021 7:00:00 AM -99999.99 -179968 -99999.99 -99999.99 -99999.99 -99999.99
12/29/2021 7:15:00 AM -99999.99 -179968 -99999.99 -99999.99 -99999.99 -99999.99
12/29/2021 7:30:00 AM -99999.99 -179968 -99999.99 -99999.99 -99999.99 -99999.99
12/29/2021 7:45:00 AM -99999.99 -179968 -99999.99 -99999.99 -99999.99 -99999.99
12/29/2021 8:00:00 AM -99999.99 -179968 -99999.99 -99999.99 -99999.99 -99999.99
12/29/2021 8:15:00 AM -99999.99 -179968 -99999.99 -99999.99 -99999.99 -99999.99
12/29/2021 8:30:00 AM -99999.99 -179968 -99999.99 -99999.99 -99999.99 -99999.99
12/29/2021 8:45:00 AM -99999.99 -179968 -99999.99 -99999.99 -99999.99 -99999.99
12/29/2021 9:00:00 AM -99999.99 -179968 -99999.99 -99999.99 -99999.99 -99999.99
12/29/2021 9:15:00 AM -99999.99 -179968 -99999.99 -99999.99 -99999.99 -99999.99
12/29/2021 9:30:00 AM -99999.99 -179968 -99999.99 -99999.99 -99999.99 -99999.99
12/29/2021 9:45:00 AM -99999.99 -179968 -99999.99 -99999.99 -99999.99 -99999.99
12/29/2021 10:00:00 AM -99999.99 -179968 -99999.99 -99999.99 -99999.99 -99999.99
12/29/2021 10:15:00 AM -99999.99 -179968 -99999.99 -99999.99 -99999.99 -99999.99
12/29/2021 10:30:00 AM -99999.99 -179968 -99999.99 -99999.99 -99999.99 -99999.99
12/29/2021 10:45:00 AM -99999.99 -179968 -99999.99 -99999.99 -99999.99 -99999.99
12/29/2021 11:00:00 AM -99999.99 -179968 -99999.99 -99999.99 -99999.99 -99999.99
12/29/2021 11:15:00 AM -99999.99 -179968 -99999.99 -99999.99 -99999.99 -99999.99
12/29/2021 11:30:00 AM -99999.99 -179968 -99999.99 -99999.99 -99999.99 -99999.99
12/29/2021 11:45:00 AM -99999.99 -179968 -99999.99 -99999.99 -99999.99 -99999.99
12/29/2021 12:00:00 PM -99999.99 -179968 -99999.99 -99999.99 -99999.99 -99999.99
12/29/2021 12:15:00 PM -99999.99 -179968 -99999.99 -99999.99 -99999.99 -99999.99
12/29/2021 12:30:00 PM -99999.99 -179968 -99999.99 -99999.99 -99999.99 -99999.99
12/29/2021 12:45:00 PM -99999.99 -179968 -99999.99 -99999.99 -99999.99 -99999.99
12/29/2021 1:00:00 PM -99999.99 -179968 -99999.99 -99999.99 -99999.99 -99999.99
12/29/2021 1:15:00 PM -99999.99 -179968 -99999.99 -99999.99 -99999.99 -99999.99
12/29/2021 1:30:00 PM -99999.99 -179968 -99999.99 -99999.99 -99999.99 -99999.99
12/29/2021 1:45:00 PM -99999.99 -179968 -99999.99 -99999.99 -99999.99 -99999.99
12/29/2021 2:00:00 PM -99999.99 -179968 -99999.99 -99999.99 -99999.99 -99999.99
12/29/2021 2:15:00 PM -99999.99 -179968 -99999.99 -99999.99 -99999.99 -99999.99
12/29/2021 2:30:00 PM -99999.99 -179968 -99999.99 -99999.99 -99999.99 -99999.99
12/29/2021 2:45:00 PM -99999.99 -179968 -99999.99 -99999.99 -99999.99 -99999.99
12/29/2021 3:00:00 PM -99999.99 -179968 -99999.99 -99999.99 -99999.99 -99999.99
12/29/2021 3:15:00 PM -99999.99 -179968 -99999.99 -99999.99 -99999.99 -99999.99
12/29/2021 3:30:00 PM -99999.99 -179968 -99999.99 -99999.99 -99999.99 -99999.99
12/29/2021 3:45:00 PM -99999.99 -179968 -99999.99 -99999.99 -99999.99 -99999.99
12/29/2021 4:00:00 PM -99999.99 -179968 -99999.99 -99999.99 -99999.99 -99999.99
12/29/2021 4:15:00 PM -99999.99 -179968 -99999.99 -99999.99 -99999.99 -99999.99
12/29/2021 4:30:00 PM -99999.99 -179968 -99999.99 -99999.99 -99999.99 -99999.99
12/29/2021 4:45:00 PM -99999.99 -179968 -99999.99 -99999.99 -99999.99 -99999.99
12/29/2021 5:00:00 PM -99999.99 -179968 -99999.99 -99999.99 -99999.99 -99999.99
12/29/2021 5:15:00 PM -99999.99 -179968 -99999.99 -99999.99 -99999.99 -99999.99
12/29/2021 5:30:00 PM -99999.99 -179968 -99999.99 -99999.99 -99999.99 -99999.99
12/29/2021 5:45:00 PM -99999.99 -179968 -99999.99 -99999.99 -99999.99 -99999.99
12/29/2021 6:00:00 PM -99999.99 -179968 -99999.99 -99999.99 -99999.99 -99999.99
12/29/2021 6:15:00 PM -99999.99 -179968 -99999.99 -99999.99 -99999.99 -99999.99
12/29/2021 6:30:00 PM -99999.99 -179968 -99999.99 -99999.99 -99999.99 -99999.99
12/29/2021 6:45:00 PM -99999.99 -179968 -99999.99 -99999.99 -99999.99 -99999.99
12/29/2021 7:00:00 PM -99999.99 -179968 -99999.99 -99999.99 -99999.99 -99999.99
12/29/2021 7:15:00 PM -99999.99 -179968 -99999.99 -99999.99 -99999.99 -99999.99
12/29/2021 7:30:00 PM -99999.99 -179968 -99999.99 -99999.99 -99999.99 -99999.99
12/29/2021 7:45:00 PM -99999.99 -179968 -99999.99 -99999.99 -99999.99 -99999.99
12/29/2021 8:00:00 PM -99999.99 -179968 -99999.99 -99999.99 -99999.99 -99999.99
12/29/2021 8:15:00 PM -99999.99 -179968 -99999.99 -99999.99 -99999.99 -99999.99
12/29/2021 8:30:00 PM -99999.99 -179968 -99999.99 -99999.99 -99999.99 -99999.99
12/29/2021 8:45:00 PM -99999.99 -179968 -99999.99 -99999.99 -99999.99 -99999.99
12/29/2021 9:00:00 PM -99999.99 -179968 -99999.99 -99999.99 -99999.99 -99999.99
12/29/2021 9:15:00 PM -99999.99 -179968 -99999.99 -99999.99 -99999.99 -99999.99
12/29/2021 9:30:00 PM -99999.99 -179968 -99999.99 -99999.99 -99999.99 -99999.99
12/29/2021 9:45:00 PM -99999.99 -179968 -99999.99 -99999.99 -99999.99 -99999.99
12/29/2021 10:00:00 PM -99999.99 -179968 -99999.99 -99999.99 -99999.99 -99999.99
12/29/2021 10:15:00 PM -99999.99 -179968 -99999.99 -99999.99 -99999.99 -99999.99
12/29/2021 10:30:00 PM -99999.99 -179968 -99999.99 -99999.99 -99999.99 -99999.99
12/29/2021 10:45:00 PM -99999.99 -179968 -99999.99 -99999.99 -99999.99 -99999.99
12/29/2021 11:00:00 PM -99999.99 -179968 -99999.99 -99999.99 -99999.99 -99999.99
12/29/2021 11:15:00 PM -99999.99 -179968 -99999.99 -99999.99 -99999.99 -99999.99
12/29/2021 11:30:00 PM -99999.99 -179968 -99999.99 -99999.99 -99999.99 -99999.99
12/29/2021 11:45:00 PM -99999.99 -179968 -99999.99 -99999.99 -99999.99 -99999.99
12/30/2021 12:00:00 AM -99999.99 -179968 -99999.99 -99999.99 -99999.99 -99999.99
12/30/2021 12:15:00 AM -99999.99 -179968 -99999.99 -99999.99 -99999.99 -99999.99
12/30/2021 12:30:00 AM -99999.99 -179968 -99999.99 -99999.99 -99999.99 -99999.99
12/30/2021 12:45:00 AM -99999.99 -179968 -99999.99 -99999.99 -99999.99 -99999.99
12/30/2021 1:00:00 AM -99999.99 -179968 -99999.99 -99999.99 -99999.99 -99999.99
12/30/2021 1:15:00 AM -99999.99 -179968 -99999.99 -99999.99 -99999.99 -99999.99
12/30/2021 1:30:00 AM -99999.99 -179968 -99999.99 -99999.99 -99999.99 -99999.99
12/30/2021 1:45:00 AM -99999.99 -179968 -99999.99 -99999.99 -99999.99 -99999.99
12/30/2021 2:00:00 AM -99999.99 -179968 -99999.99 -99999.99 -99999.99 -99999.99
12/30/2021 2:15:00 AM -99999.99 -179968 -99999.99 -99999.99 -99999.99 -99999.99
12/30/2021 2:30:00 AM -99999.99 -179968 -99999.99 -99999.99 -99999.99 -99999.99
12/30/2021 2:45:00 AM -99999.99 -179968 -99999.99 -99999.99 -99999.99 -99999.99
12/30/2021 3:00:00 AM -99999.99 -179968 -99999.99 -99999.99 -99999.99 -99999.99
12/30/2021 3:15:00 AM -99999.99 -179968 -99999.99 -99999.99 -99999.99 -99999.99
12/30/2021 3:30:00 AM -99999.99 -179968 -99999.99 -99999.99 -99999.99 -99999.99
12/30/2021 3:45:00 AM -99999.99 -179968 -99999.99 -99999.99 -99999.99 -99999.99
12/30/2021 4:00:00 AM -99999.99 -179968 -99999.99 -99999.99 -99999.99 -99999.99
12/30/2021 4:15:00 AM -99999.99 -179968 -99999.99 -99999.99 -99999.99 -99999.99
12/30/2021 4:30:00 AM -99999.99 -179968 -99999.99 -99999.99 -99999.99 -99999.99
12/30/2021 4:45:00 AM -99999.99 -179968 -99999.99 -99999.99 -99999.99 -99999.99
12/30/2021 5:00:00 AM -99999.99 -179968 -99999.99 -99999.99 -99999.99 -99999.99
12/30/2021 5:15:00 AM -99999.99 -179968 -99999.99 -99999.99 -99999.99 -99999.99
12/30/2021 5:30:00 AM -99999.99 -179968 -99999.99 -99999.99 -99999.99 -99999.99
12/30/2021 5:45:00 AM -99999.99 -179968 -99999.99 -99999.99 -99999.99 -99999.99
12/30/2021 6:00:00 AM -99999.99 -179968 -99999.99 -99999.99 -99999.99 -99999.99
12/30/2021 6:15:00 AM -99999.99 -179968 -99999.99 -99999.99 -99999.99 -99999.99
12/30/2021 6:30:00 AM -99999.99 -179968 -99999.99 -99999.99 -99999.99 -99999.99
12/30/2021 6:45:00 AM -99999.99 -179968 -99999.99 -99999.99 -99999.99 -99999.99
12/30/2021 7:00:00 AM -99999.99 -179968 -99999.99 -99999.99 -99999.99 -99999.99
12/30/2021 7:15:00 AM -99999.99 -179968 -99999.99 -99999.99 -99999.99 -99999.99
12/30/2021 7:30:00 AM -99999.99 -179968 -99999.99 -99999.99 -99999.99 -99999.99
12/30/2021 7:45:00 AM -99999.99 -179968 -99999.99 -99999.99 -99999.99 -99999.99
12/30/2021 8:00:00 AM -99999.99 -179968 -99999.99 -99999.99 -99999.99 -99999.99
12/30/2021 8:15:00 AM -99999.99 -179968 -99999.99 -99999.99 -99999.99 -99999.99
12/30/2021 8:30:00 AM -99999.99 -179968 -99999.99 -99999.99 -99999.99 -99999.99
12/30/2021 8:45:00 AM -99999.99 -179968 -99999.99 -99999.99 -99999.99 -99999.99
12/30/2021 9:00:00 AM -99999.99 -179968 -99999.99 -99999.99 -99999.99 -99999.99
12/30/2021 9:15:00 AM -99999.99 -179968 -99999.99 -99999.99 -99999.99 -99999.99
12/30/2021 9:30:00 AM -99999.99 -179968 -99999.99 -99999.99 -99999.99 -99999.99
12/30/2021 9:45:00 AM -99999.99 -179968 -99999.99 -99999.99 -99999.99 -99999.99
12/30/2021 10:00:00 AM -99999.99 -179968 -99999.99 -99999.99 -99999.99 -99999.99
12/30/2021 10:15:00 AM -99999.99 -179968 -99999.99 -99999.99 -99999.99 -99999.99
12/30/2021 10:30:00 AM -99999.99 -179968 -99999.99 -99999.99 -99999.99 -99999.99
12/30/2021 10:45:00 AM -99999.99 -179968 -99999.99 -99999.99 -99999.99 -99999.99
12/30/2021 11:00:00 AM -99999.99 -179968 -99999.99 -99999.99 -99999.99 -99999.99
12/30/2021 11:15:00 AM 5.87 42.566 0.029 -9.23 10.42 -99999.99
12/30/2021 11:30:00 AM -99999.99 -179968 -99999.99 -99999.99 -99999.99 -99999.99
12/30/2021 11:45:00 AM -99999.99 -179968 -99999.99 -99999.99 -99999.99 -99999.99
12/30/2021 12:00:00 PM -99999.99 -179968 -99999.99 -99999.99 -99999.99 -99999.99
12/30/2021 12:15:00 PM -99999.99 -179968 -99999.99 -99999.99 -99999.99 -99999.99
12/30/2021 12:30:00 PM -99999.99 -179968 -99999.99 -99999.99 -99999.99 -99999.99
12/30/2021 12:45:00 PM 6.11 42.998 0.029 -10.09 10.4 -99999.99
12/30/2021 1:00:00 PM 6.16 43.088 0.029 -9.38 10.4 -99999.99
12/30/2021 1:15:00 PM 6.2 43.16 0.029 -9.15 10.4 -99999.99
12/30/2021 1:30:00 PM 6.25 43.25 0.029 -9.02 10.4 -99999.99
12/30/2021 1:45:00 PM 6.3 43.34 0.029 -9.11 10.4 -99999.99
12/30/2021 2:00:00 PM 6.33 43.394 0.029 -8.96 10.4 -99999.99
12/30/2021 2:15:00 PM 6.38 43.484 0.029 -9.06 10.4 -99999.99
12/30/2021 2:30:00 PM -99999.99 -179968 -99999.99 -99999.99 -99999.99 -99999.99
12/30/2021 2:45:00 PM -99999.99 -179968 -99999.99 -99999.99 -99999.99 -99999.99
12/30/2021 3:00:00 PM -99999.99 -179968 -99999.99 -99999.99 -99999.99 -99999.99
12/30/2021 3:15:00 PM -99999.99 -179968 -99999.99 -99999.99 -99999.99 -99999.99
12/30/2021 3:30:00 PM -99999.99 -179968 -99999.99 -99999.99 -99999.99 -99999.99
12/30/2021 3:45:00 PM -99999.99 -179968 -99999.99 -99999.99 -99999.99 -99999.99
12/30/2021 4:00:00 PM -99999.99 -179968 -99999.99 -99999.99 -99999.99 -99999.99
12/30/2021 4:15:00 PM -99999.99 -179968 -99999.99 -99999.99 -99999.99 -99999.99
12/30/2021 4:30:00 PM -99999.99 -179968 -99999.99 -99999.99 -99999.99 -99999.99
12/30/2021 4:45:00 PM -99999.99 -179968 -99999.99 -99999.99 -99999.99 -99999.99
12/30/2021 5:00:00 PM -99999.99 -179968 -99999.99 -99999.99 -99999.99 -99999.99
12/30/2021 5:15:00 PM -99999.99 -179968 -99999.99 -99999.99 -99999.99 -99999.99
12/30/2021 5:30:00 PM -99999.99 -179968 -99999.99 -99999.99 -99999.99 -99999.99
12/30/2021 5:45:00 PM -99999.99 -179968 -99999.99 -99999.99 -99999.99 -99999.99
12/30/2021 6:00:00 PM -99999.99 -179968 -99999.99 -99999.99 -99999.99 -99999.99
12/30/2021 6:15:00 PM -99999.99 -179968 -99999.99 -99999.99 -99999.99 -99999.99
12/30/2021 6:30:00 PM -99999.99 -179968 -99999.99 -99999.99 -99999.99 -99999.99
12/30/2021 6:45:00 PM -99999.99 -179968 -99999.99 -99999.99 -99999.99 -99999.99
12/30/2021 7:00:00 PM -99999.99 -179968 -99999.99 -99999.99 -99999.99 -99999.99
12/30/2021 7:15:00 PM -99999.99 -179968 -99999.99 -99999.99 -99999.99 -99999.99
12/30/2021 7:30:00 PM -99999.99 -179968 -99999.99 -99999.99 -99999.99 -99999.99
12/30/2021 7:45:00 PM -99999.99 -179968 -99999.99 -99999.99 -99999.99 -99999.99
12/30/2021 8:00:00 PM -99999.99 -179968 -99999.99 -99999.99 -99999.99 -99999.99
12/30/2021 8:15:00 PM -99999.99 -179968 -99999.99 -99999.99 -99999.99 -99999.99
12/30/2021 8:30:00 PM -99999.99 -179968 -99999.99 -99999.99 -99999.99 -99999.99
12/30/2021 8:45:00 PM -99999.99 -179968 -99999.99 -99999.99 -99999.99 -99999.99
12/30/2021 9:00:00 PM -99999.99 -179968 -99999.99 -99999.99 -99999.99 -99999.99
12/30/2021 9:15:00 PM -99999.99 -179968 -99999.99 -99999.99 -99999.99 -99999.99
12/30/2021 9:30:00 PM -99999.99 -179968 -99999.99 -99999.99 -99999.99 -99999.99
12/30/2021 9:45:00 PM -99999.99 -179968 -99999.99 -99999.99 -99999.99 -99999.99
12/30/2021 10:00:00 PM -99999.99 -179968 -99999.99 -99999.99 -99999.99 -99999.99
12/30/2021 10:15:00 PM -99999.99 -179968 -99999.99 -99999.99 -99999.99 -99999.99
12/30/2021 10:30:00 PM -99999.99 -179968 -99999.99 -99999.99 -99999.99 -99999.99
12/30/2021 10:45:00 PM -99999.99 -179968 -99999.99 -99999.99 -99999.99 -99999.99
12/30/2021 11:00:00 PM -99999.99 -179968 -99999.99 -99999.99 -99999.99 -99999.99
12/30/2021 11:15:00 PM -99999.99 -179968 -99999.99 -99999.99 -99999.99 -99999.99
12/30/2021 11:30:00 PM -99999.99 -179968 -99999.99 -99999.99 -99999.99 -99999.99
12/30/2021 11:45:00 PM -99999.99 -179968 -99999.99 -99999.99 -99999.99 -99999.99
12/31/2021 12:00:00 AM -99999.99 -179968 -99999.99 -99999.99 -99999.99 -99999.99
12/31/2021 12:15:00 AM -99999.99 -179968 -99999.99 -99999.99 -99999.99 -99999.99
12/31/2021 12:30:00 AM -99999.99 -179968 -99999.99 -99999.99 -99999.99 -99999.99
12/31/2021 12:45:00 AM -99999.99 -179968 -99999.99 -99999.99 -99999.99 -99999.99
12/31/2021 1:00:00 AM -99999.99 -179968 -99999.99 -99999.99 -99999.99 -99999.99
12/31/2021 1:15:00 AM -99999.99 -179968 -99999.99 -99999.99 -99999.99 -99999.99
12/31/2021 1:30:00 AM -99999.99 -179968 -99999.99 -99999.99 -99999.99 -99999.99
12/31/2021 1:45:00 AM -99999.99 -179968 -99999.99 -99999.99 -99999.99 -99999.99
12/31/2021 2:00:00 AM -99999.99 -179968 -99999.99 -99999.99 -99999.99 -99999.99
12/31/2021 2:15:00 AM -99999.99 -179968 -99999.99 -99999.99 -99999.99 -99999.99
12/31/2021 2:30:00 AM -99999.99 -179968 -99999.99 -99999.99 -99999.99 -99999.99
12/31/2021 2:45:00 AM -99999.99 -179968 -99999.99 -99999.99 -99999.99 -99999.99
12/31/2021 3:00:00 AM -99999.99 -179968 -99999.99 -99999.99 -99999.99 -99999.99
12/31/2021 3:15:00 AM -99999.99 -179968 -99999.99 -99999.99 -99999.99 -99999.99
12/31/2021 3:30:00 AM -99999.99 -179968 -99999.99 -99999.99 -99999.99 -99999.99
12/31/2021 3:45:00 AM -99999.99 -179968 -99999.99 -99999.99 -99999.99 -99999.99
12/31/2021 4:00:00 AM -99999.99 -179968 -99999.99 -99999.99 -99999.99 -99999.99
12/31/2021 4:15:00 AM -99999.99 -179968 -99999.99 -99999.99 -99999.99 -99999.99
12/31/2021 4:30:00 AM -99999.99 -179968 -99999.99 -99999.99 -99999.99 -99999.99
12/31/2021 4:45:00 AM -99999.99 -179968 -99999.99 -99999.99 -99999.99 -99999.99
12/31/2021 5:00:00 AM -99999.99 -179968 -99999.99 -99999.99 -99999.99 -99999.99
12/31/2021 5:15:00 AM -99999.99 -179968 -99999.99 -99999.99 -99999.99 -99999.99
12/31/2021 5:30:00 AM -99999.99 -179968 -99999.99 -99999.99 -99999.99 -99999.99
12/31/2021 5:45:00 AM -99999.99 -179968 -99999.99 -99999.99 -99999.99 -99999.99
12/31/2021 6:00:00 AM -99999.99 -179968 -99999.99 -99999.99 -99999.99 -99999.99
12/31/2021 6:15:00 AM -99999.99 -179968 -99999.99 -99999.99 -99999.99 -99999.99
12/31/2021 6:30:00 AM -99999.99 -179968 -99999.99 -99999.99 -99999.99 -99999.99
12/31/2021 6:45:00 AM -99999.99 -179968 -99999.99 -99999.99 -99999.99 -99999.99
12/31/2021 7:00:00 AM -99999.99 -179968 -99999.99 -99999.99 -99999.99 -99999.99
12/31/2021 7:15:00 AM -99999.99 -179968 -99999.99 -99999.99 -99999.99 -99999.99
12/31/2021 7:30:00 AM -99999.99 -179968 -99999.99 -99999.99 -99999.99 -99999.99
12/31/2021 7:45:00 AM -99999.99 -179968 -99999.99 -99999.99 -99999.99 -99999.99
12/31/2021 8:00:00 AM -99999.99 -179968 -99999.99 -99999.99 -99999.99 -99999.99
12/31/2021 8:15:00 AM -99999.99 -179968 -99999.99 -99999.99 -99999.99 -99999.99
12/31/2021 8:30:00 AM -99999.99 -179968 -99999.99 -99999.99 -99999.99 -99999.99
12/31/2021 8:45:00 AM -99999.99 -179968 -99999.99 -99999.99 -99999.99 -99999.99
12/31/2021 9:00:00 AM -99999.99 -179968 -99999.99 -99999.99 -99999.99 -99999.99
12/31/2021 9:15:00 AM -99999.99 -179968 -99999.99 -99999.99 -99999.99 -99999.99
12/31/2021 9:30:00 AM -99999.99 -179968 -99999.99 -99999.99 -99999.99 -99999.99
12/31/2021 9:45:00 AM 6.49 43.682 0.03 -6.7 10.43 -99999.99
12/31/2021 10:00:00 AM 6.52 43.736 0.03 -6.89 10.43 -99999.99
12/31/2021 10:15:00 AM 6.54 43.772 0.03 -7.11 10.43 -99999.99
12/31/2021 10:30:00 AM -99999.99 -179968 -99999.99 -99999.99 -99999.99 -99999.99
12/31/2021 10:45:00 AM -99999.99 -179968 -99999.99 -99999.99 -99999.99 -99999.99
12/31/2021 11:00:00 AM 6.68 44.024 0.03 -8.14 10.43 -99999.99
12/31/2021 11:15:00 AM 6.81 44.258 0.03 -8.74 10.43 -99999.99
12/31/2021 11:30:00 AM 6.93 44.474 0.03 -9.29 10.43 -99999.99
12/31/2021 11:45:00 AM 7.01 44.618 0.03 -9.52 10.42 -99999.99
12/31/2021 12:00:00 PM 7.1 44.78 0.03 -9.93 10.42 -99999.99
12/31/2021 12:15:00 PM 7.17 44.906 0.03 -10.32 10.42 -99999.99
12/31/2021 12:30:00 PM 7.21 44.978 0.03 -10.03 10.42 -99999.99
12/31/2021 12:45:00 PM 7.24 45.032 0.03 -10.37 10.42 -99999.99
12/31/2021 1:00:00 PM 7.27 45.086 0.03 -10.07 10.41 -99999.99
12/31/2021 1:15:00 PM 7.29 45.122 0.03 -10.32 10.41 -99999.99
12/31/2021 1:30:00 PM 7.33 45.194 0.029 -10.44 10.41 -99999.99
12/31/2021 1:45:00 PM 7.34 45.212 0.029 -10.33 10.41 -99999.99
12/31/2021 2:00:00 PM 7.31 45.158 0.03 -9.89 10.41 -99999.99
12/31/2021 2:15:00 PM 7.31 45.158 0.029 -10.07 10.41 -99999.99
12/31/2021 2:30:00 PM 7.35 45.23 0.029 -10.13 10.41 -99999.99
12/31/2021 2:45:00 PM 7.38 45.284 0.029 -10.41 10.41 -99999.99
12/31/2021 3:00:00 PM 7.36 45.248 0.029 -10.07 10.41 -99999.99
12/31/2021 3:15:00 PM 7.35 45.23 0.029 -9.64 10.41 -99999.99
12/31/2021 3:30:00 PM 7.34 45.212 0.03 -9.19 10.41 -99999.99
12/31/2021 3:45:00 PM 7.34 45.212 0.03 -8.63 10.41 -99999.99
12/31/2021 4:00:00 PM 7.33 45.194 0.03 -7.97 10.41 -99999.99
12/31/2021 4:15:00 PM 7.32 45.176 0.03 -7.4 10.41 -99999.99
12/31/2021 4:30:00 PM 7.3 45.14 0.03 -6.51 10.41 -99999.99
12/31/2021 4:45:00 PM 7.29 45.122 0.03 -5.87 10.42 -99999.99
12/31/2021 5:00:00 PM 7.27 45.086 0.03 -5.42 10.42 -99999.99
12/31/2021 5:15:00 PM 7.25 45.05 0.03 -4.88 10.41 -99999.99
12/31/2021 5:30:00 PM 7.24 45.032 0.03 -4.75 10.42 -99999.99
12/31/2021 5:45:00 PM 7.23 45.014 0.03 -4.59 10.42 -99999.99
12/31/2021 6:00:00 PM 7.21 44.978 0.03 -4.32 10.42 -99999.99
12/31/2021 6:15:00 PM 7.19 44.942 0.03 -4.12 10.42 -99999.99
12/31/2021 6:30:00 PM 7.17 44.906 0.03 -4.18 10.42 -99999.99
12/31/2021 6:45:00 PM 7.16 44.888 0.03 -3.85 10.42 -99999.99
12/31/2021 7:00:00 PM 7.14 44.852 0.03 -4.03 10.42 -99999.99
12/31/2021 7:15:00 PM 7.12 44.816 0.03 -3.9 10.42 -99999.99
12/31/2021 7:30:00 PM 7.1 44.78 0.03 -3.92 10.41 -99999.99
12/31/2021 7:45:00 PM 7.08 44.744 0.03 -3.83 10.41 -99999.99
12/31/2021 8:00:00 PM 7.06 44.708 0.03 -3.86 10.41 -99999.99
12/31/2021 8:15:00 PM 7.04 44.672 0.03 -3.8 10.41 -99999.99
12/31/2021 8:30:00 PM 7.01 44.618 0.03 -3.75 10.41 -99999.99
12/31/2021 8:45:00 PM 6.99 44.582 0.03 -3.73 10.41 -99999.99
12/31/2021 9:00:00 PM 6.97 44.546 0.03 -3.66 10.41 -99999.99
12/31/2021 9:15:00 PM 6.95 44.51 0.03 -3.54 10.41 -99999.99
12/31/2021 9:30:00 PM 6.92 44.456 0.03 -3.53 10.41 -99999.99
12/31/2021 9:45:00 PM 6.9 44.42 0.03 -3.5 10.41 -99999.99
12/31/2021 10:00:00 PM 6.87 44.366 0.03 -3.53 10.41 -99999.99
12/31/2021 10:15:00 PM 6.85 44.33 0.03 -3.54 10.41 -99999.99
12/31/2021 10:30:00 PM 6.83 44.294 0.03 -3.53 10.4 -99999.99
12/31/2021 10:45:00 PM 6.81 44.258 0.03 -3.64 10.4 -99999.99
12/31/2021 11:00:00 PM 6.8 44.24 0.03 -3.57 10.4 -99999.99
12/31/2021 11:15:00 PM 6.79 44.222 0.03 -3.4 10.4 -99999.99
12/31/2021 11:30:00 PM 6.77 44.186 0.03 -3.33 10.4 -99999.99
12/31/2021 11:45:00 PM 6.76 44.168 0.03 -3.47 10.4 -99999.99
1/1/2022 12:00:00 AM 6.75 44.15 0.03 -3.4 10.39 -99999.99
1/1/2022 12:15:00 AM 6.73 44.114 0.03 -3.45 10.39 -99999.99
1/1/2022 12:30:00 AM 6.71 44.078 0.03 -3.24 10.39 -99999.99
1/1/2022 12:45:00 AM 6.71 44.078 0.03 -3.56 10.39 -99999.99
1/1/2022 1:00:00 AM 6.7 44.06 0.03 -3.51 10.39 -99999.99
1/1/2022 1:15:00 AM 6.69 44.042 0.03 -3.12 10.38 -99999.99
1/1/2022 1:30:00 AM 6.68 44.024 0.03 -3.28 10.39 -99999.99
1/1/2022 1:45:00 AM 6.68 44.024 0.03 -3.31 10.38 -99999.99
1/1/2022 2:00:00 AM 6.68 44.024 0.03 -3.35 10.38 -99999.99
1/1/2022 2:15:00 AM 6.68 44.024 0.03 -3.77 10.38 -99999.99
1/1/2022 2:30:00 AM 6.68 44.024 0.03 -3.35 10.38 -99999.99
1/1/2022 2:45:00 AM 6.68 44.024 0.03 -3.42 10.38 -99999.99
1/1/2022 3:00:00 AM 6.68 44.024 0.03 -3.25 10.38 -99999.99
1/1/2022 3:15:00 AM 6.68 44.024 0.03 -3.38 10.38 -99999.99
1/1/2022 3:30:00 AM 6.68 44.024 0.03 -3.25 10.38 -99999.99
1/1/2022 3:45:00 AM 6.69 44.042 0.03 -3.37 10.38 -99999.99
1/1/2022 4:00:00 AM 6.69 44.042 0.03 -3.33 10.38 -99999.99
1/1/2022 4:15:00 AM 6.69 44.042 0.03 -3.37 10.38 -99999.99
1/1/2022 4:30:00 AM -99999.99 -179968 -99999.99 -99999.99 -99999.99 -99999.99
1/1/2022 4:45:00 AM -99999.99 -179968 -99999.99 -99999.99 -99999.99 -99999.99
1/1/2022 5:00:00 AM -99999.99 -179968 -99999.99 -99999.99 -99999.99 -99999.99
1/1/2022 5:15:00 AM -99999.99 -179968 -99999.99 -99999.99 -99999.99 -99999.99
1/1/2022 5:30:00 AM -99999.99 -179968 -99999.99 -99999.99 -99999.99 -99999.99
1/1/2022 5:45:00 AM -99999.99 -179968 -99999.99 -99999.99 -99999.99 -99999.99
1/1/2022 6:00:00 AM -99999.99 -179968 -99999.99 -99999.99 -99999.99 -99999.99
1/1/2022 6:15:00 AM -99999.99 -179968 -99999.99 -99999.99 -99999.99 -99999.99
1/1/2022 6:30:00 AM -99999.99 -179968 -99999.99 -99999.99 -99999.99 -99999.99
1/1/2022 6:45:00 AM -99999.99 -179968 -99999.99 -99999.99 -99999.99 -99999.99
1/1/2022 7:00:00 AM -99999.99 -179968 -99999.99 -99999.99 -99999.99 -99999.99
1/1/2022 7:15:00 AM -99999.99 -179968 -99999.99 -99999.99 -99999.99 -99999.99
1/1/2022 7:30:00 AM -99999.99 -179968 -99999.99 -99999.99 -99999.99 -99999.99
1/1/2022 7:45:00 AM -99999.99 -179968 -99999.99 -99999.99 -99999.99 -99999.99
1/1/2022 8:00:00 AM -99999.99 -179968 -99999.99 -99999.99 -99999.99 -99999.99
1/1/2022 8:15:00 AM -99999.99 -179968 -99999.99 -99999.99 -99999.99 -99999.99
1/1/2022 8:30:00 AM -99999.99 -179968 -99999.99 -99999.99 -99999.99 -99999.99
1/1/2022 8:45:00 AM -99999.99 -179968 -99999.99 -99999.99 -99999.99 -99999.99
1/1/2022 9:00:00 AM -99999.99 -179968 -99999.99 -99999.99 -99999.99 -99999.99
1/1/2022 9:15:00 AM -99999.99 -179968 -99999.99 -99999.99 -99999.99 -99999.99
1/1/2022 9:30:00 AM -99999.99 -179968 -99999.99 -99999.99 -99999.99 -99999.99
1/1/2022 9:45:00 AM -99999.99 -179968 -99999.99 -99999.99 -99999.99 -99999.99
1/1/2022 10:00:00 AM -99999.99 -179968 -99999.99 -99999.99 -99999.99 -99999.99
1/1/2022 10:15:00 AM -99999.99 -179968 -99999.99 -99999.99 -99999.99 -99999.99
1/1/2022 10:30:00 AM -99999.99 -179968 -99999.99 -99999.99 -99999.99 -99999.99
1/1/2022 10:45:00 AM -99999.99 -179968 -99999.99 -99999.99 -99999.99 -99999.99
1/1/2022 11:00:00 AM -99999.99 -179968 -99999.99 -99999.99 -99999.99 -99999.99
1/1/2022 11:15:00 AM -99999.99 -179968 -99999.99 -99999.99 -99999.99 -99999.99
1/1/2022 11:30:00 AM -99999.99 -179968 -99999.99 -99999.99 -99999.99 -99999.99
1/1/2022 11:45:00 AM -99999.99 -179968 -99999.99 -99999.99 -99999.99 -99999.99
1/1/2022 12:00:00 PM -99999.99 -179968 -99999.99 -99999.99 -99999.99 -99999.99
1/1/2022 12:15:00 PM -99999.99 -179968 -99999.99 -99999.99 -99999.99 -99999.99
1/1/2022 12:30:00 PM -99999.99 -179968 -99999.99 -99999.99 -99999.99 -99999.99
1/1/2022 12:45:00 PM -99999.99 -179968 -99999.99 -99999.99 -99999.99 -99999.99
1/1/2022 1:00:00 PM -99999.99 -179968 -99999.99 -99999.99 -99999.99 -99999.99
1/1/2022 1:15:00 PM -99999.99 -179968 -99999.99 -99999.99 -99999.99 -99999.99
1/1/2022 1:30:00 PM -99999.99 -179968 -99999.99 -99999.99 -99999.99 -99999.99
1/1/2022 1:45:00 PM -99999.99 -179968 -99999.99 -99999.99 -99999.99 -99999.99
1/1/2022 2:00:00 PM -99999.99 -179968 -99999.99 -99999.99 -99999.99 -99999.99
1/1/2022 2:15:00 PM -99999.99 -179968 -99999.99 -99999.99 -99999.99 -99999.99
1/1/2022 2:30:00 PM -99999.99 -179968 -99999.99 -99999.99 -99999.99 -99999.99
1/1/2022 2:45:00 PM -99999.99 -179968 -99999.99 -99999.99 -99999.99 -99999.99
1/1/2022 3:00:00 PM -99999.99 -179968 -99999.99 -99999.99 -99999.99 -99999.99
1/1/2022 3:15:00 PM -99999.99 -179968 -99999.99 -99999.99 -99999.99 -99999.99
1/1/2022 3:30:00 PM -99999.99 -179968 -99999.99 -99999.99 -99999.99 -99999.99
1/1/2022 3:45:00 PM -99999.99 -179968 -99999.99 -99999.99 -99999.99 -99999.99
1/1/2022 4:00:00 PM -99999.99 -179968 -99999.99 -99999.99 -99999.99 -99999.99
1/1/2022 4:15:00 PM -99999.99 -179968 -99999.99 -99999.99 -99999.99 -99999.99
1/1/2022 4:30:00 PM -99999.99 -179968 -99999.99 -99999.99 -99999.99 -99999.99
1/1/2022 4:45:00 PM -99999.99 -179968 -99999.99 -99999.99 -99999.99 -99999.99
1/1/2022 5:00:00 PM -99999.99 -179968 -99999.99 -99999.99 -99999.99 -99999.99
1/1/2022 5:15:00 PM -99999.99 -179968 -99999.99 -99999.99 -99999.99 -99999.99
1/1/2022 5:30:00 PM -99999.99 -179968 -99999.99 -99999.99 -99999.99 -99999.99
1/1/2022 5:45:00 PM -99999.99 -179968 -99999.99 -99999.99 -99999.99 -99999.99
1/1/2022 6:00:00 PM -99999.99 -179968 -99999.99 -99999.99 -99999.99 -99999.99
1/1/2022 6:15:00 PM -99999.99 -179968 -99999.99 -99999.99 -99999.99 -99999.99
1/1/2022 6:30:00 PM -99999.99 -179968 -99999.99 -99999.99 -99999.99 -99999.99
1/1/2022 6:45:00 PM -99999.99 -179968 -99999.99 -99999.99 -99999.99 -99999.99
1/1/2022 7:00:00 PM -99999.99 -179968 -99999.99 -99999.99 -99999.99 -99999.99
1/1/2022 7:15:00 PM -99999.99 -179968 -99999.99 -99999.99 -99999.99 -99999.99
1/1/2022 7:30:00 PM -99999.99 -179968 -99999.99 -99999.99 -99999.99 -99999.99
1/1/2022 7:45:00 PM -99999.99 -179968 -99999.99 -99999.99 -99999.99 -99999.99
1/1/2022 8:00:00 PM -99999.99 -179968 -99999.99 -99999.99 -99999.99 -99999.99
1/1/2022 8:15:00 PM -99999.99 -179968 -99999.99 -99999.99 -99999.99 -99999.99
1/1/2022 8:30:00 PM -99999.99 -179968 -99999.99 -99999.99 -99999.99 -99999.99
1/1/2022 8:45:00 PM -99999.99 -179968 -99999.99 -99999.99 -99999.99 -99999.99
1/1/2022 9:00:00 PM -99999.99 -179968 -99999.99 -99999.99 -99999.99 -99999.99
1/1/2022 9:15:00 PM -99999.99 -179968 -99999.99 -99999.99 -99999.99 -99999.99
1/1/2022 9:30:00 PM -99999.99 -179968 -99999.99 -99999.99 -99999.99 -99999.99
1/1/2022 9:45:00 PM -99999.99 -179968 -99999.99 -99999.99 -99999.99 -99999.99
1/1/2022 10:00:00 PM -99999.99 -179968 -99999.99 -99999.99 -99999.99 -99999.99
1/1/2022 10:15:00 PM -99999.99 -179968 -99999.99 -99999.99 -99999.99 -99999.99
1/1/2022 10:30:00 PM -99999.99 -179968 -99999.99 -99999.99 -99999.99 -99999.99
1/1/2022 10:45:00 PM -99999.99 -179968 -99999.99 -99999.99 -99999.99 -99999.99
1/1/2022 11:00:00 PM -99999.99 -179968 -99999.99 -99999.99 -99999.99 -99999.99
1/1/2022 11:15:00 PM -99999.99 -179968 -99999.99 -99999.99 -99999.99 -99999.99
1/1/2022 11:30:00 PM -99999.99 -179968 -99999.99 -99999.99 -99999.99 -99999.99
1/1/2022 11:45:00 PM -99999.99 -179968 -99999.99 -99999.99 -99999.99 -99999.99
1/2/2022 12:00:00 AM -99999.99 -179968 -99999.99 -99999.99 -99999.99 -99999.99
1/2/2022 12:15:00 AM -99999.99 -179968 -99999.99 -99999.99 -99999.99 -99999.99
1/2/2022 12:30:00 AM -99999.99 -179968 -99999.99 -99999.99 -99999.99 -99999.99
1/2/2022 12:45:00 AM -99999.99 -179968 -99999.99 -99999.99 -99999.99 -99999.99
1/2/2022 1:00:00 AM -99999.99 -179968 -99999.99 -99999.99 -99999.99 -99999.99
1/2/2022 1:15:00 AM -99999.99 -179968 -99999.99 -99999.99 -99999.99 -99999.99
1/2/2022 1:30:00 AM -99999.99 -179968 -99999.99 -99999.99 -99999.99 -99999.99
1/2/2022 1:45:00 AM -99999.99 -179968 -99999.99 -99999.99 -99999.99 -99999.99
1/2/2022 2:00:00 AM -99999.99 -179968 -99999.99 -99999.99 -99999.99 -99999.99
1/2/2022 2:15:00 AM -99999.99 -179968 -99999.99 -99999.99 -99999.99 -99999.99
1/2/2022 2:30:00 AM -99999.99 -179968 -99999.99 -99999.99 -99999.99 -99999.99
1/2/2022 2:45:00 AM -99999.99 -179968 -99999.99 -99999.99 -99999.99 -99999.99
1/2/2022 3:00:00 AM -99999.99 -179968 -99999.99 -99999.99 -99999.99 -99999.99
1/2/2022 3:15:00 AM -99999.99 -179968 -99999.99 -99999.99 -99999.99 -99999.99
1/2/2022 3:30:00 AM -99999.99 -179968 -99999.99 -99999.99 -99999.99 -99999.99
1/2/2022 3:45:00 AM -99999.99 -179968 -99999.99 -99999.99 -99999.99 -99999.99
1/2/2022 4:00:00 AM -99999.99 -179968 -99999.99 -99999.99 -99999.99 -99999.99
1/2/2022 4:15:00 AM -99999.99 -179968 -99999.99 -99999.99 -99999.99 -99999.99
1/2/2022 4:30:00 AM -99999.99 -179968 -99999.99 -99999.99 -99999.99 -99999.99
1/2/2022 4:45:00 AM -99999.99 -179968 -99999.99 -99999.99 -99999.99 -99999.99
1/2/2022 5:00:00 AM -99999.99 -179968 -99999.99 -99999.99 -99999.99 -99999.99
1/2/2022 5:15:00 AM -99999.99 -179968 -99999.99 -99999.99 -99999.99 -99999.99
1/2/2022 5:30:00 AM -99999.99 -179968 -99999.99 -99999.99 -99999.99 -99999.99
1/2/2022 5:45:00 AM -99999.99 -179968 -99999.99 -99999.99 -99999.99 -99999.99
1/2/2022 6:00:00 AM -99999.99 -179968 -99999.99 -99999.99 -99999.99 -99999.99
1/2/2022 6:15:00 AM -99999.99 -179968 -99999.99 -99999.99 -99999.99 -99999.99
1/2/2022 6:30:00 AM -99999.99 -179968 -99999.99 -99999.99 -99999.99 -99999.99
1/2/2022 6:45:00 AM -99999.99 -179968 -99999.99 -99999.99 -99999.99 -99999.99
1/2/2022 7:00:00 AM -99999.99 -179968 -99999.99 -99999.99 -99999.99 -99999.99
1/2/2022 7:15:00 AM -99999.99 -179968 -99999.99 -99999.99 -99999.99 -99999.99
1/2/2022 7:30:00 AM -99999.99 -179968 -99999.99 -99999.99 -99999.99 -99999.99
1/2/2022 7:45:00 AM -99999.99 -179968 -99999.99 -99999.99 -99999.99 -99999.99
1/2/2022 8:00:00 AM -99999.99 -179968 -99999.99 -99999.99 -99999.99 -99999.99
1/2/2022 8:15:00 AM -99999.99 -179968 -99999.99 -99999.99 -99999.99 -99999.99
1/2/2022 8:30:00 AM -99999.99 -179968 -99999.99 -99999.99 -99999.99 -99999.99
1/2/2022 8:45:00 AM -99999.99 -179968 -99999.99 -99999.99 -99999.99 -99999.99
1/2/2022 9:00:00 AM -99999.99 -179968 -99999.99 -99999.99 -99999.99 -99999.99
1/2/2022 9:15:00 AM -99999.99 -179968 -99999.99 -99999.99 -99999.99 -99999.99
1/2/2022 9:30:00 AM -99999.99 -179968 -99999.99 -99999.99 -99999.99 -99999.99
1/2/2022 9:45:00 AM -99999.99 -179968 -99999.99 -99999.99 -99999.99 -99999.99
1/2/2022 10:00:00 AM -99999.99 -179968 -99999.99 -99999.99 -99999.99 -99999.99
1/2/2022 10:15:00 AM -99999.99 -179968 -99999.99 -99999.99 -99999.99 -99999.99
1/2/2022 10:30:00 AM -99999.99 -179968 -99999.99 -99999.99 -99999.99 -99999.99
1/2/2022 10:45:00 AM -99999.99 -179968 -99999.99 -99999.99 -99999.99 -99999.99
1/2/2022 11:00:00 AM -99999.99 -179968 -99999.99 -99999.99 -99999.99 -99999.99
1/2/2022 11:15:00 AM -99999.99 -179968 -99999.99 -99999.99 -99999.99 -99999.99
1/2/2022 11:30:00 AM -99999.99 -179968 -99999.99 -99999.99 -99999.99 -99999.99
1/2/2022 11:45:00 AM -99999.99 -179968 -99999.99 -99999.99 -99999.99 -99999.99
1/2/2022 12:00:00 PM -99999.99 -179968 -99999.99 -99999.99 -99999.99 -99999.99
1/2/2022 12:15:00 PM -99999.99 -179968 -99999.99 -99999.99 -99999.99 -99999.99
1/2/2022 12:30:00 PM -99999.99 -179968 -99999.99 -99999.99 -99999.99 -99999.99
1/2/2022 12:45:00 PM -99999.99 -179968 -99999.99 -99999.99 -99999.99 -99999.99
1/2/2022 1:00:00 PM -99999.99 -179968 -99999.99 -99999.99 -99999.99 -99999.99
1/2/2022 1:15:00 PM -99999.99 -179968 -99999.99 -99999.99 -99999.99 -99999.99
1/2/2022 1:30:00 PM -99999.99 -179968 -99999.99 -99999.99 -99999.99 -99999.99
1/2/2022 1:45:00 PM -99999.99 -179968 -99999.99 -99999.99 -99999.99 -99999.99
1/2/2022 2:00:00 PM -99999.99 -179968 -99999.99 -99999.99 -99999.99 -99999.99
1/2/2022 2:15:00 PM -99999.99 -179968 -99999.99 -99999.99 -99999.99 -99999.99
1/2/2022 2:30:00 PM -99999.99 -179968 -99999.99 -99999.99 -99999.99 -99999.99
1/2/2022 2:45:00 PM -99999.99 -179968 -99999.99 -99999.99 -99999.99 -99999.99
1/2/2022 3:00:00 PM -99999.99 -179968 -99999.99 -99999.99 -99999.99 -99999.99
1/2/2022 3:15:00 PM -99999.99 -179968 -99999.99 -99999.99 -99999.99 -99999.99
1/2/2022 3:30:00 PM -99999.99 -179968 -99999.99 -99999.99 -99999.99 -99999.99
1/2/2022 3:45:00 PM -99999.99 -179968 -99999.99 -99999.99 -99999.99 -99999.99
1/2/2022 4:00:00 PM -99999.99 -179968 -99999.99 -99999.99 -99999.99 -99999.99
1/2/2022 4:15:00 PM -99999.99 -179968 -99999.99 -99999.99 -99999.99 -99999.99
1/2/2022 4:30:00 PM -99999.99 -179968 -99999.99 -99999.99 -99999.99 -99999.99
1/2/2022 4:45:00 PM -99999.99 -179968 -99999.99 -99999.99 -99999.99 -99999.99
1/2/2022 5:00:00 PM -99999.99 -179968 -99999.99 -99999.99 -99999.99 -99999.99
1/2/2022 5:15:00 PM -99999.99 -179968 -99999.99 -99999.99 -99999.99 -99999.99
1/2/2022 5:30:00 PM -99999.99 -179968 -99999.99 -99999.99 -99999.99 -99999.99
1/2/2022 5:45:00 PM -99999.99 -179968 -99999.99 -99999.99 -99999.99 -99999.99
1/2/2022 6:00:00 PM -99999.99 -179968 -99999.99 -99999.99 -99999.99 -99999.99
1/2/2022 6:15:00 PM -99999.99 -179968 -99999.99 -99999.99 -99999.99 -99999.99
1/2/2022 6:30:00 PM -99999.99 -179968 -99999.99 -99999.99 -99999.99 -99999.99
1/2/2022 6:45:00 PM -99999.99 -179968 -99999.99 -99999.99 -99999.99 -99999.99
1/2/2022 7:00:00 PM -99999.99 -179968 -99999.99 -99999.99 -99999.99 -99999.99
1/2/2022 7:15:00 PM -99999.99 -179968 -99999.99 -99999.99 -99999.99 -99999.99
1/2/2022 7:30:00 PM -99999.99 -179968 -99999.99 -99999.99 -99999.99 -99999.99
1/2/2022 7:45:00 PM -99999.99 -179968 -99999.99 -99999.99 -99999.99 -99999.99
1/2/2022 8:00:00 PM -99999.99 -179968 -99999.99 -99999.99 -99999.99 -99999.99
1/2/2022 8:15:00 PM -99999.99 -179968 -99999.99 -99999.99 -99999.99 -99999.99
1/2/2022 8:30:00 PM -99999.99 -179968 -99999.99 -99999.99 -99999.99 -99999.99
1/2/2022 8:45:00 PM -99999.99 -179968 -99999.99 -99999.99 -99999.99 -99999.99
1/2/2022 9:00:00 PM -99999.99 -179968 -99999.99 -99999.99 -99999.99 -99999.99
1/2/2022 9:15:00 PM -99999.99 -179968 -99999.99 -99999.99 -99999.99 -99999.99
1/2/2022 9:30:00 PM -99999.99 -179968 -99999.99 -99999.99 -99999.99 -99999.99
1/2/2022 9:45:00 PM -99999.99 -179968 -99999.99 -99999.99 -99999.99 -99999.99
1/2/2022 10:00:00 PM -99999.99 -179968 -99999.99 -99999.99 -99999.99 -99999.99
1/2/2022 10:15:00 PM -99999.99 -179968 -99999.99 -99999.99 -99999.99 -99999.99
1/2/2022 10:30:00 PM -99999.99 -179968 -99999.99 -99999.99 -99999.99 -99999.99
1/2/2022 10:45:00 PM -99999.99 -179968 -99999.99 -99999.99 -99999.99 -99999.99
1/2/2022 11:00:00 PM -99999.99 -179968 -99999.99 -99999.99 -99999.99 -99999.99
1/2/2022 11:15:00 PM -99999.99 -179968 -99999.99 -99999.99 -99999.99 -99999.99
1/2/2022 11:30:00 PM -99999.99 -179968 -99999.99 -99999.99 -99999.99 -99999.99
1/2/2022 11:45:00 PM -99999.99 -179968 -99999.99 -99999.99 -99999.99 -99999.99
1/3/2022 12:00:00 AM -99999.99 -179968 -99999.99 -99999.99 -99999.99 -99999.99
1/3/2022 12:15:00 AM -99999.99 -179968 -99999.99 -99999.99 -99999.99 -99999.99
1/3/2022 12:30:00 AM -99999.99 -179968 -99999.99 -99999.99 -99999.99 -99999.99
1/3/2022 12:45:00 AM -99999.99 -179968 -99999.99 -99999.99 -99999.99 -99999.99
1/3/2022 1:00:00 AM -99999.99 -179968 -99999.99 -99999.99 -99999.99 -99999.99
1/3/2022 1:15:00 AM -99999.99 -179968 -99999.99 -99999.99 -99999.99 -99999.99
1/3/2022 1:30:00 AM -99999.99 -179968 -99999.99 -99999.99 -99999.99 -99999.99
1/3/2022 1:45:00 AM -99999.99 -179968 -99999.99 -99999.99 -99999.99 -99999.99
1/3/2022 2:00:00 AM -99999.99 -179968 -99999.99 -99999.99 -99999.99 -99999.99
1/3/2022 2:15:00 AM -99999.99 -179968 -99999.99 -99999.99 -99999.99 -99999.99
1/3/2022 2:30:00 AM -99999.99 -179968 -99999.99 -99999.99 -99999.99 -99999.99
1/3/2022 2:45:00 AM -99999.99 -179968 -99999.99 -99999.99 -99999.99 -99999.99
1/3/2022 3:00:00 AM -99999.99 -179968 -99999.99 -99999.99 -99999.99 -99999.99
1/3/2022 3:15:00 AM -99999.99 -179968 -99999.99 -99999.99 -99999.99 -99999.99
1/3/2022 3:30:00 AM -99999.99 -179968 -99999.99 -99999.99 -99999.99 -99999.99
1/3/2022 3:45:00 AM -99999.99 -179968 -99999.99 -99999.99 -99999.99 -99999.99
1/3/2022 4:00:00 AM -99999.99 -179968 -99999.99 -99999.99 -99999.99 -99999.99
1/3/2022 4:15:00 AM -99999.99 -179968 -99999.99 -99999.99 -99999.99 -99999.99
1/3/2022 4:30:00 AM -99999.99 -179968 -99999.99 -99999.99 -99999.99 -99999.99
1/3/2022 4:45:00 AM -99999.99 -179968 -99999.99 -99999.99 -99999.99 -99999.99
1/3/2022 5:00:00 AM -99999.99 -179968 -99999.99 -99999.99 -99999.99 -99999.99
1/3/2022 5:15:00 AM -99999.99 -179968 -99999.99 -99999.99 -99999.99 -99999.99
1/3/2022 5:30:00 AM -99999.99 -179968 -99999.99 -99999.99 -99999.99 -99999.99
1/3/2022 5:45:00 AM -99999.99 -179968 -99999.99 -99999.99 -99999.99 -99999.99
1/3/2022 6:00:00 AM -99999.99 -179968 -99999.99 -99999.99 -99999.99 -99999.99
1/3/2022 6:15:00 AM -99999.99 -179968 -99999.99 -99999.99 -99999.99 -99999.99
1/3/2022 6:30:00 AM -99999.99 -179968 -99999.99 -99999.99 -99999.99 -99999.99
1/3/2022 6:45:00 AM -99999.99 -179968 -99999.99 -99999.99 -99999.99 -99999.99
1/3/2022 7:00:00 AM -99999.99 -179968 -99999.99 -99999.99 -99999.99 -99999.99
1/3/2022 7:15:00 AM -99999.99 -179968 -99999.99 -99999.99 -99999.99 -99999.99
1/3/2022 7:30:00 AM -99999.99 -179968 -99999.99 -99999.99 -99999.99 -99999.99
1/3/2022 7:45:00 AM -99999.99 -179968 -99999.99 -99999.99 -99999.99 -99999.99
1/3/2022 8:00:00 AM -99999.99 -179968 -99999.99 -99999.99 -99999.99 -99999.99
1/3/2022 8:15:00 AM -99999.99 -179968 -99999.99 -99999.99 -99999.99 -99999.99
1/3/2022 8:30:00 AM -99999.99 -179968 -99999.99 -99999.99 -99999.99 -99999.99
1/3/2022 8:45:00 AM -99999.99 -179968 -99999.99 -99999.99 -99999.99 -99999.99
1/3/2022 9:00:00 AM -99999.99 -179968 -99999.99 -99999.99 -99999.99 -99999.99
1/3/2022 9:15:00 AM -99999.99 -179968 -99999.99 -99999.99 -99999.99 -99999.99
1/3/2022 9:30:00 AM -99999.99 -179968 -99999.99 -99999.99 -99999.99 -99999.99
1/3/2022 9:45:00 AM -99999.99 -179968 -99999.99 -99999.99 -99999.99 -99999.99
1/3/2022 10:00:00 AM -99999.99 -179968 -99999.99 -99999.99 -99999.99 -99999.99
1/3/2022 10:15:00 AM -99999.99 -179968 -99999.99 -99999.99 -99999.99 -99999.99
1/3/2022 10:30:00 AM 3.92 39.056 0.028 -4.26 10.56 -99999.99
1/3/2022 10:45:00 AM 3.9 39.02 0.028 -3.8 10.56 -99999.99
1/3/2022 11:00:00 AM 3.88 38.984 0.028 -3.71 10.55 -99999.99
1/3/2022 11:15:00 AM 3.88 38.984 0.028 -3.62 10.55 -99999.99
1/3/2022 11:30:00 AM 3.87 38.966 0.028 -3.6 10.55 -99999.99
1/3/2022 11:45:00 AM 3.87 38.966 0.028 -3.56 10.54 -99999.99
1/3/2022 12:00:00 PM 3.86 38.948 0.028 -3.54 10.54 -99999.99
1/3/2022 12:15:00 PM 3.87 38.966 0.028 -3.48 10.54 -99999.99
1/3/2022 12:30:00 PM 3.88 38.984 0.028 -3.54 10.54 -99999.99
1/3/2022 12:45:00 PM 3.9 39.02 0.028 -3.54 10.54 -99999.99
1/3/2022 1:00:00 PM 3.93 39.074 0.028 -3.61 10.54 -99999.99
1/3/2022 1:15:00 PM 3.94 39.092 0.028 -3.49 10.54 -99999.99
1/3/2022 1:30:00 PM 3.97 39.146 0.028 -3.36 10.53 -99999.99
1/3/2022 1:45:00 PM 3.99 39.182 0.028 -3.47 10.54 -99999.99
1/3/2022 2:00:00 PM 4.01 39.218 0.028 -3.63 10.53 -99999.99
1/3/2022 2:15:00 PM 4.02 39.236 0.028 -3.48 10.53 -99999.99
1/3/2022 2:30:00 PM 4.02 39.236 0.028 -3.53 10.53 -99999.99
1/3/2022 2:45:00 PM 4 39.2 0.028 -3.5 10.53 -99999.99
1/3/2022 3:00:00 PM 3.97 39.146 0.028 -3.45 10.53 -99999.99
1/3/2022 3:15:00 PM 3.93 39.074 0.028 -3.36 10.54 -99999.99
1/3/2022 3:30:00 PM 3.88 38.984 0.028 -3.09 10.54 -99999.99
1/3/2022 3:45:00 PM 3.83 38.894 0.028 -2.96 10.55 -99999.99
1/3/2022 4:00:00 PM 3.78 38.804 0.028 -2.65 10.55 -99999.99
1/3/2022 4:15:00 PM 3.75 38.75 0.028 -2.2 10.55 -99999.99
1/3/2022 4:30:00 PM 3.71 38.678 0.028 -2.14 10.55 -99999.99
1/3/2022 4:45:00 PM 3.67 38.606 0.028 -1.76 10.55 -99999.99
1/3/2022 5:00:00 PM 3.64 38.552 0.029 -1.65 10.55 -99999.99
1/3/2022 5:15:00 PM 3.62 38.516 0.029 -1.28 10.55 -99999.99
1/3/2022 5:30:00 PM 3.59 38.462 0.029 -0.96 10.56 -99999.99
1/3/2022 5:45:00 PM 3.56 38.408 0.029 -0.87 10.56 -99999.99
1/3/2022 6:00:00 PM 3.53 38.354 0.029 -0.96 10.56 -99999.99
1/3/2022 6:15:00 PM 3.5 38.3 0.029 -0.94 10.56 -99999.99
1/3/2022 6:30:00 PM 3.48 38.264 0.029 -0.75 10.56 -99999.99
1/3/2022 6:45:00 PM 3.45 38.21 0.029 -0.73 10.57 -99999.99
1/3/2022 7:00:00 PM 3.41 38.138 0.029 -0.57 10.57 -99999.99
1/3/2022 7:15:00 PM -99999.99 -179968 -99999.99 -99999.99 -99999.99 -99999.99
1/3/2022 7:30:00 PM -99999.99 -179968 -99999.99 -99999.99 -99999.99 -99999.99
1/3/2022 7:45:00 PM -99999.99 -179968 -99999.99 -99999.99 -99999.99 -99999.99
1/3/2022 8:00:00 PM -99999.99 -179968 -99999.99 -99999.99 -99999.99 -99999.99
1/3/2022 8:15:00 PM -99999.99 -179968 -99999.99 -99999.99 -99999.99 -99999.99
1/3/2022 8:30:00 PM -99999.99 -179968 -99999.99 -99999.99 -99999.99 -99999.99
1/3/2022 8:45:00 PM -99999.99 -179968 -99999.99 -99999.99 -99999.99 -99999.99
1/3/2022 9:00:00 PM -99999.99 -179968 -99999.99 -99999.99 -99999.99 -99999.99
1/3/2022 9:15:00 PM -99999.99 -179968 -99999.99 -99999.99 -99999.99 -99999.99
1/3/2022 9:30:00 PM -99999.99 -179968 -99999.99 -99999.99 -99999.99 -99999.99
1/3/2022 9:45:00 PM -99999.99 -179968 -99999.99 -99999.99 -99999.99 -99999.99
1/3/2022 10:00:00 PM -99999.99 -179968 -99999.99 -99999.99 -99999.99 -99999.99
1/3/2022 10:15:00 PM -99999.99 -179968 -99999.99 -99999.99 -99999.99 -99999.99
1/3/2022 10:30:00 PM -99999.99 -179968 -99999.99 -99999.99 -99999.99 -99999.99
1/3/2022 10:45:00 PM -99999.99 -179968 -99999.99 -99999.99 -99999.99 -99999.99
1/3/2022 11:00:00 PM -99999.99 -179968 -99999.99 -99999.99 -99999.99 -99999.99
1/3/2022 11:15:00 PM -99999.99 -179968 -99999.99 -99999.99 -99999.99 -99999.99
1/3/2022 11:30:00 PM -99999.99 -179968 -99999.99 -99999.99 -99999.99 -99999.99
1/3/2022 11:45:00 PM -99999.99 -179968 -99999.99 -99999.99 -99999.99 -99999.99
1/4/2022 12:00:00 AM -99999.99 -179968 -99999.99 -99999.99 -99999.99 -99999.99
1/4/2022 12:15:00 AM -99999.99 -179968 -99999.99 -99999.99 -99999.99 -99999.99
1/4/2022 12:30:00 AM -99999.99 -179968 -99999.99 -99999.99 -99999.99 -99999.99
1/4/2022 12:45:00 AM -99999.99 -179968 -99999.99 -99999.99 -99999.99 -99999.99
1/4/2022 1:00:00 AM -99999.99 -179968 -99999.99 -99999.99 -99999.99 -99999.99
1/4/2022 1:15:00 AM -99999.99 -179968 -99999.99 -99999.99 -99999.99 -99999.99
1/4/2022 1:30:00 AM -99999.99 -179968 -99999.99 -99999.99 -99999.99 -99999.99
1/4/2022 1:45:00 AM -99999.99 -179968 -99999.99 -99999.99 -99999.99 -99999.99
1/4/2022 2:00:00 AM -99999.99 -179968 -99999.99 -99999.99 -99999.99 -99999.99
1/4/2022 2:15:00 AM -99999.99 -179968 -99999.99 -99999.99 -99999.99 -99999.99
1/4/2022 2:30:00 AM -99999.99 -179968 -99999.99 -99999.99 -99999.99 -99999.99
1/4/2022 2:45:00 AM -99999.99 -179968 -99999.99 -99999.99 -99999.99 -99999.99
1/4/2022 3:00:00 AM -99999.99 -179968 -99999.99 -99999.99 -99999.99 -99999.99
1/4/2022 3:15:00 AM -99999.99 -179968 -99999.99 -99999.99 -99999.99 -99999.99
1/4/2022 3:30:00 AM -99999.99 -179968 -99999.99 -99999.99 -99999.99 -99999.99
1/4/2022 3:45:00 AM -99999.99 -179968 -99999.99 -99999.99 -99999.99 -99999.99
1/4/2022 4:00:00 AM -99999.99 -179968 -99999.99 -99999.99 -99999.99 -99999.99
1/4/2022 4:15:00 AM -99999.99 -179968 -99999.99 -99999.99 -99999.99 -99999.99
1/4/2022 4:30:00 AM -99999.99 -179968 -99999.99 -99999.99 -99999.99 -99999.99
1/4/2022 4:45:00 AM -99999.99 -179968 -99999.99 -99999.99 -99999.99 -99999.99
1/4/2022 5:00:00 AM -99999.99 -179968 -99999.99 -99999.99 -99999.99 -99999.99
1/4/2022 5:15:00 AM -99999.99 -179968 -99999.99 -99999.99 -99999.99 -99999.99
1/4/2022 5:30:00 AM -99999.99 -179968 -99999.99 -99999.99 -99999.99 -99999.99
1/4/2022 5:45:00 AM -99999.99 -179968 -99999.99 -99999.99 -99999.99 -99999.99
1/4/2022 6:00:00 AM -99999.99 -179968 -99999.99 -99999.99 -99999.99 -99999.99
1/4/2022 6:15:00 AM -99999.99 -179968 -99999.99 -99999.99 -99999.99 -99999.99
1/4/2022 6:30:00 AM -99999.99 -179968 -99999.99 -99999.99 -99999.99 -99999.99
1/4/2022 6:45:00 AM -99999.99 -179968 -99999.99 -99999.99 -99999.99 -99999.99
1/4/2022 7:00:00 AM -99999.99 -179968 -99999.99 -99999.99 -99999.99 -99999.99
1/4/2022 7:15:00 AM -99999.99 -179968 -99999.99 -99999.99 -99999.99 -99999.99
1/4/2022 7:30:00 AM -99999.99 -179968 -99999.99 -99999.99 -99999.99 -99999.99
1/4/2022 7:45:00 AM -99999.99 -179968 -99999.99 -99999.99 -99999.99 -99999.99
1/4/2022 8:00:00 AM -99999.99 -179968 -99999.99 -99999.99 -99999.99 -99999.99
1/4/2022 8:15:00 AM -99999.99 -179968 -99999.99 -99999.99 -99999.99 -99999.99
1/4/2022 8:30:00 AM -99999.99 -179968 -99999.99 -99999.99 -99999.99 -99999.99
1/4/2022 8:45:00 AM -99999.99 -179968 -99999.99 -99999.99 -99999.99 -99999.99
1/4/2022 9:00:00 AM -99999.99 -179968 -99999.99 -99999.99 -99999.99 -99999.99
1/4/2022 9:15:00 AM -99999.99 -179968 -99999.99 -99999.99 -99999.99 -99999.99
1/4/2022 9:30:00 AM -99999.99 -179968 -99999.99 -99999.99 -99999.99 -99999.99
1/4/2022 9:45:00 AM 2.17 35.906 0.029 -2.33 10.6 -99999.99
1/4/2022 10:00:00 AM 2.2 35.96 0.029 -8.25 10.6 -99999.99
1/4/2022 10:15:00 AM 2.24 36.032 0.029 -3.36 10.59 -99999.99
1/4/2022 10:30:00 AM 2.3 36.14 0.029 -3.17 10.59 -99999.99
1/4/2022 10:45:00 AM 2.36 36.248 0.029 -3.26 10.59 -99999.99
1/4/2022 11:00:00 AM 2.42 36.356 0.029 -3.23 10.59 -99999.99
1/4/2022 11:15:00 AM 2.49 36.482 0.029 -3.37 10.59 -99999.99
1/4/2022 11:30:00 AM 2.58 36.644 0.029 -3.5 10.58 -99999.99
1/4/2022 11:45:00 AM 2.67 36.806 0.029 -3.58 10.58 -99999.99
1/4/2022 12:00:00 PM 2.75 36.95 0.029 -3.59 10.57 -99999.99
1/4/2022 12:15:00 PM 2.83 37.094 0.028 -3.65 10.57 -99999.99
1/4/2022 12:30:00 PM 2.9 37.22 0.028 -3.6 10.57 -99999.99
1/4/2022 12:45:00 PM 2.98 37.364 0.028 -3.65 10.56 -99999.99
1/4/2022 1:00:00 PM 3.07 37.526 0.028 -3.64 10.56 -99999.99
1/4/2022 1:15:00 PM 3.15 37.67 0.028 -3.89 10.56 -99999.99
1/4/2022 1:30:00 PM 3.2 37.76 0.028 -3.92 10.56 -99999.99
1/4/2022 1:45:00 PM 3.27 37.886 0.028 -3.79 10.55 -99999.99
1/4/2022 2:00:00 PM 3.35 38.03 0.028 -3.83 10.55 -99999.99
1/4/2022 2:15:00 PM 3.42 38.156 0.028 -3.91 10.55 -99999.99
1/4/2022 2:30:00 PM 3.47 38.246 0.028 -3.76 10.55 -99999.99
1/4/2022 2:45:00 PM 3.5 38.3 0.028 -3.63 10.55 -99999.99
1/4/2022 3:00:00 PM 3.52 38.336 0.028 -3.67 10.55 -99999.99
1/4/2022 3:15:00 PM 3.52 38.336 0.028 -3.38 10.54 -99999.99
1/4/2022 3:30:00 PM 3.52 38.336 0.028 -3.22 10.54 -99999.99
1/4/2022 3:45:00 PM 3.53 38.354 0.028 -3.12 10.54 -99999.99
1/4/2022 4:00:00 PM 3.54 38.372 0.028 -2.99 10.54 -99999.99
1/4/2022 4:15:00 PM 3.55 38.39 0.028 -2.76 10.54 -99999.99
1/4/2022 4:30:00 PM 3.55 38.39 0.029 -2.59 10.54 -99999.99
1/4/2022 4:45:00 PM 3.55 38.39 0.029 -2.32 10.54 -99999.99
1/4/2022 5:00:00 PM 3.56 38.408 0.029 -1.94 10.54 -99999.99
1/4/2022 5:15:00 PM 3.55 38.39 0.029 -1.55 10.54 -99999.99
1/4/2022 5:30:00 PM 3.55 38.39 0.029 -1.43 10.53 -99999.99
1/4/2022 5:45:00 PM 3.55 38.39 0.029 -1.31 10.53 -99999.99
1/4/2022 6:00:00 PM 3.54 38.372 0.029 -1.09 10.53 -99999.99
1/4/2022 6:15:00 PM 3.54 38.372 0.029 -1.18 10.53 -99999.99
1/4/2022 6:30:00 PM 3.53 38.354 0.029 -1.19 10.53 -99999.99
1/4/2022 6:45:00 PM 3.53 38.354 0.029 -1.24 10.52 -99999.99
1/4/2022 7:00:00 PM 3.52 38.336 0.029 -1.16 10.52 -99999.99
1/4/2022 7:15:00 PM 3.51 38.318 0.029 -1.12 10.52 -99999.99
1/4/2022 7:30:00 PM 3.5 38.3 0.029 -0.98 10.52 -99999.99
1/4/2022 7:45:00 PM 3.49 38.282 0.029 -0.99 10.52 -99999.99
1/4/2022 8:00:00 PM 3.48 38.264 0.029 -0.98 10.52 -99999.99
1/4/2022 8:15:00 PM 3.47 38.246 0.029 -0.96 10.52 -99999.99
1/4/2022 8:30:00 PM 3.46 38.228 0.029 -0.98 10.51 -99999.99
1/4/2022 8:45:00 PM 3.45 38.21 0.029 -0.79 10.51 -99999.99
1/4/2022 9:00:00 PM 3.43 38.174 0.029 -0.66 10.5 -99999.99
1/4/2022 9:15:00 PM 3.42 38.156 0.029 -0.82 10.51 -99999.99
1/4/2022 9:30:00 PM 3.4 38.12 0.029 -0.94 10.5 -99999.99
1/4/2022 9:45:00 PM 3.39 38.102 0.029 -0.81 10.5 -99999.99
1/4/2022 10:00:00 PM -99999.99 -179968 -99999.99 -99999.99 -99999.99 -99999.99
1/4/2022 10:15:00 PM 3.37 38.066 0.029 -0.86 10.5 -99999.99
1/4/2022 10:30:00 PM 3.36 38.048 0.029 -0.84 10.49 -99999.99
1/4/2022 10:45:00 PM 3.34 38.012 0.029 -0.84 10.49 -99999.99
1/4/2022 11:00:00 PM 3.33 37.994 0.029 -0.83 10.49 -99999.99
1/4/2022 11:15:00 PM 3.32 37.976 0.029 -0.78 10.48 -99999.99
1/4/2022 11:30:00 PM 3.32 37.976 0.029 -0.98 10.48 -99999.99
1/4/2022 11:45:00 PM 3.31 37.958 0.029 -0.73 10.48 -99999.99
1/5/2022 12:00:00 AM 3.31 37.958 0.029 -0.72 10.48 -99999.99
1/5/2022 12:15:00 AM 3.3 37.94 0.029 -0.77 10.48 -99999.99
1/5/2022 12:30:00 AM 3.3 37.94 0.029 -0.73 10.48 -99999.99
1/5/2022 12:45:00 AM 3.3 37.94 0.029 -0.78 10.47 -99999.99
1/5/2022 1:00:00 AM -99999.99 -179968 -99999.99 -99999.99 -99999.99 -99999.99
1/5/2022 1:15:00 AM -99999.99 -179968 -99999.99 -99999.99 -99999.99 -99999.99
1/5/2022 1:30:00 AM -99999.99 -179968 -99999.99 -99999.99 -99999.99 -99999.99
1/5/2022 1:45:00 AM -99999.99 -179968 -99999.99 -99999.99 -99999.99 -99999.99
1/5/2022 2:00:00 AM -99999.99 -179968 -99999.99 -99999.99 -99999.99 -99999.99
1/5/2022 2:15:00 AM -99999.99 -179968 -99999.99 -99999.99 -99999.99 -99999.99
1/5/2022 2:30:00 AM -99999.99 -179968 -99999.99 -99999.99 -99999.99 -99999.99
1/5/2022 2:45:00 AM -99999.99 -179968 -99999.99 -99999.99 -99999.99 -99999.99
1/5/2022 3:00:00 AM -99999.99 -179968 -99999.99 -99999.99 -99999.99 -99999.99
1/5/2022 3:15:00 AM -99999.99 -179968 -99999.99 -99999.99 -99999.99 -99999.99
1/5/2022 3:30:00 AM -99999.99 -179968 -99999.99 -99999.99 -99999.99 -99999.99
1/5/2022 3:45:00 AM -99999.99 -179968 -99999.99 -99999.99 -99999.99 -99999.99
1/5/2022 4:00:00 AM -99999.99 -179968 -99999.99 -99999.99 -99999.99 -99999.99
1/5/2022 4:15:00 AM -99999.99 -179968 -99999.99 -99999.99 -99999.99 -99999.99
1/5/2022 4:30:00 AM -99999.99 -179968 -99999.99 -99999.99 -99999.99 -99999.99
1/5/2022 4:45:00 AM -99999.99 -179968 -99999.99 -99999.99 -99999.99 -99999.99
1/5/2022 5:00:00 AM -99999.99 -179968 -99999.99 -99999.99 -99999.99 -99999.99
1/5/2022 5:15:00 AM -99999.99 -179968 -99999.99 -99999.99 -99999.99 -99999.99
1/5/2022 5:30:00 AM -99999.99 -179968 -99999.99 -99999.99 -99999.99 -99999.99
1/5/2022 5:45:00 AM -99999.99 -179968 -99999.99 -99999.99 -99999.99 -99999.99
1/5/2022 6:00:00 AM -99999.99 -179968 -99999.99 -99999.99 -99999.99 -99999.99
1/5/2022 6:15:00 AM -99999.99 -179968 -99999.99 -99999.99 -99999.99 -99999.99
1/5/2022 6:30:00 AM -99999.99 -179968 -99999.99 -99999.99 -99999.99 -99999.99
1/5/2022 6:45:00 AM -99999.99 -179968 -99999.99 -99999.99 -99999.99 -99999.99
1/5/2022 7:00:00 AM -99999.99 -179968 -99999.99 -99999.99 -99999.99 -99999.99
1/5/2022 7:15:00 AM -99999.99 -179968 -99999.99 -99999.99 -99999.99 -99999.99
1/5/2022 7:30:00 AM -99999.99 -179968 -99999.99 -99999.99 -99999.99 -99999.99
1/5/2022 7:45:00 AM -99999.99 -179968 -99999.99 -99999.99 -99999.99 -99999.99
1/5/2022 8:00:00 AM -99999.99 -179968 -99999.99 -99999.99 -99999.99 -99999.99
1/5/2022 8:15:00 AM -99999.99 -179968 -99999.99 -99999.99 -99999.99 -99999.99
1/5/2022 8:30:00 AM -99999.99 -179968 -99999.99 -99999.99 -99999.99 -99999.99
1/5/2022 8:45:00 AM -99999.99 -179968 -99999.99 -99999.99 -99999.99 -99999.99
1/5/2022 9:00:00 AM -99999.99 -179968 -99999.99 -99999.99 -99999.99 -99999.99
1/5/2022 9:15:00 AM -99999.99 -179968 -99999.99 -99999.99 -99999.99 -99999.99
1/5/2022 9:30:00 AM -99999.99 -179968 -99999.99 -99999.99 -99999.99 -99999.99
1/5/2022 9:45:00 AM -99999.99 -179968 -99999.99 -99999.99 -99999.99 -99999.99
1/5/2022 10:00:00 AM -99999.99 -179968 -99999.99 -99999.99 -99999.99 -99999.99
1/5/2022 10:15:00 AM -99999.99 -179968 -99999.99 -99999.99 -99999.99 -99999.99
1/5/2022 10:30:00 AM -99999.99 -179968 -99999.99 -99999.99 -99999.99 -99999.99
1/5/2022 10:45:00 AM 3.61 38.498 0.028 -6.12 10.38 -99999.99
1/5/2022 11:00:00 AM 3.68 38.624 0.028 -4.18 10.38 -99999.99
1/5/2022 11:15:00 AM 3.75 38.75 0.028 -4.56 10.38 -99999.99
1/5/2022 11:30:00 AM 3.81 38.858 0.028 -4.58 10.37 -99999.99
1/5/2022 11:45:00 AM 3.87 38.966 0.028 -4.5 10.37 -99999.99
1/5/2022 12:00:00 PM 3.93 39.074 0.028 -4.45 10.36 -99999.99
1/5/2022 12:15:00 PM 3.99 39.182 0.028 -4.48 10.36 -99999.99
1/5/2022 12:30:00 PM 4.06 39.308 0.028 -4.54 10.36 -99999.99
1/5/2022 12:45:00 PM 4.16 39.488 0.028 -4.59 10.35 -99999.99
1/5/2022 1:00:00 PM 4.25 39.65 0.028 -4.75 10.35 -99999.99
1/5/2022 1:15:00 PM 4.32 39.776 0.028 -4.77 10.35 -99999.99
1/5/2022 1:30:00 PM 4.39 39.902 0.028 -4.69 10.34 -99999.99
1/5/2022 1:45:00 PM 4.44 39.992 0.028 -4.76 10.34 -99999.99
1/5/2022 2:00:00 PM 4.47 40.046 0.028 -4.58 10.34 -99999.99
1/5/2022 2:15:00 PM 4.53 40.154 0.028 -4.4 10.34 -99999.99
1/5/2022 2:30:00 PM 4.59 40.262 0.028 -4.6 10.34 -99999.99
1/5/2022 2:45:00 PM 4.64 40.352 0.028 -4.52 10.34 -99999.99
1/5/2022 3:00:00 PM 4.69 40.442 0.028 -4.64 10.34 -99999.99
1/5/2022 3:15:00 PM 4.71 40.478 0.028 -4.52 10.34 -99999.99
1/5/2022 3:30:00 PM 4.72 40.496 0.028 -4.41 10.33 -99999.99
1/5/2022 3:45:00 PM 4.71 40.478 0.028 -4.05 10.33 -99999.99
1/5/2022 4:00:00 PM 4.72 40.496 0.028 -3.93 10.34 -99999.99
1/5/2022 4:15:00 PM 4.72 40.496 0.028 -3.52 10.33 -99999.99
1/5/2022 4:30:00 PM 4.72 40.496 0.028 -3.11 10.34 -99999.99
1/5/2022 4:45:00 PM 4.71 40.478 0.028 -2.76 10.34 -99999.99
1/5/2022 5:00:00 PM 4.7 40.46 0.028 -2.42 10.34 -99999.99
1/5/2022 5:15:00 PM 4.7 40.46 0.028 -2.1 10.34 -99999.99
1/5/2022 5:30:00 PM 4.68 40.424 0.028 -2.11 10.34 -99999.99
1/5/2022 5:45:00 PM 4.67 40.406 0.028 -1.94 10.34 -99999.99
1/5/2022 6:00:00 PM 4.66 40.388 0.028 -1.86 10.34 -99999.99
1/5/2022 6:15:00 PM -99999.99 -179968 -99999.99 -99999.99 -99999.99 -99999.99
1/5/2022 6:30:00 PM 4.61 40.298 0.028 -1.83 10.34 -99999.99
1/5/2022 6:45:00 PM 4.59 40.262 0.028 -1.59 10.34 -99999.99
1/5/2022 7:00:00 PM 4.58 40.244 0.028 -1.5 10.34 -99999.99
1/5/2022 7:15:00 PM 4.56 40.208 0.028 -1.35 10.34 -99999.99
1/5/2022 7:30:00 PM 4.53 40.154 0.028 -1.32 10.34 -99999.99
1/5/2022 7:45:00 PM 4.51 40.118 0.028 -1.23 10.34 -99999.99
1/5/2022 8:00:00 PM 4.48 40.064 0.028 -1.32 10.35 -99999.99
1/5/2022 8:15:00 PM 4.45 40.01 0.028 -1.1 10.35 -99999.99
1/5/2022 8:30:00 PM 4.43 39.974 0.028 -1.07 10.35 -99999.99
1/5/2022 8:45:00 PM 4.42 39.956 0.028 -1.13 10.35 -99999.99
1/5/2022 9:00:00 PM 4.41 39.938 0.028 -1.14 10.35 -99999.99
1/5/2022 9:15:00 PM 4.4 39.92 0.028 -0.86 10.35 -99999.99
1/5/2022 9:30:00 PM 4.39 39.902 0.028 -1.04 10.35 -99999.99
1/5/2022 9:45:00 PM 4.39 39.902 0.028 -0.94 10.35 -99999.99
1/5/2022 10:00:00 PM 4.37 39.866 0.028 -0.97 10.34 -99999.99
1/5/2022 10:15:00 PM 4.35 39.83 0.028 -0.92 10.35 -99999.99
1/5/2022 10:30:00 PM 4.35 39.83 0.028 -1.02 10.35 -99999.99
1/5/2022 10:45:00 PM 4.33 39.794 0.028 -0.98 10.36 -99999.99
1/5/2022 11:00:00 PM 4.32 39.776 0.028 -0.92 10.36 -99999.99
1/5/2022 11:15:00 PM 4.31 39.758 0.028 -1.11 10.36 -99999.99
1/5/2022 11:30:00 PM 4.29 39.722 0.028 -1.04 10.37 -99999.99
1/5/2022 11:45:00 PM 4.29 39.722 0.028 -1.06 10.37 -99999.99
1/6/2022 12:00:00 AM 4.28 39.704 0.028 -1.13 10.37 -99999.99
1/6/2022 12:15:00 AM 4.25 39.65 0.028 -1.23 10.38 -99999.99
1/6/2022 12:30:00 AM 4.22 39.596 0.028 -1.16 10.37 -99999.99
1/6/2022 12:45:00 AM 4.19 39.542 0.028 -1.23 10.38 -99999.99
1/6/2022 1:00:00 AM 4.17 39.506 0.028 -1.11 10.38 -99999.99
1/6/2022 1:15:00 AM 4.14 39.452 0.028 -1.15 10.38 -99999.99
1/6/2022 1:30:00 AM 4.1 39.38 0.028 -0.96 10.38 -99999.99
1/6/2022 1:45:00 AM 4.06 39.308 0.028 -1.06 10.39 -99999.99
1/6/2022 2:00:00 AM 4.03 39.254 0.028 -0.86 10.39 -99999.99
1/6/2022 2:15:00 AM 4.01 39.218 0.028 -1.04 10.39 -99999.99
1/6/2022 2:30:00 AM 3.97 39.146 0.028 -0.92 10.4 -99999.99
1/6/2022 2:45:00 AM 3.95 39.11 0.028 -0.88 10.4 -99999.99
1/6/2022 3:00:00 AM 3.92 39.056 0.028 -0.76 10.41 -99999.99
1/6/2022 3:15:00 AM 3.88 38.984 0.028 -0.7 10.41 -99999.99
1/6/2022 3:30:00 AM 3.81 38.858 0.028 -0.81 10.41 -99999.99
1/6/2022 3:45:00 AM 3.77 38.786 0.028 -0.61 10.41 -99999.99
1/6/2022 4:00:00 AM 3.73 38.714 0.028 -0.56 10.41 -99999.99
1/6/2022 4:15:00 AM 3.71 38.678 0.028 -0.57 10.41 -99999.99
1/6/2022 4:30:00 AM 3.67 38.606 0.028 -0.48 10.41 -99999.99
1/6/2022 4:45:00 AM 3.61 38.498 0.028 -0.51 10.41 -99999.99
1/6/2022 5:00:00 AM 3.57 38.426 0.028 -0.07 10.41 -99999.99
1/6/2022 5:15:00 AM 3.53 38.354 0.028 -0.29 10.42 -99999.99
1/6/2022 5:30:00 AM -99999.99 -179968 -99999.99 -99999.99 -99999.99 -99999.99
1/6/2022 5:45:00 AM -99999.99 -179968 -99999.99 -99999.99 -99999.99 -99999.99
1/6/2022 6:00:00 AM -99999.99 -179968 -99999.99 -99999.99 -99999.99 -99999.99
1/6/2022 6:15:00 AM -99999.99 -179968 -99999.99 -99999.99 -99999.99 -99999.99
1/6/2022 6:30:00 AM -99999.99 -179968 -99999.99 -99999.99 -99999.99 -99999.99
1/6/2022 6:45:00 AM -99999.99 -179968 -99999.99 -99999.99 -99999.99 -99999.99
1/6/2022 7:00:00 AM -99999.99 -179968 -99999.99 -99999.99 -99999.99 -99999.99
1/6/2022 7:15:00 AM -99999.99 -179968 -99999.99 -99999.99 -99999.99 -99999.99
1/6/2022 7:30:00 AM -99999.99 -179968 -99999.99 -99999.99 -99999.99 -99999.99
1/6/2022 7:45:00 AM -99999.99 -179968 -99999.99 -99999.99 -99999.99 -99999.99
1/6/2022 8:00:00 AM -99999.99 -179968 -99999.99 -99999.99 -99999.99 -99999.99
1/6/2022 8:15:00 AM -99999.99 -179968 -99999.99 -99999.99 -99999.99 -99999.99
1/6/2022 8:30:00 AM -99999.99 -179968 -99999.99 -99999.99 -99999.99 -99999.99
1/6/2022 8:45:00 AM -99999.99 -179968 -99999.99 -99999.99 -99999.99 -99999.99
1/6/2022 9:00:00 AM -99999.99 -179968 -99999.99 -99999.99 -99999.99 -99999.99
1/6/2022 9:15:00 AM -99999.99 -179968 -99999.99 -99999.99 -99999.99 -99999.99
1/6/2022 9:30:00 AM -99999.99 -179968 -99999.99 -99999.99 -99999.99 -99999.99
1/6/2022 9:45:00 AM -99999.99 -179968 -99999.99 -99999.99 -99999.99 -99999.99
1/6/2022 10:00:00 AM -99999.99 -179968 -99999.99 -99999.99 -99999.99 -99999.99
1/6/2022 10:15:00 AM -99999.99 -179968 -99999.99 -99999.99 -99999.99 -99999.99
1/6/2022 10:30:00 AM -99999.99 -179968 -99999.99 -99999.99 -99999.99 -99999.99
1/6/2022 10:45:00 AM -99999.99 -179968 -99999.99 -99999.99 -99999.99 -99999.99
1/6/2022 11:00:00 AM 3.01 37.418 0.028 -4.34 10.45 -99999.99
1/6/2022 11:15:00 AM 3.05 37.49 0.028 -3.38 10.44 -99999.99
1/6/2022 11:30:00 AM 3.07 37.526 0.028 -2.68 10.44 -99999.99
1/6/2022 11:45:00 AM 3.09 37.562 0.028 -2.94 10.44 -99999.99
1/6/2022 12:00:00 PM 3.13 37.634 0.028 -3.02 10.43 -99999.99
1/6/2022 12:15:00 PM 3.16 37.688 0.028 -3 10.43 -99999.99
1/6/2022 12:30:00 PM 3.17 37.706 0.028 -2.97 10.43 -99999.99
1/6/2022 12:45:00 PM 3.16 37.688 0.028 -2.91 10.42 -99999.99
1/6/2022 1:00:00 PM 3.15 37.67 0.028 -2.69 10.42 -99999.99
1/6/2022 1:15:00 PM 3.15 37.67 0.028 -2.75 10.41 -99999.99
1/6/2022 1:30:00 PM 3.17 37.706 0.028 -2.65 10.42 -99999.99
1/6/2022 1:45:00 PM 3.19 37.742 0.028 -2.87 10.42 -99999.99
1/6/2022 2:00:00 PM 3.2 37.76 0.028 -2.74 10.41 -99999.99
1/6/2022 2:15:00 PM 3.24 37.832 0.028 -2.88 10.41 -99999.99
1/6/2022 2:30:00 PM 3.27 37.886 0.028 -3.06 10.41 -99999.99
1/6/2022 2:45:00 PM 3.28 37.904 0.028 -3.02 10.41 -99999.99
1/6/2022 3:00:00 PM 3.26 37.868 0.028 -2.94 10.42 -99999.99
1/6/2022 3:15:00 PM 3.24 37.832 0.028 -2.66 10.42 -99999.99
1/6/2022 3:30:00 PM 3.23 37.814 0.028 -2.41 10.42 -99999.99
1/6/2022 3:45:00 PM 3.22 37.796 0.028 -2.16 10.42 -99999.99
1/6/2022 4:00:00 PM 3.2 37.76 0.028 -1.82 10.42 -99999.99
1/6/2022 4:15:00 PM 3.18 37.724 0.028 -1.41 10.42 -99999.99
1/6/2022 4:30:00 PM 3.16 37.688 0.028 -1.07 10.42 -99999.99
1/6/2022 4:45:00 PM 3.14 37.652 0.028 -0.83 10.41 -99999.99
1/6/2022 5:00:00 PM 3.13 37.634 0.028 -0.58 10.41 -99999.99
1/6/2022 5:15:00 PM 3.11 37.598 0.028 -0.3 10.41 -99999.99
1/6/2022 5:30:00 PM 3.11 37.598 0.028 -0.18 10.41 -99999.99
1/6/2022 5:45:00 PM 3.1 37.58 0.028 -0.18 10.41 -99999.99
1/6/2022 6:00:00 PM 3.09 37.562 0.028 -0.12 10.41 -99999.99
1/6/2022 6:15:00 PM 3.08 37.544 0.028 -0.04 10.41 -99999.99
1/6/2022 6:30:00 PM 3.07 37.526 0.028 0.1 10.41 -99999.99
1/6/2022 6:45:00 PM 3.06 37.508 0.028 0.02 10.41 -99999.99
1/6/2022 7:00:00 PM 3.05 37.49 0.028 0.05 10.41 -99999.99
1/6/2022 7:15:00 PM 3.04 37.472 0.028 0.07 10.41 -99999.99
1/6/2022 7:30:00 PM 3.03 37.454 0.028 -0.05 10.41 -99999.99
1/6/2022 7:45:00 PM 2.99 37.382 0.028 -0.15 10.41 -99999.99
1/6/2022 8:00:00 PM 2.95 37.31 0.028 -0.08 10.41 -99999.99
1/6/2022 8:15:00 PM 2.93 37.274 0.028 -0.14 10.41 -99999.99
1/6/2022 8:30:00 PM 2.9 37.22 0.028 -0.11 10.41 -99999.99
1/6/2022 8:45:00 PM 2.85 37.13 0.028 -0.19 10.41 -99999.99
1/6/2022 9:00:00 PM 2.81 37.058 0.028 -0.13 10.41 -99999.99
1/6/2022 9:15:00 PM 2.78 37.004 0.028 -0.09 10.41 -99999.99
1/6/2022 9:30:00 PM 2.75 36.95 0.028 0.05 10.41 -99999.99
1/6/2022 9:45:00 PM 2.72 36.896 0.028 0.05 10.4 -99999.99
1/6/2022 10:00:00 PM 2.69 36.842 0.028 0.04 10.41 -99999.99
1/6/2022 10:15:00 PM 2.67 36.806 0.028 0.02 10.4 -99999.99
1/6/2022 10:30:00 PM 2.66 36.788 0.028 0.07 10.4 -99999.99
1/6/2022 10:45:00 PM 2.65 36.77 0.028 0.02 10.39 -99999.99
1/6/2022 11:00:00 PM 2.64 36.752 0.028 0.02 10.39 -99999.99
1/6/2022 11:15:00 PM 2.62 36.716 0.028 0.03 10.39 -99999.99
1/6/2022 11:30:00 PM 2.61 36.698 0.028 0.06 10.39 -99999.99
1/6/2022 11:45:00 PM 2.6 36.68 0.028 0.06 10.38 -99999.99
1/7/2022 12:00:00 AM 2.59 36.662 0.028 -0.02 10.38 -99999.99
1/7/2022 12:15:00 AM 2.59 36.662 0.028 -0.02 10.38 -99999.99
1/7/2022 12:30:00 AM 2.58 36.644 0.028 0.14 10.38 -99999.99
1/7/2022 12:45:00 AM 2.57 36.626 0.028 0.01 10.38 -99999.99
1/7/2022 1:00:00 AM 2.57 36.626 0.028 -0.04 10.38 -99999.99
1/7/2022 1:15:00 AM 2.56 36.608 0.028 -0.02 10.38 -99999.99
1/7/2022 1:30:00 AM 2.56 36.608 0.028 0.04 10.38 -99999.99
1/7/2022 1:45:00 AM 2.55 36.59 0.028 -0.05 10.38 -99999.99
1/7/2022 2:00:00 AM 2.54 36.572 0.028 0.06 10.38 -99999.99
1/7/2022 2:15:00 AM 2.54 36.572 0.028 -0.02 10.38 -99999.99
1/7/2022 2:30:00 AM 2.54 36.572 0.028 0.01 10.39 -99999.99
1/7/2022 2:45:00 AM 2.53 36.554 0.028 -0.04 10.39 -99999.99
1/7/2022 3:00:00 AM -99999.99 -179968 -99999.99 -99999.99 -99999.99 -99999.99
1/7/2022 3:15:00 AM -99999.99 -179968 -99999.99 -99999.99 -99999.99 -99999.99
1/7/2022 3:30:00 AM -99999.99 -179968 -99999.99 -99999.99 -99999.99 -99999.99
1/7/2022 3:45:00 AM -99999.99 -179968 -99999.99 -99999.99 -99999.99 -99999.99
1/7/2022 4:00:00 AM -99999.99 -179968 -99999.99 -99999.99 -99999.99 -99999.99
1/7/2022 4:15:00 AM -99999.99 -179968 -99999.99 -99999.99 -99999.99 -99999.99
1/7/2022 4:30:00 AM -99999.99 -179968 -99999.99 -99999.99 -99999.99 -99999.99
1/7/2022 4:45:00 AM -99999.99 -179968 -99999.99 -99999.99 -99999.99 -99999.99
1/7/2022 5:00:00 AM -99999.99 -179968 -99999.99 -99999.99 -99999.99 -99999.99
1/7/2022 5:15:00 AM -99999.99 -179968 -99999.99 -99999.99 -99999.99 -99999.99
1/7/2022 5:30:00 AM -99999.99 -179968 -99999.99 -99999.99 -99999.99 -99999.99
1/7/2022 5:45:00 AM -99999.99 -179968 -99999.99 -99999.99 -99999.99 -99999.99
1/7/2022 6:00:00 AM -99999.99 -179968 -99999.99 -99999.99 -99999.99 -99999.99
1/7/2022 6:15:00 AM -99999.99 -179968 -99999.99 -99999.99 -99999.99 -99999.99
1/7/2022 6:30:00 AM -99999.99 -179968 -99999.99 -99999.99 -99999.99 -99999.99
1/7/2022 6:45:00 AM -99999.99 -179968 -99999.99 -99999.99 -99999.99 -99999.99
1/7/2022 7:00:00 AM -99999.99 -179968 -99999.99 -99999.99 -99999.99 -99999.99
1/7/2022 7:15:00 AM -99999.99 -179968 -99999.99 -99999.99 -99999.99 -99999.99
1/7/2022 7:30:00 AM -99999.99 -179968 -99999.99 -99999.99 -99999.99 -99999.99
1/7/2022 7:45:00 AM -99999.99 -179968 -99999.99 -99999.99 -99999.99 -99999.99
1/7/2022 8:00:00 AM -99999.99 -179968 -99999.99 -99999.99 -99999.99 -99999.99
1/7/2022 8:15:00 AM -99999.99 -179968 -99999.99 -99999.99 -99999.99 -99999.99
1/7/2022 8:30:00 AM -99999.99 -179968 -99999.99 -99999.99 -99999.99 -99999.99
1/7/2022 8:45:00 AM -99999.99 -179968 -99999.99 -99999.99 -99999.99 -99999.99
1/7/2022 9:00:00 AM -99999.99 -179968 -99999.99 -99999.99 -99999.99 -99999.99
1/7/2022 9:15:00 AM -99999.99 -179968 -99999.99 -99999.99 -99999.99 -99999.99
1/7/2022 9:30:00 AM -99999.99 -179968 -99999.99 -99999.99 -99999.99 -99999.99
1/7/2022 9:45:00 AM -99999.99 -179968 -99999.99 -99999.99 -99999.99 -99999.99
1/7/2022 10:00:00 AM -99999.99 -179968 -99999.99 -99999.99 -99999.99 -99999.99
1/7/2022 10:15:00 AM -99999.99 -179968 -99999.99 -99999.99 -99999.99 -99999.99
1/7/2022 10:30:00 AM -99999.99 -179968 -99999.99 -99999.99 -99999.99 -99999.99
1/7/2022 10:45:00 AM -99999.99 -179968 -99999.99 -99999.99 -99999.99 -99999.99
1/7/2022 11:00:00 AM -99999.99 -179968 -99999.99 -99999.99 -99999.99 -99999.99
1/7/2022 11:15:00 AM -99999.99 -179968 -99999.99 -99999.99 -99999.99 -99999.99
1/7/2022 11:30:00 AM -99999.99 -179968 -99999.99 -99999.99 -99999.99 -99999.99
1/7/2022 11:45:00 AM -99999.99 -179968 -99999.99 -99999.99 -99999.99 -99999.99
1/7/2022 12:00:00 PM -99999.99 -179968 -99999.99 -99999.99 -99999.99 -99999.99
1/7/2022 12:15:00 PM -99999.99 -179968 -99999.99 -99999.99 -99999.99 -99999.99
1/7/2022 12:30:00 PM -99999.99 -179968 -99999.99 -99999.99 -99999.99 -99999.99
1/7/2022 12:45:00 PM -99999.99 -179968 -99999.99 -99999.99 -99999.99 -99999.99
1/7/2022 1:00:00 PM -99999.99 -179968 -99999.99 -99999.99 -99999.99 -99999.99
1/7/2022 1:15:00 PM -99999.99 -179968 -99999.99 -99999.99 -99999.99 -99999.99
1/7/2022 1:30:00 PM -99999.99 -179968 -99999.99 -99999.99 -99999.99 -99999.99
1/7/2022 1:45:00 PM -99999.99 -179968 -99999.99 -99999.99 -99999.99 -99999.99
1/7/2022 2:00:00 PM -99999.99 -179968 -99999.99 -99999.99 -99999.99 -99999.99
1/7/2022 2:15:00 PM -99999.99 -179968 -99999.99 -99999.99 -99999.99 -99999.99
1/7/2022 2:30:00 PM -99999.99 -179968 -99999.99 -99999.99 -99999.99 -99999.99
1/7/2022 2:45:00 PM -99999.99 -179968 -99999.99 -99999.99 -99999.99 -99999.99
1/7/2022 3:00:00 PM -99999.99 -179968 -99999.99 -99999.99 -99999.99 -99999.99
1/7/2022 3:15:00 PM -99999.99 -179968 -99999.99 -99999.99 -99999.99 -99999.99
1/7/2022 3:30:00 PM -99999.99 -179968 -99999.99 -99999.99 -99999.99 -99999.99
1/7/2022 3:45:00 PM -99999.99 -179968 -99999.99 -99999.99 -99999.99 -99999.99
1/7/2022 4:00:00 PM -99999.99 -179968 -99999.99 -99999.99 -99999.99 -99999.99
1/7/2022 4:15:00 PM -99999.99 -179968 -99999.99 -99999.99 -99999.99 -99999.99
1/7/2022 4:30:00 PM -99999.99 -179968 -99999.99 -99999.99 -99999.99 -99999.99
1/7/2022 4:45:00 PM -99999.99 -179968 -99999.99 -99999.99 -99999.99 -99999.99
1/7/2022 5:00:00 PM -99999.99 -179968 -99999.99 -99999.99 -99999.99 -99999.99
1/7/2022 5:15:00 PM -99999.99 -179968 -99999.99 -99999.99 -99999.99 -99999.99
1/7/2022 5:30:00 PM -99999.99 -179968 -99999.99 -99999.99 -99999.99 -99999.99
1/7/2022 5:45:00 PM -99999.99 -179968 -99999.99 -99999.99 -99999.99 -99999.99
1/7/2022 6:00:00 PM -99999.99 -179968 -99999.99 -99999.99 -99999.99 -99999.99
1/7/2022 6:15:00 PM -99999.99 -179968 -99999.99 -99999.99 -99999.99 -99999.99
1/7/2022 6:30:00 PM -99999.99 -179968 -99999.99 -99999.99 -99999.99 -99999.99
1/7/2022 6:45:00 PM -99999.99 -179968 -99999.99 -99999.99 -99999.99 -99999.99
1/7/2022 7:00:00 PM -99999.99 -179968 -99999.99 -99999.99 -99999.99 -99999.99
1/7/2022 7:15:00 PM -99999.99 -179968 -99999.99 -99999.99 -99999.99 -99999.99
1/7/2022 7:30:00 PM -99999.99 -179968 -99999.99 -99999.99 -99999.99 -99999.99
1/7/2022 7:45:00 PM -99999.99 -179968 -99999.99 -99999.99 -99999.99 -99999.99
1/7/2022 8:00:00 PM -99999.99 -179968 -99999.99 -99999.99 -99999.99 -99999.99
1/7/2022 8:15:00 PM -99999.99 -179968 -99999.99 -99999.99 -99999.99 -99999.99
1/7/2022 8:30:00 PM -99999.99 -179968 -99999.99 -99999.99 -99999.99 -99999.99
1/7/2022 8:45:00 PM -99999.99 -179968 -99999.99 -99999.99 -99999.99 -99999.99
1/7/2022 9:00:00 PM -99999.99 -179968 -99999.99 -99999.99 -99999.99 -99999.99
1/7/2022 9:15:00 PM -99999.99 -179968 -99999.99 -99999.99 -99999.99 -99999.99
1/7/2022 9:30:00 PM -99999.99 -179968 -99999.99 -99999.99 -99999.99 -99999.99
1/7/2022 9:45:00 PM -99999.99 -179968 -99999.99 -99999.99 -99999.99 -99999.99
1/7/2022 10:00:00 PM -99999.99 -179968 -99999.99 -99999.99 -99999.99 -99999.99
1/7/2022 10:15:00 PM -99999.99 -179968 -99999.99 -99999.99 -99999.99 -99999.99
1/7/2022 10:30:00 PM -99999.99 -179968 -99999.99 -99999.99 -99999.99 -99999.99
1/7/2022 10:45:00 PM -99999.99 -179968 -99999.99 -99999.99 -99999.99 -99999.99
1/7/2022 11:00:00 PM -99999.99 -179968 -99999.99 -99999.99 -99999.99 -99999.99
1/7/2022 11:15:00 PM -99999.99 -179968 -99999.99 -99999.99 -99999.99 -99999.99
1/7/2022 11:30:00 PM -99999.99 -179968 -99999.99 -99999.99 -99999.99 -99999.99
1/7/2022 11:45:00 PM -99999.99 -179968 -99999.99 -99999.99 -99999.99 -99999.99
1/8/2022 12:00:00 AM -99999.99 -179968 -99999.99 -99999.99 -99999.99 -99999.99
1/8/2022 12:15:00 AM -99999.99 -179968 -99999.99 -99999.99 -99999.99 -99999.99
1/8/2022 12:30:00 AM -99999.99 -179968 -99999.99 -99999.99 -99999.99 -99999.99
1/8/2022 12:45:00 AM -99999.99 -179968 -99999.99 -99999.99 -99999.99 -99999.99
1/8/2022 1:00:00 AM -99999.99 -179968 -99999.99 -99999.99 -99999.99 -99999.99
1/8/2022 1:15:00 AM -99999.99 -179968 -99999.99 -99999.99 -99999.99 -99999.99
1/8/2022 1:30:00 AM -99999.99 -179968 -99999.99 -99999.99 -99999.99 -99999.99
1/8/2022 1:45:00 AM -99999.99 -179968 -99999.99 -99999.99 -99999.99 -99999.99
1/8/2022 2:00:00 AM -99999.99 -179968 -99999.99 -99999.99 -99999.99 -99999.99
1/8/2022 2:15:00 AM -99999.99 -179968 -99999.99 -99999.99 -99999.99 -99999.99
1/8/2022 2:30:00 AM -99999.99 -179968 -99999.99 -99999.99 -99999.99 -99999.99
1/8/2022 2:45:00 AM -99999.99 -179968 -99999.99 -99999.99 -99999.99 -99999.99
1/8/2022 3:00:00 AM -99999.99 -179968 -99999.99 -99999.99 -99999.99 -99999.99
1/8/2022 3:15:00 AM -99999.99 -179968 -99999.99 -99999.99 -99999.99 -99999.99
1/8/2022 3:30:00 AM -99999.99 -179968 -99999.99 -99999.99 -99999.99 -99999.99
1/8/2022 3:45:00 AM -99999.99 -179968 -99999.99 -99999.99 -99999.99 -99999.99
1/8/2022 4:00:00 AM -99999.99 -179968 -99999.99 -99999.99 -99999.99 -99999.99
1/8/2022 4:15:00 AM -99999.99 -179968 -99999.99 -99999.99 -99999.99 -99999.99
1/8/2022 4:30:00 AM -99999.99 -179968 -99999.99 -99999.99 -99999.99 -99999.99
1/8/2022 4:45:00 AM -99999.99 -179968 -99999.99 -99999.99 -99999.99 -99999.99
1/8/2022 5:00:00 AM -99999.99 -179968 -99999.99 -99999.99 -99999.99 -99999.99
1/8/2022 5:15:00 AM -99999.99 -179968 -99999.99 -99999.99 -99999.99 -99999.99
1/8/2022 5:30:00 AM -99999.99 -179968 -99999.99 -99999.99 -99999.99 -99999.99
1/8/2022 5:45:00 AM -99999.99 -179968 -99999.99 -99999.99 -99999.99 -99999.99
1/8/2022 6:00:00 AM -99999.99 -179968 -99999.99 -99999.99 -99999.99 -99999.99
1/8/2022 6:15:00 AM -99999.99 -179968 -99999.99 -99999.99 -99999.99 -99999.99
1/8/2022 6:30:00 AM -99999.99 -179968 -99999.99 -99999.99 -99999.99 -99999.99
1/8/2022 6:45:00 AM -99999.99 -179968 -99999.99 -99999.99 -99999.99 -99999.99
1/8/2022 7:00:00 AM -99999.99 -179968 -99999.99 -99999.99 -99999.99 -99999.99
1/8/2022 7:15:00 AM -99999.99 -179968 -99999.99 -99999.99 -99999.99 -99999.99
1/8/2022 7:30:00 AM -99999.99 -179968 -99999.99 -99999.99 -99999.99 -99999.99
1/8/2022 7:45:00 AM -99999.99 -179968 -99999.99 -99999.99 -99999.99 -99999.99
1/8/2022 8:00:00 AM -99999.99 -179968 -99999.99 -99999.99 -99999.99 -99999.99
1/8/2022 8:15:00 AM -99999.99 -179968 -99999.99 -99999.99 -99999.99 -99999.99
1/8/2022 8:30:00 AM -99999.99 -179968 -99999.99 -99999.99 -99999.99 -99999.99
1/8/2022 8:45:00 AM -99999.99 -179968 -99999.99 -99999.99 -99999.99 -99999.99
1/8/2022 9:00:00 AM -99999.99 -179968 -99999.99 -99999.99 -99999.99 -99999.99
1/8/2022 9:15:00 AM -99999.99 -179968 -99999.99 -99999.99 -99999.99 -99999.99
1/8/2022 9:30:00 AM -99999.99 -179968 -99999.99 -99999.99 -99999.99 -99999.99
1/8/2022 9:45:00 AM -99999.99 -179968 -99999.99 -99999.99 -99999.99 -99999.99
1/8/2022 10:00:00 AM -99999.99 -179968 -99999.99 -99999.99 -99999.99 -99999.99
1/8/2022 10:15:00 AM -99999.99 -179968 -99999.99 -99999.99 -99999.99 -99999.99
1/8/2022 10:30:00 AM -99999.99 -179968 -99999.99 -99999.99 -99999.99 -99999.99
1/8/2022 10:45:00 AM 0.49 32.882 0.029 -5.47 10.57 -99999.99
1/8/2022 11:00:00 AM 0.54 32.972 0.029 -2.17 10.57 -99999.99
1/8/2022 11:15:00 AM 0.61 33.098 0.029 -1.8 10.57 -99999.99
1/8/2022 11:30:00 AM 0.67 33.206 0.029 -1.56 10.57 -99999.99
1/8/2022 11:45:00 AM 0.73 33.314 0.029 -1.81 10.57 -99999.99
1/8/2022 12:00:00 PM 0.8 33.44 0.029 -2.05 10.56 -99999.99
1/8/2022 12:15:00 PM 0.87 33.566 0.029 -2.22 10.56 -99999.99
1/8/2022 12:30:00 PM 0.94 33.692 0.029 -2.22 10.56 -99999.99
1/8/2022 12:45:00 PM 1.02 33.836 0.029 -2.32 10.55 -99999.99
1/8/2022 1:00:00 PM 1.08 33.944 0.029 -2.51 10.55 -99999.99
1/8/2022 1:15:00 PM 1.14 34.052 0.029 -2.52 10.56 -99999.99
1/8/2022 1:30:00 PM 1.2 34.16 0.029 -2.55 10.55 -99999.99
1/8/2022 1:45:00 PM 1.27 34.286 0.029 -2.42 10.55 -99999.99
1/8/2022 2:00:00 PM 1.34 34.412 0.028 -2.47 10.55 -99999.99
1/8/2022 2:15:00 PM 1.4 34.52 0.028 -2.22 10.55 -99999.99
1/8/2022 2:30:00 PM 1.45 34.61 0.028 -2.28 10.54 -99999.99
1/8/2022 2:45:00 PM 1.48 34.664 0.028 -2.2 10.54 -99999.99
1/8/2022 3:00:00 PM 1.49 34.682 0.028 -2.14 10.54 -99999.99
1/8/2022 3:15:00 PM 1.48 34.664 0.028 -1.89 10.53 -99999.99
1/8/2022 3:30:00 PM 1.45 34.61 0.028 -1.61 10.53 -99999.99
1/8/2022 3:45:00 PM 1.43 34.574 0.028 -1.61 10.53 -99999.99
1/8/2022 4:00:00 PM 1.41 34.538 0.028 -1.28 10.53 -99999.99
1/8/2022 4:15:00 PM 1.39 34.502 0.028 -1.25 10.53 -99999.99
1/8/2022 4:30:00 PM 1.36 34.448 0.029 -1.16 10.53 -99999.99
1/8/2022 4:45:00 PM 1.33 34.394 0.029 -1.05 10.53 -99999.99
1/8/2022 5:00:00 PM 1.32 34.376 0.029 -0.66 10.53 -99999.99
1/8/2022 5:15:00 PM 1.3 34.34 0.029 -0.52 10.53 -99999.99
1/8/2022 5:30:00 PM 1.29 34.322 0.029 -0.36 10.52 -99999.99
1/8/2022 5:45:00 PM 1.27 34.286 0.029 -0.18 10.52 -99999.99
1/8/2022 6:00:00 PM 1.26 34.268 0.029 -0.06 10.51 -99999.99
1/8/2022 6:15:00 PM 1.24 34.232 0.029 -0.03 10.51 -99999.99
1/8/2022 6:30:00 PM 1.23 34.214 0.029 0.06 10.51 -99999.99
1/8/2022 6:45:00 PM 1.22 34.196 0.029 0.01 10.52 -99999.99
1/8/2022 7:00:00 PM 1.21 34.178 0.029 0.15 10.51 -99999.99
1/8/2022 7:15:00 PM 1.21 34.178 0.029 0.12 10.51 -99999.99
1/8/2022 7:30:00 PM 1.22 34.196 0.029 -0.02 10.51 -99999.99
1/8/2022 7:45:00 PM 1.21 34.178 0.029 0.24 10.51 -99999.99
1/8/2022 8:00:00 PM 1.21 34.178 0.029 0.64 10.51 -99999.99
1/8/2022 8:15:00 PM 1.21 34.178 0.029 0.64 10.51 -99999.99
1/8/2022 8:30:00 PM 1.21 34.178 0.029 0.32 10.5 -99999.99
1/8/2022 8:45:00 PM 1.21 34.178 0.029 0.67 10.5 -99999.99
1/8/2022 9:00:00 PM 1.22 34.196 0.029 0.59 10.5 -99999.99
1/8/2022 9:15:00 PM 1.23 34.214 0.029 1 10.5 -99999.99
1/8/2022 9:30:00 PM 1.23 34.214 0.029 0.31 10.5 -99999.99
1/8/2022 9:45:00 PM 1.25 34.25 0.029 0.5 10.5 -99999.99
1/8/2022 10:00:00 PM 1.27 34.286 0.029 0.62 10.5 -99999.99
1/8/2022 10:15:00 PM 1.29 34.322 0.029 0.58 10.5 -99999.99
1/8/2022 10:30:00 PM 1.31 34.358 0.029 0.65 10.5 -99999.99
1/8/2022 10:45:00 PM 1.32 34.376 0.029 0.81 10.49 -99999.99
1/8/2022 11:00:00 PM 1.34 34.412 0.029 1.77 10.49 -99999.99
1/8/2022 11:15:00 PM 1.37 34.466 0.029 0.69 10.49 -99999.99
1/8/2022 11:30:00 PM 1.39 34.502 0.029 1.04 10.48 -99999.99
1/8/2022 11:45:00 PM 1.42 34.556 0.029 0.55 10.49 -99999.99
1/9/2022 12:00:00 AM 1.44 34.592 0.029 0.63 10.48 -99999.99
1/9/2022 12:15:00 AM 1.46 34.628 0.029 0.6 10.49 -99999.99
1/9/2022 12:30:00 AM 1.48 34.664 0.029 0.49 10.48 -99999.99
1/9/2022 12:45:00 AM 1.51 34.718 0.029 0.55 10.48 -99999.99
1/9/2022 1:00:00 AM -99999.99 -179968 -99999.99 -99999.99 -99999.99 -99999.99
1/9/2022 1:15:00 AM -99999.99 -179968 -99999.99 -99999.99 -99999.99 -99999.99
1/9/2022 1:30:00 AM -99999.99 -179968 -99999.99 -99999.99 -99999.99 -99999.99
1/9/2022 1:45:00 AM -99999.99 -179968 -99999.99 -99999.99 -99999.99 -99999.99
1/9/2022 2:00:00 AM -99999.99 -179968 -99999.99 -99999.99 -99999.99 -99999.99
1/9/2022 2:15:00 AM -99999.99 -179968 -99999.99 -99999.99 -99999.99 -99999.99
1/9/2022 2:30:00 AM -99999.99 -179968 -99999.99 -99999.99 -99999.99 -99999.99
1/9/2022 2:45:00 AM -99999.99 -179968 -99999.99 -99999.99 -99999.99 -99999.99
1/9/2022 3:00:00 AM -99999.99 -179968 -99999.99 -99999.99 -99999.99 -99999.99
1/9/2022 3:15:00 AM -99999.99 -179968 -99999.99 -99999.99 -99999.99 -99999.99
1/9/2022 3:30:00 AM -99999.99 -179968 -99999.99 -99999.99 -99999.99 -99999.99
1/9/2022 3:45:00 AM -99999.99 -179968 -99999.99 -99999.99 -99999.99 -99999.99
1/9/2022 4:00:00 AM -99999.99 -179968 -99999.99 -99999.99 -99999.99 -99999.99
1/9/2022 4:15:00 AM -99999.99 -179968 -99999.99 -99999.99 -99999.99 -99999.99
1/9/2022 4:30:00 AM -99999.99 -179968 -99999.99 -99999.99 -99999.99 -99999.99
1/9/2022 4:45:00 AM -99999.99 -179968 -99999.99 -99999.99 -99999.99 -99999.99
1/9/2022 5:00:00 AM -99999.99 -179968 -99999.99 -99999.99 -99999.99 -99999.99
1/9/2022 5:15:00 AM -99999.99 -179968 -99999.99 -99999.99 -99999.99 -99999.99
1/9/2022 5:30:00 AM -99999.99 -179968 -99999.99 -99999.99 -99999.99 -99999.99
1/9/2022 5:45:00 AM -99999.99 -179968 -99999.99 -99999.99 -99999.99 -99999.99
1/9/2022 6:00:00 AM -99999.99 -179968 -99999.99 -99999.99 -99999.99 -99999.99
1/9/2022 6:15:00 AM -99999.99 -179968 -99999.99 -99999.99 -99999.99 -99999.99
1/9/2022 6:30:00 AM -99999.99 -179968 -99999.99 -99999.99 -99999.99 -99999.99
1/9/2022 6:45:00 AM -99999.99 -179968 -99999.99 -99999.99 -99999.99 -99999.99
1/9/2022 7:00:00 AM -99999.99 -179968 -99999.99 -99999.99 -99999.99 -99999.99
1/9/2022 7:15:00 AM -99999.99 -179968 -99999.99 -99999.99 -99999.99 -99999.99
1/9/2022 7:30:00 AM -99999.99 -179968 -99999.99 -99999.99 -99999.99 -99999.99
1/9/2022 7:45:00 AM -99999.99 -179968 -99999.99 -99999.99 -99999.99 -99999.99
1/9/2022 8:00:00 AM -99999.99 -179968 -99999.99 -99999.99 -99999.99 -99999.99
1/9/2022 8:15:00 AM -99999.99 -179968 -99999.99 -99999.99 -99999.99 -99999.99
1/9/2022 8:30:00 AM -99999.99 -179968 -99999.99 -99999.99 -99999.99 -99999.99
1/9/2022 8:45:00 AM -99999.99 -179968 -99999.99 -99999.99 -99999.99 -99999.99
1/9/2022 9:00:00 AM -99999.99 -179968 -99999.99 -99999.99 -99999.99 -99999.99
1/9/2022 9:15:00 AM -99999.99 -179968 -99999.99 -99999.99 -99999.99 -99999.99
1/9/2022 9:30:00 AM -99999.99 -179968 -99999.99 -99999.99 -99999.99 -99999.99
1/9/2022 9:45:00 AM -99999.99 -179968 -99999.99 -99999.99 -99999.99 -99999.99
1/9/2022 10:00:00 AM -99999.99 -179968 -99999.99 -99999.99 -99999.99 -99999.99
1/9/2022 10:15:00 AM -99999.99 -179968 -99999.99 -99999.99 -99999.99 -99999.99
1/9/2022 10:30:00 AM -99999.99 -179968 -99999.99 -99999.99 -99999.99 -99999.99
1/9/2022 10:45:00 AM -99999.99 -179968 -99999.99 -99999.99 -99999.99 -99999.99
1/9/2022 11:00:00 AM -99999.99 -179968 -99999.99 -99999.99 -99999.99 -99999.99
1/9/2022 11:15:00 AM -99999.99 -179968 -99999.99 -99999.99 -99999.99 -99999.99
1/9/2022 11:30:00 AM -99999.99 -179968 -99999.99 -99999.99 -99999.99 -99999.99
1/9/2022 11:45:00 AM -99999.99 -179968 -99999.99 -99999.99 -99999.99 -99999.99
1/9/2022 12:00:00 PM -99999.99 -179968 -99999.99 -99999.99 -99999.99 -99999.99
1/9/2022 12:15:00 PM -99999.99 -179968 -99999.99 -99999.99 -99999.99 -99999.99
1/9/2022 12:30:00 PM -99999.99 -179968 -99999.99 -99999.99 -99999.99 -99999.99
1/9/2022 12:45:00 PM -99999.99 -179968 -99999.99 -99999.99 -99999.99 -99999.99
1/9/2022 1:00:00 PM -99999.99 -179968 -99999.99 -99999.99 -99999.99 -99999.99
1/9/2022 1:15:00 PM -99999.99 -179968 -99999.99 -99999.99 -99999.99 -99999.99
1/9/2022 1:30:00 PM -99999.99 -179968 -99999.99 -99999.99 -99999.99 -99999.99
1/9/2022 1:45:00 PM -99999.99 -179968 -99999.99 -99999.99 -99999.99 -99999.99
1/9/2022 2:00:00 PM -99999.99 -179968 -99999.99 -99999.99 -99999.99 -99999.99
1/9/2022 2:15:00 PM -99999.99 -179968 -99999.99 -99999.99 -99999.99 -99999.99
1/9/2022 2:30:00 PM -99999.99 -179968 -99999.99 -99999.99 -99999.99 -99999.99
1/9/2022 2:45:00 PM -99999.99 -179968 -99999.99 -99999.99 -99999.99 -99999.99
1/9/2022 3:00:00 PM -99999.99 -179968 -99999.99 -99999.99 -99999.99 -99999.99
1/9/2022 3:15:00 PM -99999.99 -179968 -99999.99 -99999.99 -99999.99 -99999.99
1/9/2022 3:30:00 PM -99999.99 -179968 -99999.99 -99999.99 -99999.99 -99999.99
1/9/2022 3:45:00 PM -99999.99 -179968 -99999.99 -99999.99 -99999.99 -99999.99
1/9/2022 4:00:00 PM -99999.99 -179968 -99999.99 -99999.99 -99999.99 -99999.99
1/9/2022 4:15:00 PM -99999.99 -179968 -99999.99 -99999.99 -99999.99 -99999.99
1/9/2022 4:30:00 PM -99999.99 -179968 -99999.99 -99999.99 -99999.99 -99999.99
1/9/2022 4:45:00 PM -99999.99 -179968 -99999.99 -99999.99 -99999.99 -99999.99
1/9/2022 5:00:00 PM -99999.99 -179968 -99999.99 -99999.99 -99999.99 -99999.99
1/9/2022 5:15:00 PM -99999.99 -179968 -99999.99 -99999.99 -99999.99 -99999.99
1/9/2022 5:30:00 PM -99999.99 -179968 -99999.99 -99999.99 -99999.99 -99999.99
1/9/2022 5:45:00 PM -99999.99 -179968 -99999.99 -99999.99 -99999.99 -99999.99
1/9/2022 6:00:00 PM -99999.99 -179968 -99999.99 -99999.99 -99999.99 -99999.99
1/9/2022 6:15:00 PM -99999.99 -179968 -99999.99 -99999.99 -99999.99 -99999.99
1/9/2022 6:30:00 PM -99999.99 -179968 -99999.99 -99999.99 -99999.99 -99999.99
1/9/2022 6:45:00 PM -99999.99 -179968 -99999.99 -99999.99 -99999.99 -99999.99
1/9/2022 7:00:00 PM -99999.99 -179968 -99999.99 -99999.99 -99999.99 -99999.99
1/9/2022 7:15:00 PM -99999.99 -179968 -99999.99 -99999.99 -99999.99 -99999.99
1/9/2022 7:30:00 PM -99999.99 -179968 -99999.99 -99999.99 -99999.99 -99999.99
1/9/2022 7:45:00 PM -99999.99 -179968 -99999.99 -99999.99 -99999.99 -99999.99
1/9/2022 8:00:00 PM -99999.99 -179968 -99999.99 -99999.99 -99999.99 -99999.99
1/9/2022 8:15:00 PM -99999.99 -179968 -99999.99 -99999.99 -99999.99 -99999.99
1/9/2022 8:30:00 PM -99999.99 -179968 -99999.99 -99999.99 -99999.99 -99999.99
1/9/2022 8:45:00 PM -99999.99 -179968 -99999.99 -99999.99 -99999.99 -99999.99
1/9/2022 9:00:00 PM -99999.99 -179968 -99999.99 -99999.99 -99999.99 -99999.99
1/9/2022 9:15:00 PM -99999.99 -179968 -99999.99 -99999.99 -99999.99 -99999.99
1/9/2022 9:30:00 PM -99999.99 -179968 -99999.99 -99999.99 -99999.99 -99999.99
1/9/2022 9:45:00 PM -99999.99 -179968 -99999.99 -99999.99 -99999.99 -99999.99
1/9/2022 10:00:00 PM -99999.99 -179968 -99999.99 -99999.99 -99999.99 -99999.99
1/9/2022 10:15:00 PM -99999.99 -179968 -99999.99 -99999.99 -99999.99 -99999.99
1/9/2022 10:30:00 PM -99999.99 -179968 -99999.99 -99999.99 -99999.99 -99999.99
1/9/2022 10:45:00 PM -99999.99 -179968 -99999.99 -99999.99 -99999.99 -99999.99
1/9/2022 11:00:00 PM -99999.99 -179968 -99999.99 -99999.99 -99999.99 -99999.99
1/9/2022 11:15:00 PM -99999.99 -179968 -99999.99 -99999.99 -99999.99 -99999.99
1/9/2022 11:30:00 PM -99999.99 -179968 -99999.99 -99999.99 -99999.99 -99999.99
1/9/2022 11:45:00 PM -99999.99 -179968 -99999.99 -99999.99 -99999.99 -99999.99
1/10/2022 12:00:00 AM -99999.99 -179968 -99999.99 -99999.99 -99999.99 -99999.99
1/10/2022 12:15:00 AM -99999.99 -179968 -99999.99 -99999.99 -99999.99 -99999.99
1/10/2022 12:30:00 AM -99999.99 -179968 -99999.99 -99999.99 -99999.99 -99999.99
1/10/2022 12:45:00 AM -99999.99 -179968 -99999.99 -99999.99 -99999.99 -99999.99
1/10/2022 1:00:00 AM -99999.99 -179968 -99999.99 -99999.99 -99999.99 -99999.99
1/10/2022 1:15:00 AM -99999.99 -179968 -99999.99 -99999.99 -99999.99 -99999.99
1/10/2022 1:30:00 AM -99999.99 -179968 -99999.99 -99999.99 -99999.99 -99999.99
1/10/2022 1:45:00 AM -99999.99 -179968 -99999.99 -99999.99 -99999.99 -99999.99
1/10/2022 2:00:00 AM -99999.99 -179968 -99999.99 -99999.99 -99999.99 -99999.99
1/10/2022 2:15:00 AM -99999.99 -179968 -99999.99 -99999.99 -99999.99 -99999.99
1/10/2022 2:30:00 AM -99999.99 -179968 -99999.99 -99999.99 -99999.99 -99999.99
1/10/2022 2:45:00 AM -99999.99 -179968 -99999.99 -99999.99 -99999.99 -99999.99
1/10/2022 3:00:00 AM -99999.99 -179968 -99999.99 -99999.99 -99999.99 -99999.99
1/10/2022 3:15:00 AM -99999.99 -179968 -99999.99 -99999.99 -99999.99 -99999.99
1/10/2022 3:30:00 AM -99999.99 -179968 -99999.99 -99999.99 -99999.99 -99999.99
1/10/2022 3:45:00 AM -99999.99 -179968 -99999.99 -99999.99 -99999.99 -99999.99
1/10/2022 4:00:00 AM -99999.99 -179968 -99999.99 -99999.99 -99999.99 -99999.99
1/10/2022 4:15:00 AM -99999.99 -179968 -99999.99 -99999.99 -99999.99 -99999.99
1/10/2022 4:30:00 AM -99999.99 -179968 -99999.99 -99999.99 -99999.99 -99999.99
1/10/2022 4:45:00 AM -99999.99 -179968 -99999.99 -99999.99 -99999.99 -99999.99
1/10/2022 5:00:00 AM -99999.99 -179968 -99999.99 -99999.99 -99999.99 -99999.99
1/10/2022 5:15:00 AM -99999.99 -179968 -99999.99 -99999.99 -99999.99 -99999.99
1/10/2022 5:30:00 AM -99999.99 -179968 -99999.99 -99999.99 -99999.99 -99999.99
1/10/2022 5:45:00 AM -99999.99 -179968 -99999.99 -99999.99 -99999.99 -99999.99
1/10/2022 6:00:00 AM -99999.99 -179968 -99999.99 -99999.99 -99999.99 -99999.99
1/10/2022 6:15:00 AM -99999.99 -179968 -99999.99 -99999.99 -99999.99 -99999.99
1/10/2022 6:30:00 AM -99999.99 -179968 -99999.99 -99999.99 -99999.99 -99999.99
1/10/2022 6:45:00 AM -99999.99 -179968 -99999.99 -99999.99 -99999.99 -99999.99
1/10/2022 7:00:00 AM -99999.99 -179968 -99999.99 -99999.99 -99999.99 -99999.99
1/10/2022 7:15:00 AM -99999.99 -179968 -99999.99 -99999.99 -99999.99 -99999.99
1/10/2022 7:30:00 AM -99999.99 -179968 -99999.99 -99999.99 -99999.99 -99999.99
1/10/2022 7:45:00 AM -99999.99 -179968 -99999.99 -99999.99 -99999.99 -99999.99
1/10/2022 8:00:00 AM -99999.99 -179968 -99999.99 -99999.99 -99999.99 -99999.99
1/10/2022 8:15:00 AM -99999.99 -179968 -99999.99 -99999.99 -99999.99 -99999.99
1/10/2022 8:30:00 AM -99999.99 -179968 -99999.99 -99999.99 -99999.99 -99999.99
1/10/2022 8:45:00 AM -99999.99 -179968 -99999.99 -99999.99 -99999.99 -99999.99
1/10/2022 9:00:00 AM -99999.99 -179968 -99999.99 -99999.99 -99999.99 -99999.99
1/10/2022 9:15:00 AM -99999.99 -179968 -99999.99 -99999.99 -99999.99 -99999.99
1/10/2022 9:30:00 AM -99999.99 -179968 -99999.99 -99999.99 -99999.99 -99999.99
1/10/2022 9:45:00 AM -99999.99 -179968 -99999.99 -99999.99 -99999.99 -99999.99
1/10/2022 10:00:00 AM -99999.99 -179968 -99999.99 -99999.99 -99999.99 -99999.99
1/10/2022 10:15:00 AM -99999.99 -179968 -99999.99 -99999.99 -99999.99 -99999.99
1/10/2022 10:30:00 AM -99999.99 -179968 -99999.99 -99999.99 -99999.99 -99999.99
1/10/2022 10:45:00 AM -99999.99 -179968 -99999.99 -99999.99 -99999.99 -99999.99
1/10/2022 11:00:00 AM -99999.99 -179968 -99999.99 -99999.99 -99999.99 -99999.99
1/10/2022 11:15:00 AM -99999.99 -179968 -99999.99 -99999.99 -99999.99 -99999.99
1/10/2022 11:30:00 AM 1.42 34.556 0.028 -4.4 10.47 -99999.99
1/10/2022 11:45:00 AM 1.44 34.592 0.028 -2.52 10.47 -99999.99
1/10/2022 12:00:00 PM 1.45 34.61 0.028 -2.7 10.46 -99999.99
1/10/2022 12:15:00 PM 1.47 34.646 0.028 -2.47 10.46 -99999.99
1/10/2022 12:30:00 PM 1.48 34.664 0.028 -2.5 10.46 -99999.99
1/10/2022 12:45:00 PM 1.54 34.772 0.028 -2.48 10.46 -99999.99
1/10/2022 1:00:00 PM 1.57 34.826 0.028 -2.41 10.45 -99999.99
1/10/2022 1:15:00 PM 1.58 34.844 0.028 -2.46 10.45 -99999.99
1/10/2022 1:30:00 PM 1.55 34.79 0.028 -2.27 10.45 -99999.99
1/10/2022 1:45:00 PM 1.55 34.79 0.028 -2.33 10.45 -99999.99
1/10/2022 2:00:00 PM 1.59 34.862 0.028 -2.3 10.45 -99999.99
1/10/2022 2:15:00 PM 1.61 34.898 0.028 -2.27 10.45 -99999.99
1/10/2022 2:30:00 PM 1.62 34.916 0.028 -2.3 10.45 -99999.99
1/10/2022 2:45:00 PM 1.6 34.88 0.028 -2.27 10.45 -99999.99
1/10/2022 3:00:00 PM 1.6 34.88 0.028 -2.05 10.45 -99999.99
1/10/2022 3:15:00 PM 1.59 34.862 0.028 -1.87 10.45 -99999.99
1/10/2022 3:30:00 PM 1.57 34.826 0.028 -1.75 10.45 -99999.99
1/10/2022 3:45:00 PM 1.56 34.808 0.028 -1.7 10.45 -99999.99
1/10/2022 4:00:00 PM 1.53 34.754 0.028 -1.44 10.45 -99999.99
1/10/2022 4:15:00 PM 1.5 34.7 0.028 -1.44 10.45 -99999.99
1/10/2022 4:30:00 PM 1.46 34.628 0.028 -1.3 10.45 -99999.99
1/10/2022 4:45:00 PM -99999.99 -179968 -99999.99 -99999.99 -99999.99 -99999.99
1/10/2022 5:00:00 PM -99999.99 -179968 -99999.99 -99999.99 -99999.99 -99999.99
1/10/2022 5:15:00 PM -99999.99 -179968 -99999.99 -99999.99 -99999.99 -99999.99
1/10/2022 5:30:00 PM -99999.99 -179968 -99999.99 -99999.99 -99999.99 -99999.99
1/10/2022 5:45:00 PM -99999.99 -179968 -99999.99 -99999.99 -99999.99 -99999.99
1/10/2022 6:00:00 PM -99999.99 -179968 -99999.99 -99999.99 -99999.99 -99999.99
1/10/2022 6:15:00 PM -99999.99 -179968 -99999.99 -99999.99 -99999.99 -99999.99
1/10/2022 6:30:00 PM -99999.99 -179968 -99999.99 -99999.99 -99999.99 -99999.99
1/10/2022 6:45:00 PM -99999.99 -179968 -99999.99 -99999.99 -99999.99 -99999.99
1/10/2022 7:00:00 PM -99999.99 -179968 -99999.99 -99999.99 -99999.99 -99999.99
1/10/2022 7:15:00 PM -99999.99 -179968 -99999.99 -99999.99 -99999.99 -99999.99
1/10/2022 7:30:00 PM -99999.99 -179968 -99999.99 -99999.99 -99999.99 -99999.99
1/10/2022 7:45:00 PM -99999.99 -179968 -99999.99 -99999.99 -99999.99 -99999.99
1/10/2022 8:00:00 PM -99999.99 -179968 -99999.99 -99999.99 -99999.99 -99999.99
1/10/2022 8:15:00 PM -99999.99 -179968 -99999.99 -99999.99 -99999.99 -99999.99
1/10/2022 8:30:00 PM -99999.99 -179968 -99999.99 -99999.99 -99999.99 -99999.99
1/10/2022 8:45:00 PM -99999.99 -179968 -99999.99 -99999.99 -99999.99 -99999.99
1/10/2022 9:00:00 PM -99999.99 -179968 -99999.99 -99999.99 -99999.99 -99999.99
1/10/2022 9:15:00 PM -99999.99 -179968 -99999.99 -99999.99 -99999.99 -99999.99
1/10/2022 9:30:00 PM -99999.99 -179968 -99999.99 -99999.99 -99999.99 -99999.99
1/10/2022 9:45:00 PM -99999.99 -179968 -99999.99 -99999.99 -99999.99 -99999.99
1/10/2022 10:00:00 PM -99999.99 -179968 -99999.99 -99999.99 -99999.99 -99999.99
1/10/2022 10:15:00 PM -99999.99 -179968 -99999.99 -99999.99 -99999.99 -99999.99
1/10/2022 10:30:00 PM -99999.99 -179968 -99999.99 -99999.99 -99999.99 -99999.99
1/10/2022 10:45:00 PM -99999.99 -179968 -99999.99 -99999.99 -99999.99 -99999.99
1/10/2022 11:00:00 PM -99999.99 -179968 -99999.99 -99999.99 -99999.99 -99999.99
1/10/2022 11:15:00 PM -99999.99 -179968 -99999.99 -99999.99 -99999.99 -99999.99
1/10/2022 11:30:00 PM -99999.99 -179968 -99999.99 -99999.99 -99999.99 -99999.99
1/10/2022 11:45:00 PM -99999.99 -179968 -99999.99 -99999.99 -99999.99 -99999.99
1/11/2022 12:00:00 AM -99999.99 -179968 -99999.99 -99999.99 -99999.99 -99999.99
1/11/2022 12:15:00 AM -99999.99 -179968 -99999.99 -99999.99 -99999.99 -99999.99
1/11/2022 12:30:00 AM -99999.99 -179968 -99999.99 -99999.99 -99999.99 -99999.99
1/11/2022 12:45:00 AM -99999.99 -179968 -99999.99 -99999.99 -99999.99 -99999.99
1/11/2022 1:00:00 AM -99999.99 -179968 -99999.99 -99999.99 -99999.99 -99999.99
1/11/2022 1:15:00 AM -99999.99 -179968 -99999.99 -99999.99 -99999.99 -99999.99
1/11/2022 1:30:00 AM -99999.99 -179968 -99999.99 -99999.99 -99999.99 -99999.99
1/11/2022 1:45:00 AM -99999.99 -179968 -99999.99 -99999.99 -99999.99 -99999.99
1/11/2022 2:00:00 AM -99999.99 -179968 -99999.99 -99999.99 -99999.99 -99999.99
1/11/2022 2:15:00 AM -99999.99 -179968 -99999.99 -99999.99 -99999.99 -99999.99
1/11/2022 2:30:00 AM -99999.99 -179968 -99999.99 -99999.99 -99999.99 -99999.99
1/11/2022 2:45:00 AM -99999.99 -179968 -99999.99 -99999.99 -99999.99 -99999.99
1/11/2022 3:00:00 AM -99999.99 -179968 -99999.99 -99999.99 -99999.99 -99999.99
1/11/2022 3:15:00 AM -99999.99 -179968 -99999.99 -99999.99 -99999.99 -99999.99
1/11/2022 3:30:00 AM -99999.99 -179968 -99999.99 -99999.99 -99999.99 -99999.99
1/11/2022 3:45:00 AM -99999.99 -179968 -99999.99 -99999.99 -99999.99 -99999.99
1/11/2022 4:00:00 AM -99999.99 -179968 -99999.99 -99999.99 -99999.99 -99999.99
1/11/2022 4:15:00 AM -99999.99 -179968 -99999.99 -99999.99 -99999.99 -99999.99
1/11/2022 4:30:00 AM -99999.99 -179968 -99999.99 -99999.99 -99999.99 -99999.99
1/11/2022 4:45:00 AM -99999.99 -179968 -99999.99 -99999.99 -99999.99 -99999.99
1/11/2022 5:00:00 AM -99999.99 -179968 -99999.99 -99999.99 -99999.99 -99999.99
1/11/2022 5:15:00 AM -99999.99 -179968 -99999.99 -99999.99 -99999.99 -99999.99
1/11/2022 5:30:00 AM -99999.99 -179968 -99999.99 -99999.99 -99999.99 -99999.99
1/11/2022 5:45:00 AM -99999.99 -179968 -99999.99 -99999.99 -99999.99 -99999.99
1/11/2022 6:00:00 AM -99999.99 -179968 -99999.99 -99999.99 -99999.99 -99999.99
1/11/2022 6:15:00 AM -99999.99 -179968 -99999.99 -99999.99 -99999.99 -99999.99
1/11/2022 6:30:00 AM -99999.99 -179968 -99999.99 -99999.99 -99999.99 -99999.99
1/11/2022 6:45:00 AM -99999.99 -179968 -99999.99 -99999.99 -99999.99 -99999.99
1/11/2022 7:00:00 AM -99999.99 -179968 -99999.99 -99999.99 -99999.99 -99999.99
1/11/2022 7:15:00 AM -99999.99 -179968 -99999.99 -99999.99 -99999.99 -99999.99
1/11/2022 7:30:00 AM -99999.99 -179968 -99999.99 -99999.99 -99999.99 -99999.99
1/11/2022 7:45:00 AM -99999.99 -179968 -99999.99 -99999.99 -99999.99 -99999.99
1/11/2022 8:00:00 AM -99999.99 -179968 -99999.99 -99999.99 -99999.99 -99999.99
1/11/2022 8:15:00 AM -99999.99 -179968 -99999.99 -99999.99 -99999.99 -99999.99
1/11/2022 8:30:00 AM -99999.99 -179968 -99999.99 -99999.99 -99999.99 -99999.99
1/11/2022 8:45:00 AM -99999.99 -179968 -99999.99 -99999.99 -99999.99 -99999.99
1/11/2022 9:00:00 AM -99999.99 -179968 -99999.99 -99999.99 -99999.99 -99999.99
1/11/2022 9:15:00 AM -99999.99 -179968 -99999.99 -99999.99 -99999.99 -99999.99
1/11/2022 9:30:00 AM -99999.99 -179968 -99999.99 -99999.99 -99999.99 -99999.99
1/11/2022 9:45:00 AM -99999.99 -179968 -99999.99 -99999.99 -99999.99 -99999.99
1/11/2022 10:00:00 AM -99999.99 -179968 -99999.99 -99999.99 -99999.99 -99999.99
1/11/2022 10:15:00 AM -0.02 31.964 0.029 -3.02 10.59 -99999.99
1/11/2022 10:30:00 AM -0.01 31.982 0.029 -0.77 10.58 -99999.99
1/11/2022 10:45:00 AM 0 32 0.029 -0.62 10.57 -99999.99
1/11/2022 11:00:00 AM 0.01 32.018 0.029 -1.02 10.57 -99999.99
1/11/2022 11:15:00 AM 0.03 32.054 0.029 -1.06 10.56 -99999.99
1/11/2022 11:30:00 AM 0.04 32.072 0.029 -2.09 10.57 -99999.99
1/11/2022 11:45:00 AM 0.05 32.09 0.029 -1.81 10.55 -99999.99
1/11/2022 12:00:00 PM 0.06 32.108 0.029 -1.92 10.56 -99999.99
1/11/2022 12:15:00 PM 0.06 32.108 0.029 -1.78 10.55 -99999.99
1/11/2022 12:30:00 PM 0.07 32.126 0.029 -2.04 10.55 -99999.99
1/11/2022 12:45:00 PM 0.1 32.18 0.029 -2 10.55 -99999.99
1/11/2022 1:00:00 PM 0.16 32.288 0.029 -1.68 10.55 -99999.99
1/11/2022 1:15:00 PM 0.24 32.432 0.029 -1.96 10.55 -99999.99
1/11/2022 1:30:00 PM 0.26 32.468 0.029 -1.95 10.55 -99999.99
1/11/2022 1:45:00 PM 0.34 32.612 0.029 -2.13 10.55 -99999.99
1/11/2022 2:00:00 PM 0.33 32.594 0.029 -2.19 10.55 -99999.99
1/11/2022 2:15:00 PM 0.41 32.738 0.029 -2.25 10.55 -99999.99
1/11/2022 2:30:00 PM 0.39 32.702 0.029 -2.25 10.55 -99999.99
1/11/2022 2:45:00 PM 0.39 32.702 0.029 -2.28 10.55 -99999.99
1/11/2022 3:00:00 PM 0.36 32.648 0.029 -2.14 10.55 -99999.99
1/11/2022 3:15:00 PM 0.35 32.63 0.028 -2.1 10.56 -99999.99
1/11/2022 3:30:00 PM 0.34 32.612 0.028 -1.86 10.56 -99999.99
1/11/2022 3:45:00 PM 0.31 32.558 0.028 -1.68 10.55 -99999.99
1/11/2022 4:00:00 PM 0.27 32.486 0.028 -1.54 10.55 -99999.99
1/11/2022 4:15:00 PM 0.23 32.414 0.028 -1.26 10.55 -99999.99
1/11/2022 4:30:00 PM 0.2 32.36 0.028 -0.94 10.55 -99999.99
1/11/2022 4:45:00 PM 0.17 32.306 0.028 -0.7 10.54 -99999.99
1/11/2022 5:00:00 PM 0.15 32.27 0.028 -0.46 10.54 -99999.99
1/11/2022 5:15:00 PM 0.13 32.234 0.029 -0.22 10.54 -99999.99
1/11/2022 5:30:00 PM 0.11 32.198 0.029 -0.06 10.54 -99999.99
1/11/2022 5:45:00 PM 0.09 32.162 0.029 -0.22 10.53 -99999.99
1/11/2022 6:00:00 PM 0.07 32.126 0.029 -0.03 10.53 -99999.99
1/11/2022 6:15:00 PM 0.05 32.09 0.029 -0.01 10.53 -99999.99
1/11/2022 6:30:00 PM -99999.99 -179968 -99999.99 -99999.99 -99999.99 -99999.99
1/11/2022 6:45:00 PM -99999.99 -179968 -99999.99 -99999.99 -99999.99 -99999.99
1/11/2022 7:00:00 PM -99999.99 -179968 -99999.99 -99999.99 -99999.99 -99999.99
1/11/2022 7:15:00 PM -99999.99 -179968 -99999.99 -99999.99 -99999.99 -99999.99
1/11/2022 7:30:00 PM -99999.99 -179968 -99999.99 -99999.99 -99999.99 -99999.99
1/11/2022 7:45:00 PM -99999.99 -179968 -99999.99 -99999.99 -99999.99 -99999.99
1/11/2022 8:00:00 PM -99999.99 -179968 -99999.99 -99999.99 -99999.99 -99999.99
1/11/2022 8:15:00 PM -99999.99 -179968 -99999.99 -99999.99 -99999.99 -99999.99
1/11/2022 8:30:00 PM -99999.99 -179968 -99999.99 -99999.99 -99999.99 -99999.99
1/11/2022 8:45:00 PM -99999.99 -179968 -99999.99 -99999.99 -99999.99 -99999.99
1/11/2022 9:00:00 PM -99999.99 -179968 -99999.99 -99999.99 -99999.99 -99999.99
1/11/2022 9:15:00 PM -99999.99 -179968 -99999.99 -99999.99 -99999.99 -99999.99
1/11/2022 9:30:00 PM -99999.99 -179968 -99999.99 -99999.99 -99999.99 -99999.99
1/11/2022 9:45:00 PM -99999.99 -179968 -99999.99 -99999.99 -99999.99 -99999.99
1/11/2022 10:00:00 PM -99999.99 -179968 -99999.99 -99999.99 -99999.99 -99999.99
1/11/2022 10:15:00 PM -99999.99 -179968 -99999.99 -99999.99 -99999.99 -99999.99
1/11/2022 10:30:00 PM -99999.99 -179968 -99999.99 -99999.99 -99999.99 -99999.99
1/11/2022 10:45:00 PM -99999.99 -179968 -99999.99 -99999.99 -99999.99 -99999.99
1/11/2022 11:00:00 PM -99999.99 -179968 -99999.99 -99999.99 -99999.99 -99999.99
1/11/2022 11:15:00 PM -99999.99 -179968 -99999.99 -99999.99 -99999.99 -99999.99
1/11/2022 11:30:00 PM -99999.99 -179968 -99999.99 -99999.99 -99999.99 -99999.99
1/11/2022 11:45:00 PM -99999.99 -179968 -99999.99 -99999.99 -99999.99 -99999.99
1/12/2022 12:00:00 AM -99999.99 -179968 -99999.99 -99999.99 -99999.99 -99999.99
1/12/2022 12:15:00 AM -99999.99 -179968 -99999.99 -99999.99 -99999.99 -99999.99
1/12/2022 12:30:00 AM -99999.99 -179968 -99999.99 -99999.99 -99999.99 -99999.99
1/12/2022 12:45:00 AM -99999.99 -179968 -99999.99 -99999.99 -99999.99 -99999.99
1/12/2022 1:00:00 AM -99999.99 -179968 -99999.99 -99999.99 -99999.99 -99999.99
1/12/2022 1:15:00 AM -99999.99 -179968 -99999.99 -99999.99 -99999.99 -99999.99
1/12/2022 1:30:00 AM -99999.99 -179968 -99999.99 -99999.99 -99999.99 -99999.99
1/12/2022 1:45:00 AM -99999.99 -179968 -99999.99 -99999.99 -99999.99 -99999.99
1/12/2022 2:00:00 AM -99999.99 -179968 -99999.99 -99999.99 -99999.99 -99999.99
1/12/2022 2:15:00 AM -99999.99 -179968 -99999.99 -99999.99 -99999.99 -99999.99
1/12/2022 2:30:00 AM -99999.99 -179968 -99999.99 -99999.99 -99999.99 -99999.99
1/12/2022 2:45:00 AM -99999.99 -179968 -99999.99 -99999.99 -99999.99 -99999.99
1/12/2022 3:00:00 AM -99999.99 -179968 -99999.99 -99999.99 -99999.99 -99999.99
1/12/2022 3:15:00 AM -99999.99 -179968 -99999.99 -99999.99 -99999.99 -99999.99
1/12/2022 3:30:00 AM -99999.99 -179968 -99999.99 -99999.99 -99999.99 -99999.99
1/12/2022 3:45:00 AM -99999.99 -179968 -99999.99 -99999.99 -99999.99 -99999.99
1/12/2022 4:00:00 AM -99999.99 -179968 -99999.99 -99999.99 -99999.99 -99999.99
1/12/2022 4:15:00 AM -99999.99 -179968 -99999.99 -99999.99 -99999.99 -99999.99
1/12/2022 4:30:00 AM -99999.99 -179968 -99999.99 -99999.99 -99999.99 -99999.99
1/12/2022 4:45:00 AM -99999.99 -179968 -99999.99 -99999.99 -99999.99 -99999.99
1/12/2022 5:00:00 AM -99999.99 -179968 -99999.99 -99999.99 -99999.99 -99999.99
1/12/2022 5:15:00 AM -99999.99 -179968 -99999.99 -99999.99 -99999.99 -99999.99
1/12/2022 5:30:00 AM -99999.99 -179968 -99999.99 -99999.99 -99999.99 -99999.99
1/12/2022 5:45:00 AM -99999.99 -179968 -99999.99 -99999.99 -99999.99 -99999.99
1/12/2022 6:00:00 AM -99999.99 -179968 -99999.99 -99999.99 -99999.99 -99999.99
1/12/2022 6:15:00 AM -99999.99 -179968 -99999.99 -99999.99 -99999.99 -99999.99
1/12/2022 6:30:00 AM -99999.99 -179968 -99999.99 -99999.99 -99999.99 -99999.99
1/12/2022 6:45:00 AM -99999.99 -179968 -99999.99 -99999.99 -99999.99 -99999.99
1/12/2022 7:00:00 AM -99999.99 -179968 -99999.99 -99999.99 -99999.99 -99999.99
1/12/2022 7:15:00 AM -99999.99 -179968 -99999.99 -99999.99 -99999.99 -99999.99
1/12/2022 7:30:00 AM -99999.99 -179968 -99999.99 -99999.99 -99999.99 -99999.99
1/12/2022 7:45:00 AM -99999.99 -179968 -99999.99 -99999.99 -99999.99 -99999.99
1/12/2022 8:00:00 AM -99999.99 -179968 -99999.99 -99999.99 -99999.99 -99999.99
1/12/2022 8:15:00 AM -99999.99 -179968 -99999.99 -99999.99 -99999.99 -99999.99
1/12/2022 8:30:00 AM -99999.99 -179968 -99999.99 -99999.99 -99999.99 -99999.99
1/12/2022 8:45:00 AM -99999.99 -179968 -99999.99 -99999.99 -99999.99 -99999.99
1/12/2022 9:00:00 AM -99999.99 -179968 -99999.99 -99999.99 -99999.99 -99999.99
1/12/2022 9:15:00 AM -99999.99 -179968 -99999.99 -99999.99 -99999.99 -99999.99
1/12/2022 9:30:00 AM -99999.99 -179968 -99999.99 -99999.99 -99999.99 -99999.99
1/12/2022 9:45:00 AM -99999.99 -179968 -99999.99 -99999.99 -99999.99 -99999.99
1/12/2022 10:00:00 AM -0.03 31.946 0.03 -1.81 10.51 -99999.99
1/12/2022 10:15:00 AM -0.02 31.964 0.03 -1.51 10.5 -99999.99
1/12/2022 10:30:00 AM -0.02 31.964 0.03 -1.25 10.5 -99999.99
1/12/2022 10:45:00 AM -0.01 31.982 0.029 -1.37 10.5 -99999.99
1/12/2022 11:00:00 AM -0.01 31.982 0.029 -1.11 10.49 -99999.99
1/12/2022 11:15:00 AM 0 32 0.029 -0.88 10.47 -99999.99
1/12/2022 11:30:00 AM 0.02 32.036 0.029 -0.42 10.45 -99999.99
1/12/2022 11:45:00 AM 0.06 32.108 0.029 -0.91 10.42 -99999.99
1/12/2022 12:00:00 PM 0.08 32.144 0.029 -1.14 10.41 -99999.99
1/12/2022 12:15:00 PM 0.08 32.144 0.029 -2.38 10.42 -99999.99
1/12/2022 12:30:00 PM 0.11 32.198 0.029 -1.97 10.4 -99999.99
1/12/2022 12:45:00 PM 0.16 32.288 0.029 -1.52 10.4 -99999.99
1/12/2022 1:00:00 PM 0.16 32.288 0.029 -1.77 10.4 -99999.99
1/12/2022 1:15:00 PM 0.17 32.306 0.029 -1.74 10.4 -99999.99
1/12/2022 1:30:00 PM 0.32 32.576 0.029 -1.87 10.4 -99999.99
1/12/2022 1:45:00 PM 0.51 32.918 0.029 -2.26 10.4 -99999.99
1/12/2022 2:00:00 PM 0.65 33.17 0.028 -2.57 10.4 -99999.99
1/12/2022 2:15:00 PM 0.73 33.314 0.028 -2.62 10.41 -99999.99
1/12/2022 2:30:00 PM 0.78 33.404 0.028 -2.45 10.41 -99999.99
1/12/2022 2:45:00 PM 0.84 33.512 0.028 -2.43 10.41 -99999.99
1/12/2022 3:00:00 PM 0.87 33.566 0.028 -2.46 10.41 -99999.99
1/12/2022 3:15:00 PM 0.87 33.566 0.028 -2.41 10.41 -99999.99
1/12/2022 3:30:00 PM 0.86 33.548 0.028 -2.28 10.41 -99999.99
1/12/2022 3:45:00 PM 0.86 33.548 0.028 -2.18 10.41 -99999.99
1/12/2022 4:00:00 PM 0.86 33.548 0.028 -1.9 10.41 -99999.99
1/12/2022 4:15:00 PM 0.85 33.53 0.028 -1.72 10.4 -99999.99
1/12/2022 4:30:00 PM 0.9 33.62 0.028 -1.41 10.41 -99999.99
1/12/2022 4:45:00 PM 1.03 33.854 0.028 -1.05 10.41 -99999.99
1/12/2022 5:00:00 PM 1.1 33.98 0.028 -0.78 10.4 -99999.99
1/12/2022 5:15:00 PM 1.16 34.088 0.028 -0.55 10.4 -99999.99
1/12/2022 5:30:00 PM 1.19 34.142 0.028 -0.39 10.41 -99999.99
1/12/2022 5:45:00 PM 1.22 34.196 0.028 -0.26 10.4 -99999.99
1/12/2022 6:00:00 PM 1.25 34.25 0.028 -0.24 10.41 -99999.99
1/12/2022 6:15:00 PM 1.27 34.286 0.028 -0.16 10.41 -99999.99
1/12/2022 6:30:00 PM 1.29 34.322 0.028 -0.16 10.41 -99999.99
1/12/2022 6:45:00 PM 1.3 34.34 0.028 -0.2 10.41 -99999.99
1/12/2022 7:00:00 PM 1.32 34.376 0.028 -0.15 10.41 -99999.99
1/12/2022 7:15:00 PM 1.32 34.376 0.028 -0.11 10.41 -99999.99
1/12/2022 7:30:00 PM 1.33 34.394 0.028 -0.25 10.41 -99999.99
1/12/2022 7:45:00 PM 1.34 34.412 0.028 0.05 10.41 -99999.99
1/12/2022 8:00:00 PM 1.34 34.412 0.028 -0.01 10.41 -99999.99
1/12/2022 8:15:00 PM -99999.99 -179968 -99999.99 -99999.99 -99999.99 -99999.99
1/12/2022 8:30:00 PM 1.35 34.43 0.028 -0.62 10.41 -99999.99
1/12/2022 8:45:00 PM 1.35 34.43 0.028 -0.05 10.41 -99999.99
1/12/2022 9:00:00 PM 1.36 34.448 0.028 -0.02 10.4 -99999.99
1/12/2022 9:15:00 PM 1.38 34.484 0.028 0.03 10.41 -99999.99
1/12/2022 9:30:00 PM 1.39 34.502 0.028 0.06 10.41 -99999.99
1/12/2022 9:45:00 PM 1.41 34.538 0.028 0.19 10.41 -99999.99
1/12/2022 10:00:00 PM 1.42 34.556 0.028 0.13 10.41 -99999.99
1/12/2022 10:15:00 PM 1.44 34.592 0.028 0.03 10.4 -99999.99
1/12/2022 10:30:00 PM 1.46 34.628 0.029 0.12 10.4 -99999.99
1/12/2022 10:45:00 PM 1.48 34.664 0.029 0.13 10.4 -99999.99
1/12/2022 11:00:00 PM 1.5 34.7 0.029 0.03 10.4 -99999.99
1/12/2022 11:15:00 PM 1.52 34.736 0.029 0.04 10.4 -99999.99
1/12/2022 11:30:00 PM 1.54 34.772 0.029 0.02 10.4 -99999.99
1/12/2022 11:45:00 PM 1.56 34.808 0.029 0.09 10.4 -99999.99
1/13/2022 12:00:00 AM 1.58 34.844 0.029 0.07 10.4 -99999.99
1/13/2022 12:15:00 AM 1.6 34.88 0.029 0.05 10.4 -99999.99
1/13/2022 12:30:00 AM 1.62 34.916 0.029 0.11 10.4 -99999.99
1/13/2022 12:45:00 AM 1.64 34.952 0.029 -0.01 10.4 -99999.99
1/13/2022 1:00:00 AM 1.66 34.988 0.029 0.03 10.4 -99999.99
1/13/2022 1:15:00 AM 1.68 35.024 0.029 -0.03 10.4 -99999.99
1/13/2022 1:30:00 AM 1.71 35.078 0.029 -0.13 10.39 -99999.99
1/13/2022 1:45:00 AM 1.73 35.114 0.029 -0.07 10.39 -99999.99
1/13/2022 2:00:00 AM 1.76 35.168 0.029 -0.18 10.39 -99999.99
1/13/2022 2:15:00 AM 1.78 35.204 0.029 -0.01 10.39 -99999.99
1/13/2022 2:30:00 AM 1.8 35.24 0.029 -0.18 10.39 -99999.99
1/13/2022 2:45:00 AM 1.82 35.276 0.029 -0.15 10.39 -99999.99
1/13/2022 3:00:00 AM 1.85 35.33 0.029 -0.22 10.39 -99999.99
1/13/2022 3:15:00 AM 1.88 35.384 0.029 -0.1 10.39 -99999.99
1/13/2022 3:30:00 AM 1.91 35.438 0.029 -0.27 10.39 -99999.99
1/13/2022 3:45:00 AM 1.94 35.492 0.029 -0.26 10.39 -99999.99
1/13/2022 4:00:00 AM 1.96 35.528 0.029 -0.26 10.38 -99999.99
1/13/2022 4:15:00 AM 1.99 35.582 0.029 -0.28 10.38 -99999.99
1/13/2022 4:30:00 AM 2.02 35.636 0.029 -0.23 10.38 -99999.99
1/13/2022 4:45:00 AM 2.04 35.672 0.029 -0.16 10.38 -99999.99
1/13/2022 5:00:00 AM 2.05 35.69 0.029 -0.16 10.38 -99999.99
1/13/2022 5:15:00 AM 2.07 35.726 0.029 -0.02 10.38 -99999.99
1/13/2022 5:30:00 AM 2.08 35.744 0.029 -0.15 10.38 -99999.99
1/13/2022 5:45:00 AM 2.1 35.78 0.029 0.02 10.38 -99999.99
1/13/2022 6:00:00 AM 2.12 35.816 0.029 -0.21 10.38 -99999.99
1/13/2022 6:15:00 AM 2.13 35.834 0.029 -0.12 10.38 -99999.99
1/13/2022 6:30:00 AM 2.15 35.87 0.029 -0.21 10.38 -99999.99
1/13/2022 6:45:00 AM 2.17 35.906 0.029 -0.11 10.38 -99999.99
1/13/2022 7:00:00 AM 2.19 35.942 0.029 -0.19 10.38 -99999.99
1/13/2022 7:15:00 AM 2.21 35.978 0.029 -0.2 10.38 -99999.99
1/13/2022 7:30:00 AM 2.22 35.996 0.029 -0.37 10.38 -99999.99
1/13/2022 7:45:00 AM 2.24 36.032 0.029 -0.12 10.38 -99999.99
1/13/2022 8:00:00 AM 2.26 36.068 0.029 -0.29 10.38 -99999.99
1/13/2022 8:15:00 AM 2.28 36.104 0.029 -0.6 10.38 -99999.99
1/13/2022 8:30:00 AM -99999.99 -179968 -99999.99 -99999.99 -99999.99 -99999.99
1/13/2022 8:45:00 AM -99999.99 -179968 -99999.99 -99999.99 -99999.99 -99999.99
1/13/2022 9:00:00 AM -99999.99 -179968 -99999.99 -99999.99 -99999.99 -99999.99
1/13/2022 9:15:00 AM -99999.99 -179968 -99999.99 -99999.99 -99999.99 -99999.99
1/13/2022 9:30:00 AM -99999.99 -179968 -99999.99 -99999.99 -99999.99 -99999.99
1/13/2022 9:45:00 AM -99999.99 -179968 -99999.99 -99999.99 -99999.99 -99999.99
1/13/2022 10:00:00 AM 2.54 36.572 0.031 6.8 1.19 13.21
1/13/2022 10:15:00 AM 2.6 36.68 0.031 6.65 1.2 13.21
1/13/2022 10:30:00 AM 2.65 36.77 0.031 6.66 1.27 13.2
1/13/2022 10:45:00 AM 2.75 36.95 0.031 6.68 1.37 13.19
1/13/2022 11:00:00 AM 2.83 37.094 0.031 6.55 1.2 13.17
1/13/2022 11:15:00 AM 2.87 37.166 0.031 6.59 1.12 13.14
1/13/2022 11:30:00 AM 2.93 37.274 0.031 6.68 1.2 13.13
1/13/2022 11:45:00 AM 3.02 37.436 0.031 6.68 1.18 13.1
1/13/2022 12:00:00 PM 3.1 37.58 0.031 6.69 1.19 13.06
1/13/2022 12:15:00 PM 3.19 37.742 0.031 6.69 1.17 13.03
1/13/2022 12:30:00 PM 3.29 37.922 0.031 6.52 1.16 13
1/13/2022 12:45:00 PM 3.37 38.066 0.031 6.69 1.26 12.97
1/13/2022 1:00:00 PM 3.42 38.156 0.031 6.56 1.24 12.94
1/13/2022 1:15:00 PM 3.47 38.246 0.031 6.7 1.19 12.91
1/13/2022 1:30:00 PM 3.53 38.354 0.031 6.53 1.12 12.89
1/13/2022 1:45:00 PM 3.58 38.444 0.031 6.59 1.29 12.86
1/13/2022 2:00:00 PM 3.62 38.516 0.031 6.69 1.25 12.84
1/13/2022 2:15:00 PM 3.65 38.57 0.031 6.7 1.2 12.82
1/13/2022 2:30:00 PM 3.67 38.606 0.031 6.5 1.26 12.79
1/13/2022 2:45:00 PM 3.71 38.678 0.031 6.69 1.24 12.77
1/13/2022 3:00:00 PM 3.71 38.678 0.031 6.51 1.29 12.75
1/13/2022 3:15:00 PM 3.73 38.714 0.031 6.69 1.35 12.74
1/13/2022 3:30:00 PM 3.75 38.75 0.031 6.66 1.29 12.74
1/13/2022 3:45:00 PM 3.75 38.75 0.031 6.67 1.28 12.71
1/13/2022 4:00:00 PM 3.73 38.714 0.031 6.52 1.33 12.69
1/13/2022 4:15:00 PM 3.72 38.696 0.031 6.59 1.32 12.68
1/13/2022 4:30:00 PM 3.71 38.678 0.031 6.67 1.2 12.68
1/13/2022 4:45:00 PM 3.69 38.642 0.031 6.5 1.29 12.67
1/13/2022 5:00:00 PM 3.68 38.624 0.031 6.66 1.19 12.66
1/13/2022 5:15:00 PM 3.66 38.588 0.031 6.48 1.3 12.65
1/13/2022 5:30:00 PM 3.65 38.57 0.031 6.65 1.3 12.64
1/13/2022 5:45:00 PM 3.63 38.534 0.031 6.47 1.33 12.64
1/13/2022 6:00:00 PM 3.62 38.516 0.031 6.65 1.27 12.64
1/13/2022 6:15:00 PM 3.61 38.498 0.031 6.64 1.38 12.65
1/13/2022 6:30:00 PM 3.59 38.462 0.031 6.45 1.36 12.65
1/13/2022 6:45:00 PM 3.58 38.444 0.031 6.49 1.34 12.66
1/13/2022 7:00:00 PM 3.57 38.426 0.031 6.52 1.55 12.66
1/13/2022 7:15:00 PM 3.56 38.408 0.031 6.64 1.34 12.66
1/13/2022 7:30:00 PM 3.55 38.39 0.031 6.55 1.36 12.66
1/13/2022 7:45:00 PM 3.54 38.372 0.031 6.64 3.91 12.67
1/13/2022 8:00:00 PM 3.53 38.354 0.031 6.48 1.34 12.67
1/13/2022 8:15:00 PM 3.53 38.354 0.031 6.64 1.43 12.67
1/13/2022 8:30:00 PM 3.52 38.336 0.031 6.64 1.37 12.67
1/13/2022 8:45:00 PM 3.51 38.318 0.031 6.59 1.44 12.67
1/13/2022 9:00:00 PM 3.5 38.3 0.031 6.5 1.29 12.68
1/13/2022 9:15:00 PM 3.5 38.3 0.031 6.56 1.42 12.68
1/13/2022 9:30:00 PM 3.49 38.282 0.031 6.6 1.45 12.67
1/13/2022 9:45:00 PM 3.49 38.282 0.031 6.6 1.4 12.68
1/13/2022 10:00:00 PM 3.49 38.282 0.031 6.6 1.52 12.68
1/13/2022 10:15:00 PM 3.48 38.264 0.031 6.57 1.45 12.68
1/13/2022 10:30:00 PM 3.48 38.264 0.031 6.61 1.42 12.68
1/13/2022 10:45:00 PM 3.47 38.246 0.031 6.59 1.41 12.68
1/13/2022 11:00:00 PM 3.47 38.246 0.031 6.63 1.49 12.68
1/13/2022 11:15:00 PM 3.47 38.246 0.031 6.62 1.36 12.69
1/13/2022 11:30:00 PM 3.47 38.246 0.031 6.63 1.35 12.68
1/13/2022 11:45:00 PM 3.47 38.246 0.031 6.62 1.41 12.68
1/14/2022 12:00:00 AM 3.47 38.246 0.031 6.6 1.41 12.68
1/14/2022 12:15:00 AM 3.47 38.246 0.031 6.63 1.38 12.68
1/14/2022 12:30:00 AM 3.47 38.246 0.031 6.62 1.28 12.68
1/14/2022 12:45:00 AM 3.47 38.246 0.031 6.47 1.26 12.68
1/14/2022 1:00:00 AM 3.47 38.246 0.031 6.52 1.26 12.68
1/14/2022 1:15:00 AM 3.47 38.246 0.031 6.63 1.34 12.68
1/14/2022 1:30:00 AM 3.47 38.246 0.031 6.61 1.37 12.67
1/14/2022 1:45:00 AM 3.46 38.228 0.031 6.6 1.81 12.68
1/14/2022 2:00:00 AM 3.47 38.246 0.031 6.63 1.33 12.68
1/14/2022 2:15:00 AM 3.46 38.228 0.031 6.46 1.32 12.68
1/14/2022 2:30:00 AM 3.46 38.228 0.031 6.6 1.43 12.67
1/14/2022 2:45:00 AM 3.46 38.228 0.031 6.62 1.43 12.68
1/14/2022 3:00:00 AM 3.46 38.228 0.031 6.61 1.44 12.68
1/14/2022 3:15:00 AM 3.46 38.228 0.031 6.59 1.23 12.68
1/14/2022 3:30:00 AM 3.46 38.228 0.031 6.61 1.41 12.68
1/14/2022 3:45:00 AM 3.46 38.228 0.031 6.62 1.27 12.68
1/14/2022 4:00:00 AM 3.46 38.228 0.031 6.57 1.38 12.68
1/14/2022 4:15:00 AM 3.46 38.228 0.031 6.62 2.25 12.68
1/14/2022 4:30:00 AM 3.46 38.228 0.031 6.54 1.33 12.68
1/14/2022 4:45:00 AM 3.46 38.228 0.031 6.62 1.38 12.68
1/14/2022 5:00:00 AM 3.46 38.228 0.031 6.44 1.68 12.68
1/14/2022 5:15:00 AM 3.46 38.228 0.031 6.62 1.32 12.68
1/14/2022 5:30:00 AM 3.46 38.228 0.031 6.45 1.37 12.68
1/14/2022 5:45:00 AM 3.46 38.228 0.031 6.52 1.44 12.69
1/14/2022 6:00:00 AM 3.45 38.21 0.031 6.51 1.49 12.68
1/14/2022 6:15:00 AM 3.45 38.21 0.031 6.61 1.32 12.69
1/14/2022 6:30:00 AM 3.45 38.21 0.031 6.57 1.7 12.69
1/14/2022 6:45:00 AM 3.44 38.192 0.031 6.62 1.46 12.7
1/14/2022 7:00:00 AM 3.44 38.192 0.031 6.62 1.41 12.7
1/14/2022 7:15:00 AM 3.44 38.192 0.031 6.44 1.31 12.7
1/14/2022 7:30:00 AM 3.44 38.192 0.031 6.52 1.28 12.71
1/14/2022 7:45:00 AM 3.44 38.192 0.031 6.62 1.25 12.71
1/14/2022 8:00:00 AM 3.43 38.174 0.031 6.5 1.26 12.72
1/14/2022 8:15:00 AM 3.43 38.174 0.031 6.63 1.24 12.72
1/14/2022 8:30:00 AM 3.43 38.174 0.031 6.48 1.33 12.73
1/14/2022 8:45:00 AM 3.43 38.174 0.031 6.64 1.2 12.74
1/14/2022 9:00:00 AM 3.43 38.174 0.031 6.51 1.23 12.76
1/14/2022 9:15:00 AM 3.42 38.156 0.031 6.65 1.22 12.77
1/14/2022 9:30:00 AM -99999.99 -179968 -99999.99 -99999.99 -99999.99 -99999.99
1/14/2022 9:45:00 AM -99999.99 -179968 -99999.99 -99999.99 -99999.99 -99999.99
1/14/2022 10:00:00 AM -99999.99 -179968 -99999.99 -99999.99 -99999.99 -99999.99
1/14/2022 10:15:00 AM -99999.99 -179968 -99999.99 -99999.99 -99999.99 -99999.99
1/14/2022 10:30:00 AM -99999.99 -179968 -99999.99 -99999.99 -99999.99 -99999.99
1/14/2022 10:45:00 AM -99999.99 -179968 -99999.99 -99999.99 -99999.99 -99999.99
1/14/2022 11:00:00 AM -99999.99 -179968 -99999.99 -99999.99 -99999.99 -99999.99
1/14/2022 11:15:00 AM -99999.99 -179968 -99999.99 -99999.99 -99999.99 -99999.99
1/14/2022 11:30:00 AM -99999.99 -179968 -99999.99 -99999.99 -99999.99 -99999.99
1/14/2022 11:45:00 AM -99999.99 -179968 -99999.99 -99999.99 -99999.99 -99999.99
1/14/2022 12:00:00 PM -99999.99 -179968 -99999.99 -99999.99 -99999.99 -99999.99
1/14/2022 12:15:00 PM -99999.99 -179968 -99999.99 -99999.99 -99999.99 -99999.99
1/14/2022 12:30:00 PM -99999.99 -179968 -99999.99 -99999.99 -99999.99 -99999.99
1/14/2022 12:45:00 PM -99999.99 -179968 -99999.99 -99999.99 -99999.99 -99999.99
1/14/2022 1:00:00 PM -99999.99 -179968 -99999.99 -99999.99 -99999.99 -99999.99
1/14/2022 1:15:00 PM -99999.99 -179968 -99999.99 -99999.99 -99999.99 -99999.99
1/14/2022 1:30:00 PM -99999.99 -179968 -99999.99 -99999.99 -99999.99 -99999.99
1/14/2022 1:45:00 PM -99999.99 -179968 -99999.99 -99999.99 -99999.99 -99999.99
1/14/2022 2:00:00 PM -99999.99 -179968 -99999.99 -99999.99 -99999.99 -99999.99
1/14/2022 2:15:00 PM -99999.99 -179968 -99999.99 -99999.99 -99999.99 -99999.99
1/14/2022 2:30:00 PM -99999.99 -179968 -99999.99 -99999.99 -99999.99 -99999.99
1/14/2022 2:45:00 PM -99999.99 -179968 -99999.99 -99999.99 -99999.99 -99999.99
1/14/2022 3:00:00 PM -99999.99 -179968 -99999.99 -99999.99 -99999.99 -99999.99
1/14/2022 3:15:00 PM -99999.99 -179968 -99999.99 -99999.99 -99999.99 -99999.99
1/14/2022 3:30:00 PM -99999.99 -179968 -99999.99 -99999.99 -99999.99 -99999.99
1/14/2022 3:45:00 PM -99999.99 -179968 -99999.99 -99999.99 -99999.99 -99999.99
1/14/2022 4:00:00 PM -99999.99 -179968 -99999.99 -99999.99 -99999.99 -99999.99
1/14/2022 4:15:00 PM -99999.99 -179968 -99999.99 -99999.99 -99999.99 -99999.99
1/14/2022 4:30:00 PM -99999.99 -179968 -99999.99 -99999.99 -99999.99 -99999.99
1/14/2022 4:45:00 PM -99999.99 -179968 -99999.99 -99999.99 -99999.99 -99999.99
1/14/2022 5:00:00 PM -99999.99 -179968 -99999.99 -99999.99 -99999.99 -99999.99
1/14/2022 5:15:00 PM -99999.99 -179968 -99999.99 -99999.99 -99999.99 -99999.99
1/14/2022 5:30:00 PM -99999.99 -179968 -99999.99 -99999.99 -99999.99 -99999.99
1/14/2022 5:45:00 PM -99999.99 -179968 -99999.99 -99999.99 -99999.99 -99999.99
1/14/2022 6:00:00 PM -99999.99 -179968 -99999.99 -99999.99 -99999.99 -99999.99
1/14/2022 6:15:00 PM -99999.99 -179968 -99999.99 -99999.99 -99999.99 -99999.99
1/14/2022 6:30:00 PM -99999.99 -179968 -99999.99 -99999.99 -99999.99 -99999.99
1/14/2022 6:45:00 PM -99999.99 -179968 -99999.99 -99999.99 -99999.99 -99999.99
1/14/2022 7:00:00 PM -99999.99 -179968 -99999.99 -99999.99 -99999.99 -99999.99
1/14/2022 7:15:00 PM -99999.99 -179968 -99999.99 -99999.99 -99999.99 -99999.99
1/14/2022 7:30:00 PM -99999.99 -179968 -99999.99 -99999.99 -99999.99 -99999.99
1/14/2022 7:45:00 PM -99999.99 -179968 -99999.99 -99999.99 -99999.99 -99999.99
1/14/2022 8:00:00 PM -99999.99 -179968 -99999.99 -99999.99 -99999.99 -99999.99
1/14/2022 8:15:00 PM -99999.99 -179968 -99999.99 -99999.99 -99999.99 -99999.99
1/14/2022 8:30:00 PM -99999.99 -179968 -99999.99 -99999.99 -99999.99 -99999.99
1/14/2022 8:45:00 PM -99999.99 -179968 -99999.99 -99999.99 -99999.99 -99999.99
1/14/2022 9:00:00 PM -99999.99 -179968 -99999.99 -99999.99 -99999.99 -99999.99
1/14/2022 9:15:00 PM -99999.99 -179968 -99999.99 -99999.99 -99999.99 -99999.99
1/14/2022 9:30:00 PM -99999.99 -179968 -99999.99 -99999.99 -99999.99 -99999.99
1/14/2022 9:45:00 PM -99999.99 -179968 -99999.99 -99999.99 -99999.99 -99999.99
1/14/2022 10:00:00 PM -99999.99 -179968 -99999.99 -99999.99 -99999.99 -99999.99
1/14/2022 10:15:00 PM -99999.99 -179968 -99999.99 -99999.99 -99999.99 -99999.99
1/14/2022 10:30:00 PM -99999.99 -179968 -99999.99 -99999.99 -99999.99 -99999.99
1/14/2022 10:45:00 PM -99999.99 -179968 -99999.99 -99999.99 -99999.99 -99999.99
1/14/2022 11:00:00 PM -99999.99 -179968 -99999.99 -99999.99 -99999.99 -99999.99
1/14/2022 11:15:00 PM -99999.99 -179968 -99999.99 -99999.99 -99999.99 -99999.99
1/14/2022 11:30:00 PM -99999.99 -179968 -99999.99 -99999.99 -99999.99 -99999.99
1/14/2022 11:45:00 PM -99999.99 -179968 -99999.99 -99999.99 -99999.99 -99999.99
1/15/2022 12:00:00 AM -99999.99 -179968 -99999.99 -99999.99 -99999.99 -99999.99
1/15/2022 12:15:00 AM -99999.99 -179968 -99999.99 -99999.99 -99999.99 -99999.99
1/15/2022 12:30:00 AM -99999.99 -179968 -99999.99 -99999.99 -99999.99 -99999.99
1/15/2022 12:45:00 AM -99999.99 -179968 -99999.99 -99999.99 -99999.99 -99999.99
1/15/2022 1:00:00 AM -99999.99 -179968 -99999.99 -99999.99 -99999.99 -99999.99
1/15/2022 1:15:00 AM -99999.99 -179968 -99999.99 -99999.99 -99999.99 -99999.99
1/15/2022 1:30:00 AM -99999.99 -179968 -99999.99 -99999.99 -99999.99 -99999.99
1/15/2022 1:45:00 AM -99999.99 -179968 -99999.99 -99999.99 -99999.99 -99999.99
1/15/2022 2:00:00 AM -99999.99 -179968 -99999.99 -99999.99 -99999.99 -99999.99
1/15/2022 2:15:00 AM -99999.99 -179968 -99999.99 -99999.99 -99999.99 -99999.99
1/15/2022 2:30:00 AM -99999.99 -179968 -99999.99 -99999.99 -99999.99 -99999.99
1/15/2022 2:45:00 AM -99999.99 -179968 -99999.99 -99999.99 -99999.99 -99999.99
1/15/2022 3:00:00 AM -99999.99 -179968 -99999.99 -99999.99 -99999.99 -99999.99
1/15/2022 3:15:00 AM -99999.99 -179968 -99999.99 -99999.99 -99999.99 -99999.99
1/15/2022 3:30:00 AM -99999.99 -179968 -99999.99 -99999.99 -99999.99 -99999.99
1/15/2022 3:45:00 AM -99999.99 -179968 -99999.99 -99999.99 -99999.99 -99999.99
1/15/2022 4:00:00 AM -99999.99 -179968 -99999.99 -99999.99 -99999.99 -99999.99
1/15/2022 4:15:00 AM -99999.99 -179968 -99999.99 -99999.99 -99999.99 -99999.99
1/15/2022 4:30:00 AM -99999.99 -179968 -99999.99 -99999.99 -99999.99 -99999.99
1/15/2022 4:45:00 AM -99999.99 -179968 -99999.99 -99999.99 -99999.99 -99999.99
1/15/2022 5:00:00 AM -99999.99 -179968 -99999.99 -99999.99 -99999.99 -99999.99
1/15/2022 5:15:00 AM -99999.99 -179968 -99999.99 -99999.99 -99999.99 -99999.99
1/15/2022 5:30:00 AM -99999.99 -179968 -99999.99 -99999.99 -99999.99 -99999.99
1/15/2022 5:45:00 AM -99999.99 -179968 -99999.99 -99999.99 -99999.99 -99999.99
1/15/2022 6:00:00 AM -99999.99 -179968 -99999.99 -99999.99 -99999.99 -99999.99
1/15/2022 6:15:00 AM -99999.99 -179968 -99999.99 -99999.99 -99999.99 -99999.99
1/15/2022 6:30:00 AM -99999.99 -179968 -99999.99 -99999.99 -99999.99 -99999.99
1/15/2022 6:45:00 AM -99999.99 -179968 -99999.99 -99999.99 -99999.99 -99999.99
1/15/2022 7:00:00 AM -99999.99 -179968 -99999.99 -99999.99 -99999.99 -99999.99
1/15/2022 7:15:00 AM -99999.99 -179968 -99999.99 -99999.99 -99999.99 -99999.99
1/15/2022 7:30:00 AM -99999.99 -179968 -99999.99 -99999.99 -99999.99 -99999.99
1/15/2022 7:45:00 AM -99999.99 -179968 -99999.99 -99999.99 -99999.99 -99999.99
1/15/2022 8:00:00 AM -99999.99 -179968 -99999.99 -99999.99 -99999.99 -99999.99
1/15/2022 8:15:00 AM -99999.99 -179968 -99999.99 -99999.99 -99999.99 -99999.99
1/15/2022 8:30:00 AM -99999.99 -179968 -99999.99 -99999.99 -99999.99 -99999.99
1/15/2022 8:45:00 AM -99999.99 -179968 -99999.99 -99999.99 -99999.99 -99999.99
1/15/2022 9:00:00 AM -99999.99 -179968 -99999.99 -99999.99 -99999.99 -99999.99
1/15/2022 9:15:00 AM -99999.99 -179968 -99999.99 -99999.99 -99999.99 -99999.99
1/15/2022 9:30:00 AM -99999.99 -179968 -99999.99 -99999.99 -99999.99 -99999.99
1/15/2022 9:45:00 AM -99999.99 -179968 -99999.99 -99999.99 -99999.99 -99999.99
1/15/2022 10:00:00 AM -0.04 31.928 0.032 6.71 1.3 14.35
1/15/2022 10:15:00 AM -0.03 31.946 0.032 6.65 1.2 14.35
1/15/2022 10:30:00 AM -0.03 31.946 0.032 6.52 1.18 14.35
1/15/2022 10:45:00 AM -0.03 31.946 0.032 6.65 1.24 14.35
1/15/2022 11:00:00 AM -0.02 31.964 0.032 6.62 1.23 14.35
1/15/2022 11:15:00 AM -0.02 31.964